<?xml version="1.0" encoding="UTF-8" standalone="no" ?><gpx xmlns="http://www.topografix.com/GPX/1/1" xmlns:gpxx="http://www.garmin.com/xmlschemas/GpxExtensions/v3" xmlns:wptx1="http://www.garmin.com/xmlschemas/WaypointExtension/v1" xmlns:gpxtpx="http://www.garmin.com/xmlschemas/TrackPointExtension/v1" creator="GuideVTT.com" version="1.1" xmlns:xsi="http://www.w3.org/2001/XMLSchema-instance" xsi:schemaLocation="http://www.topografix.com/GPX/1/1 http://www.topografix.com/GPX/1/1/gpx.xsd http://www.garmin.com/xmlschemas/GpxExtensions/v3 http://www8.garmin.com/xmlschemas/GpxExtensionsv3.xsd http://www.garmin.com/xmlschemas/WaypointExtension/v1 http://www8.garmin.com/xmlschemas/WaypointExtensionv1.xsd http://www.garmin.com/xmlschemas/TrackPointExtension/v1 http://www.garmin.com/xmlschemas/TrackPointExtensionv1.xsd">
<metadata><link href="http://www.garmin.com"><text>Garmin International</text></link><time>2013-06-22T15:13:50Z</time></metadata>
<trk><name>rp_2014_33.gpx</name><extensions><gpxx:TrackExtension><gpxx:DisplayColor>Cyan</gpxx:DisplayColor></gpxx:TrackExtension></extensions><trkseg>
<trkpt lat="46.2556581292" lon="7.5334345456"><ele></ele><time>2014-9-28T11:11:16Z</time></trkpt>
<trkpt lat="46.2556675170" lon="7.5334192906"><ele></ele><time>2014-9-28T11:11:19Z</time></trkpt>
<trkpt lat="46.2557075825" lon="7.5333041232"><ele></ele><time>2014-9-28T11:11:22Z</time></trkpt>
<trkpt lat="46.2558142003" lon="7.5328995287"><ele></ele><time>2014-9-28T11:11:25Z</time></trkpt>
<trkpt lat="46.2558489852" lon="7.5327130314"><ele></ele><time>2014-9-28T11:11:28Z</time></trkpt>
<trkpt lat="46.2558326405" lon="7.5326080061"><ele></ele><time>2014-9-28T11:11:31Z</time></trkpt>
<trkpt lat="46.2558444589" lon="7.5325161405"><ele></ele><time>2014-9-28T11:11:34Z</time></trkpt>
<trkpt lat="46.2558738794" lon="7.5324189942"><ele></ele><time>2014-9-28T11:11:37Z</time></trkpt>
<trkpt lat="46.2558902241" lon="7.5323473290"><ele></ele><time>2014-9-28T11:11:40Z</time></trkpt>
<trkpt lat="46.2560587842" lon="7.5320077781"><ele></ele><time>2014-9-28T11:11:43Z</time></trkpt>
<trkpt lat="46.2562881969" lon="7.5316715799"><ele></ele><time>2014-9-28T11:11:46Z</time></trkpt>
<trkpt lat="46.2563264184" lon="7.5313674845"><ele></ele><time>2014-9-28T11:11:49Z</time></trkpt>
<trkpt lat="46.2562449463" lon="7.5311718509"><ele></ele><time>2014-9-28T11:11:52Z</time></trkpt>
<trkpt lat="46.2562441919" lon="7.5311551709"><ele></ele><time>2014-9-28T11:11:55Z</time></trkpt>
<trkpt lat="46.2562767975" lon="7.5309997704"><ele></ele><time>2014-9-28T11:11:58Z</time></trkpt>
<trkpt lat="46.2562229019" lon="7.5305725448"><ele></ele><time>2014-9-28T11:12:1Z</time></trkpt>
<trkpt lat="46.2561063934" lon="7.5301136356"><ele></ele><time>2014-9-28T11:12:4Z</time></trkpt>
<trkpt lat="46.2559783179" lon="7.5296392199"><ele></ele><time>2014-9-28T11:12:7Z</time></trkpt>
<trkpt lat="46.2559700198" lon="7.5295381341"><ele></ele><time>2014-9-28T11:12:10Z</time></trkpt>
<trkpt lat="46.2559262663" lon="7.5294551533"><ele></ele><time>2014-9-28T11:12:13Z</time></trkpt>
<trkpt lat="46.2557407748" lon="7.5293903612"><ele></ele><time>2014-9-28T11:12:16Z</time></trkpt>
<trkpt lat="46.2555281259" lon="7.5293539837"><ele></ele><time>2014-9-28T11:12:19Z</time></trkpt>
<trkpt lat="46.2553925067" lon="7.5292141736"><ele></ele><time>2014-9-28T11:12:22Z</time></trkpt>
<trkpt lat="46.2552812789" lon="7.5289659854"><ele></ele><time>2014-9-28T11:12:25Z</time></trkpt>
<trkpt lat="46.2551093660" lon="7.5287996884"><ele></ele><time>2014-9-28T11:12:28Z</time></trkpt>
<trkpt lat="46.2549475115" lon="7.5286204834"><ele></ele><time>2014-9-28T11:12:31Z</time></trkpt>
<trkpt lat="46.2548818812" lon="7.5284219161"><ele></ele><time>2014-9-28T11:12:34Z</time></trkpt>
<trkpt lat="46.2548643630" lon="7.5283998717"><ele></ele><time>2014-9-28T11:12:37Z</time></trkpt>
<trkpt lat="46.2547897641" lon="7.5281635858"><ele></ele><time>2014-9-28T11:12:40Z</time></trkpt>
<trkpt lat="46.2547698990" lon="7.5280228537"><ele></ele><time>2014-9-28T11:12:43Z</time></trkpt>
<trkpt lat="46.2547380477" lon="7.5279739872"><ele></ele><time>2014-9-28T11:12:46Z</time></trkpt>
<trkpt lat="46.2547275703" lon="7.5277724862"><ele></ele><time>2014-9-28T11:12:49Z</time></trkpt>
<trkpt lat="46.2547004968" lon="7.5274978112"><ele></ele><time>2014-9-28T11:12:52Z</time></trkpt>
<trkpt lat="46.2546792068" lon="7.5271940511"><ele></ele><time>2014-9-28T11:12:55Z</time></trkpt>
<trkpt lat="46.2545886822" lon="7.5268829986"><ele></ele><time>2014-9-28T11:12:58Z</time></trkpt>
<trkpt lat="46.2544324435" lon="7.5267441943"><ele></ele><time>2014-9-28T11:13:1Z</time></trkpt>
<trkpt lat="46.2542439345" lon="7.5266479701"><ele></ele><time>2014-9-28T11:13:4Z</time></trkpt>
<trkpt lat="46.2540639751" lon="7.5265293662"><ele></ele><time>2014-9-28T11:13:7Z</time></trkpt>
<trkpt lat="46.2538960017" lon="7.5264485646"><ele></ele><time>2014-9-28T11:13:10Z</time></trkpt>
<trkpt lat="46.2537190598" lon="7.5263508316"><ele></ele><time>2014-9-28T11:13:13Z</time></trkpt>
<trkpt lat="46.2535831053" lon="7.5261329021"><ele></ele><time>2014-9-28T11:13:16Z</time></trkpt>
<trkpt lat="46.2534536887" lon="7.5258059241"><ele></ele><time>2014-9-28T11:13:19Z</time></trkpt>
<trkpt lat="46.2533614039" lon="7.5256574806"><ele></ele><time>2014-9-28T11:13:22Z</time></trkpt>
<trkpt lat="46.2532881461" lon="7.5256439019"><ele></ele><time>2014-9-28T11:13:25Z</time></trkpt>
<trkpt lat="46.2532521039" lon="7.5255351886"><ele></ele><time>2014-9-28T11:13:28Z</time></trkpt>
<trkpt lat="46.2530955300" lon="7.5254027545"><ele></ele><time>2014-9-28T11:13:31Z</time></trkpt>
<trkpt lat="46.2530004792" lon="7.5252129044"><ele></ele><time>2014-9-28T11:13:34Z</time></trkpt>
<trkpt lat="46.2529530376" lon="7.5249781273"><ele></ele><time>2014-9-28T11:13:37Z</time></trkpt>
<trkpt lat="46.2528323382" lon="7.5248433463"><ele></ele><time>2014-9-28T11:13:40Z</time></trkpt>
<trkpt lat="46.2526772730" lon="7.5247183722"><ele></ele><time>2014-9-28T11:13:43Z</time></trkpt>
<trkpt lat="46.2525284942" lon="7.5246149395"><ele></ele><time>2014-9-28T11:13:46Z</time></trkpt>
<trkpt lat="46.2523946352" lon="7.5243675895"><ele></ele><time>2014-9-28T11:13:49Z</time></trkpt>
<trkpt lat="46.2522789650" lon="7.5241577066"><ele></ele><time>2014-9-28T11:13:52Z</time></trkpt>
<trkpt lat="46.2521288451" lon="7.5239495840"><ele></ele><time>2014-9-28T11:13:55Z</time></trkpt>
<trkpt lat="46.2519903760" lon="7.5237995479"><ele></ele><time>2014-9-28T11:13:58Z</time></trkpt>
<trkpt lat="46.2518731132" lon="7.5236822013"><ele></ele><time>2014-9-28T11:14:1Z</time></trkpt>
<trkpt lat="46.2518149428" lon="7.5235470012"><ele></ele><time>2014-9-28T11:14:4Z</time></trkpt>
<trkpt lat="46.2518089917" lon="7.5235351827"><ele></ele><time>2014-9-28T11:14:7Z</time></trkpt>
<trkpt lat="46.2517574430" lon="7.5233856495"><ele></ele><time>2014-9-28T11:14:10Z</time></trkpt>
<trkpt lat="46.2517018709" lon="7.5232533831"><ele></ele><time>2014-9-28T11:14:13Z</time></trkpt>
<trkpt lat="46.2516730372" lon="7.5231968891"><ele></ele><time>2014-9-28T11:14:16Z</time></trkpt>
<trkpt lat="46.2515917327" lon="7.5231228769"><ele></ele><time>2014-9-28T11:14:19Z</time></trkpt>
<trkpt lat="46.2515424471" lon="7.5231657922"><ele></ele><time>2014-9-28T11:14:22Z</time></trkpt>
<trkpt lat="46.2514311355" lon="7.5234791078"><ele></ele><time>2014-9-28T11:14:25Z</time></trkpt>
<trkpt lat="46.2514080014" lon="7.5235058460"><ele></ele><time>2014-9-28T11:14:28Z</time></trkpt>
<trkpt lat="46.2513627391" lon="7.5235064328"><ele></ele><time>2014-9-28T11:14:31Z</time></trkpt>
<trkpt lat="46.2513239309" lon="7.5234346837"><ele></ele><time>2014-9-28T11:14:34Z</time></trkpt>
<trkpt lat="46.2512489129" lon="7.5231838133"><ele></ele><time>2014-9-28T11:14:37Z</time></trkpt>
<trkpt lat="46.2511660159" lon="7.5229972322"><ele></ele><time>2014-9-28T11:14:40Z</time></trkpt>
<trkpt lat="46.2511313986" lon="7.5229632854"><ele></ele><time>2014-9-28T11:14:43Z</time></trkpt>
<trkpt lat="46.2510706298" lon="7.5229246449"><ele></ele><time>2014-9-28T11:14:46Z</time></trkpt>
<trkpt lat="46.2510237750" lon="7.5228900276"><ele></ele><time>2014-9-28T11:14:49Z</time></trkpt>
<trkpt lat="46.2509080209" lon="7.5227901991"><ele></ele><time>2014-9-28T11:14:52Z</time></trkpt>
<trkpt lat="46.2508590706" lon="7.5227733515"><ele></ele><time>2014-9-28T11:14:55Z</time></trkpt>
<trkpt lat="46.2508005649" lon="7.5227546599"><ele></ele><time>2014-9-28T11:14:58Z</time></trkpt>
<trkpt lat="46.2506786082" lon="7.5226560887"><ele></ele><time>2014-9-28T11:15:1Z</time></trkpt>
<trkpt lat="46.2506666221" lon="7.5226518139"><ele></ele><time>2014-9-28T11:15:4Z</time></trkpt>
<trkpt lat="46.2505738344" lon="7.5226232316"><ele></ele><time>2014-9-28T11:15:7Z</time></trkpt>
<trkpt lat="46.2504405621" lon="7.5225986727"><ele></ele><time>2014-9-28T11:15:10Z</time></trkpt>
<trkpt lat="46.2502984889" lon="7.5225562602"><ele></ele><time>2014-9-28T11:15:13Z</time></trkpt>
<trkpt lat="46.2501238100" lon="7.5225408375"><ele></ele><time>2014-9-28T11:15:16Z</time></trkpt>
<trkpt lat="46.2499874365" lon="7.5225152727"><ele></ele><time>2014-9-28T11:15:19Z</time></trkpt>
<trkpt lat="46.2498317845" lon="7.5224907976"><ele></ele><time>2014-9-28T11:15:22Z</time></trkpt>
<trkpt lat="46.2496740371" lon="7.5224670768"><ele></ele><time>2014-9-28T11:15:25Z</time></trkpt>
<trkpt lat="46.2495286111" lon="7.5224523246"><ele></ele><time>2014-9-28T11:15:28Z</time></trkpt>
<trkpt lat="46.2494872045" lon="7.5224371534"><ele></ele><time>2014-9-28T11:15:31Z</time></trkpt>
<trkpt lat="46.2492736336" lon="7.5224985089"><ele></ele><time>2014-9-28T11:15:34Z</time></trkpt>
<trkpt lat="46.2492196541" lon="7.5224980060"><ele></ele><time>2014-9-28T11:15:37Z</time></trkpt>
<trkpt lat="46.2490344979" lon="7.5225507282"><ele></ele><time>2014-9-28T11:15:40Z</time></trkpt>
<trkpt lat="46.2488775048" lon="7.5225143507"><ele></ele><time>2014-9-28T11:15:43Z</time></trkpt>
<trkpt lat="46.2487355992" lon="7.5224154443"><ele></ele><time>2014-9-28T11:15:46Z</time></trkpt>
<trkpt lat="46.2487001438" lon="7.5223916396"><ele></ele><time>2014-9-28T11:15:49Z</time></trkpt>
<trkpt lat="46.2484889198" lon="7.5223005284"><ele></ele><time>2014-9-28T11:15:52Z</time></trkpt>
<trkpt lat="46.2484499440" lon="7.5222563557"><ele></ele><time>2014-9-28T11:15:55Z</time></trkpt>
<trkpt lat="46.2482909393" lon="7.5222136918"><ele></ele><time>2014-9-28T11:15:58Z</time></trkpt>
<trkpt lat="46.2481509615" lon="7.5222136918"><ele></ele><time>2014-9-28T11:16:1Z</time></trkpt>
<trkpt lat="46.2480300944" lon="7.5221989397"><ele></ele><time>2014-9-28T11:16:4Z</time></trkpt>
<trkpt lat="46.2478113268" lon="7.5220980216"><ele></ele><time>2014-9-28T11:16:7Z</time></trkpt>
<trkpt lat="46.2477594428" lon="7.5220701937"><ele></ele><time>2014-9-28T11:16:10Z</time></trkpt>
<trkpt lat="46.2477008533" lon="7.5220606383"><ele></ele><time>2014-9-28T11:16:13Z</time></trkpt>
<trkpt lat="46.2478094827" lon="7.5222062320"><ele></ele><time>2014-9-28T11:16:16Z</time></trkpt>
<trkpt lat="46.2479394861" lon="7.5223174598"><ele></ele><time>2014-9-28T11:16:19Z</time></trkpt>
<trkpt lat="46.2481258158" lon="7.5224705134"><ele></ele><time>2014-9-28T11:16:22Z</time></trkpt>
<trkpt lat="46.2481668871" lon="7.5225231517"><ele></ele><time>2014-9-28T11:16:25Z</time></trkpt>
<trkpt lat="46.2482069526" lon="7.5226246566"><ele></ele><time>2014-9-28T11:16:28Z</time></trkpt>
<trkpt lat="46.2482570764" lon="7.5229823962"><ele></ele><time>2014-9-28T11:16:31Z</time></trkpt>
<trkpt lat="46.2483885046" lon="7.5232612621"><ele></ele><time>2014-9-28T11:16:34Z</time></trkpt>
<trkpt lat="46.2485965434" lon="7.5234429818"><ele></ele><time>2014-9-28T11:16:37Z</time></trkpt>
<trkpt lat="46.2488000561" lon="7.5234839693"><ele></ele><time>2014-9-28T11:16:40Z</time></trkpt>
<trkpt lat="46.2490482442" lon="7.5236110389"><ele></ele><time>2014-9-28T11:16:43Z</time></trkpt>
<trkpt lat="46.2492500804" lon="7.5239927508"><ele></ele><time>2014-9-28T11:16:46Z</time></trkpt>
<trkpt lat="46.2492950074" lon="7.5244554318"><ele></ele><time>2014-9-28T11:16:49Z</time></trkpt>
<trkpt lat="46.2492431235" lon="7.5248212181"><ele></ele><time>2014-9-28T11:16:52Z</time></trkpt>
<trkpt lat="46.2492135353" lon="7.5252248067"><ele></ele><time>2014-9-28T11:16:55Z</time></trkpt>
<trkpt lat="46.2491786666" lon="7.5256162416"><ele></ele><time>2014-9-28T11:16:58Z</time></trkpt>
<trkpt lat="46.2491570413" lon="7.5260345824"><ele></ele><time>2014-9-28T11:17:1Z</time></trkpt>
<trkpt lat="46.2491709553" lon="7.5264660828"><ele></ele><time>2014-9-28T11:17:4Z</time></trkpt>
<trkpt lat="46.2491537724" lon="7.5268421788"><ele></ele><time>2014-9-28T11:17:7Z</time></trkpt>
<trkpt lat="46.2491649203" lon="7.5270023569"><ele></ele><time>2014-9-28T11:17:10Z</time></trkpt>
<trkpt lat="46.2491860427" lon="7.5273411535"><ele></ele><time>2014-9-28T11:17:13Z</time></trkpt>
<trkpt lat="46.2492116913" lon="7.5276624318"><ele></ele><time>2014-9-28T11:17:16Z</time></trkpt>
<trkpt lat="46.2491437979" lon="7.5280155614"><ele></ele><time>2014-9-28T11:17:19Z</time></trkpt>
<trkpt lat="46.2490451429" lon="7.5283437129"><ele></ele><time>2014-9-28T11:17:22Z</time></trkpt>
<trkpt lat="46.2490205001" lon="7.5287294481"><ele></ele><time>2014-9-28T11:17:25Z</time></trkpt>
<trkpt lat="46.2490483280" lon="7.5291615352"><ele></ele><time>2014-9-28T11:17:28Z</time></trkpt>
<trkpt lat="46.2490225956" lon="7.5293565821"><ele></ele><time>2014-9-28T11:17:31Z</time></trkpt>
<trkpt lat="46.2489814404" lon="7.5296917744"><ele></ele><time>2014-9-28T11:17:34Z</time></trkpt>
<trkpt lat="46.2489708792" lon="7.5300259609"><ele></ele><time>2014-9-28T11:17:37Z</time></trkpt>
<trkpt lat="46.2489971146" lon="7.5304007158"><ele></ele><time>2014-9-28T11:17:40Z</time></trkpt>
<trkpt lat="46.2489630003" lon="7.5307820085"><ele></ele><time>2014-9-28T11:17:43Z</time></trkpt>
<trkpt lat="46.2488350924" lon="7.5311626308"><ele></ele><time>2014-9-28T11:17:46Z</time></trkpt>
<trkpt lat="46.2487562187" lon="7.5316899363"><ele></ele><time>2014-9-28T11:17:49Z</time></trkpt>
<trkpt lat="46.2486599945" lon="7.5320112146"><ele></ele><time>2014-9-28T11:17:52Z</time></trkpt>
<trkpt lat="46.2485730741" lon="7.5324738119"><ele></ele><time>2014-9-28T11:17:55Z</time></trkpt>
<trkpt lat="46.2485528737" lon="7.5330794044"><ele></ele><time>2014-9-28T11:17:58Z</time></trkpt>
<trkpt lat="46.2485148199" lon="7.5334582664"><ele></ele><time>2014-9-28T11:18:1Z</time></trkpt>
<trkpt lat="46.2484600022" lon="7.5337347016"><ele></ele><time>2014-9-28T11:18:4Z</time></trkpt>
<trkpt lat="46.2484248821" lon="7.5340665411"><ele></ele><time>2014-9-28T11:18:7Z</time></trkpt>
<trkpt lat="46.2484113034" lon="7.5343998894"><ele></ele><time>2014-9-28T11:18:10Z</time></trkpt>
<trkpt lat="46.2483470142" lon="7.5347642507"><ele></ele><time>2014-9-28T11:18:13Z</time></trkpt>
<trkpt lat="46.2482560705" lon="7.5351706054"><ele></ele><time>2014-9-28T11:18:16Z</time></trkpt>
<trkpt lat="46.2481574994" lon="7.5354762934"><ele></ele><time>2014-9-28T11:18:19Z</time></trkpt>
<trkpt lat="46.2480281666" lon="7.5357352104"><ele></ele><time>2014-9-28T11:18:22Z</time></trkpt>
<trkpt lat="46.2480973173" lon="7.5361993164"><ele></ele><time>2014-9-28T11:18:25Z</time></trkpt>
<trkpt lat="46.2480188627" lon="7.5365385320"><ele></ele><time>2014-9-28T11:18:28Z</time></trkpt>
<trkpt lat="46.2477638852" lon="7.5366714690"><ele></ele><time>2014-9-28T11:18:31Z</time></trkpt>
<trkpt lat="46.2474855222" lon="7.5368437171"><ele></ele><time>2014-9-28T11:18:34Z</time></trkpt>
<trkpt lat="46.2472418603" lon="7.5371122733"><ele></ele><time>2014-9-28T11:18:37Z</time></trkpt>
<trkpt lat="46.2469643354" lon="7.5373985153"><ele></ele><time>2014-9-28T11:18:40Z</time></trkpt>
<trkpt lat="46.2466919236" lon="7.5375387445"><ele></ele><time>2014-9-28T11:18:43Z</time></trkpt>
<trkpt lat="46.2464821246" lon="7.5374873634"><ele></ele><time>2014-9-28T11:18:46Z</time></trkpt>
<trkpt lat="46.2461387180" lon="7.5376648922"><ele></ele><time>2014-9-28T11:18:49Z</time></trkpt>
<trkpt lat="46.2457696628" lon="7.5379186124"><ele></ele><time>2014-9-28T11:18:52Z</time></trkpt>
<trkpt lat="46.2455174513" lon="7.5381777808"><ele></ele><time>2014-9-28T11:18:55Z</time></trkpt>
<trkpt lat="46.2452657428" lon="7.5384651963"><ele></ele><time>2014-9-28T11:18:58Z</time></trkpt>
<trkpt lat="46.2449977733" lon="7.5387537014"><ele></ele><time>2014-9-28T11:19:1Z</time></trkpt>
<trkpt lat="46.2446567137" lon="7.5389986206"><ele></ele><time>2014-9-28T11:19:4Z</time></trkpt>
<trkpt lat="46.2442906760" lon="7.5389785040"><ele></ele><time>2014-9-28T11:19:7Z</time></trkpt>
<trkpt lat="46.2441016641" lon="7.5388769992"><ele></ele><time>2014-9-28T11:19:10Z</time></trkpt>
<trkpt lat="46.2438953854" lon="7.5387837086"><ele></ele><time>2014-9-28T11:19:13Z</time></trkpt>
<trkpt lat="46.2436295114" lon="7.5386469997"><ele></ele><time>2014-9-28T11:19:16Z</time></trkpt>
<trkpt lat="46.2433780544" lon="7.5385452434"><ele></ele><time>2014-9-28T11:19:19Z</time></trkpt>
<trkpt lat="46.2432756275" lon="7.5384472590"><ele></ele><time>2014-9-28T11:19:22Z</time></trkpt>
<trkpt lat="46.2431525812" lon="7.5383453351"><ele></ele><time>2014-9-28T11:19:25Z</time></trkpt>
<trkpt lat="46.2429706100" lon="7.5382640306"><ele></ele><time>2014-9-28T11:19:28Z</time></trkpt>
<trkpt lat="46.2428095937" lon="7.5382287428"><ele></ele><time>2014-9-28T11:19:31Z</time></trkpt>
<trkpt lat="46.2426474039" lon="7.5381854922"><ele></ele><time>2014-9-28T11:19:34Z</time></trkpt>
<trkpt lat="46.2423930969" lon="7.5380904414"><ele></ele><time>2014-9-28T11:19:37Z</time></trkpt>
<trkpt lat="46.2422972079" lon="7.5380326062"><ele></ele><time>2014-9-28T11:19:40Z</time></trkpt>
<trkpt lat="46.2421358563" lon="7.5378794689"><ele></ele><time>2014-9-28T11:19:43Z</time></trkpt>
<trkpt lat="46.2418698985" lon="7.5379170198"><ele></ele><time>2014-9-28T11:19:46Z</time></trkpt>
<trkpt lat="46.2418223731" lon="7.5379627012"><ele></ele><time>2014-9-28T11:19:49Z</time></trkpt>
<trkpt lat="46.2417528033" lon="7.5380812213"><ele></ele><time>2014-9-28T11:19:52Z</time></trkpt>
<trkpt lat="46.2415430881" lon="7.5382352807"><ele></ele><time>2014-9-28T11:19:55Z</time></trkpt>
<trkpt lat="46.2412537448" lon="7.5383100472"><ele></ele><time>2014-9-28T11:19:58Z</time></trkpt>
<trkpt lat="46.2411077321" lon="7.5383701455"><ele></ele><time>2014-9-28T11:20:1Z</time></trkpt>
<trkpt lat="46.2409095000" lon="7.5383783597"><ele></ele><time>2014-9-28T11:20:4Z</time></trkpt>
<trkpt lat="46.2407283671" lon="7.5382881705"><ele></ele><time>2014-9-28T11:20:7Z</time></trkpt>
<trkpt lat="46.2404663488" lon="7.5382379629"><ele></ele><time>2014-9-28T11:20:10Z</time></trkpt>
<trkpt lat="46.2402221002" lon="7.5382080395"><ele></ele><time>2014-9-28T11:20:13Z</time></trkpt>
<trkpt lat="46.2398299947" lon="7.5382472668"><ele></ele><time>2014-9-28T11:20:16Z</time></trkpt>
<trkpt lat="46.2396260630" lon="7.5384016614"><ele></ele><time>2014-9-28T11:20:19Z</time></trkpt>
<trkpt lat="46.2393422518" lon="7.5388169847"><ele></ele><time>2014-9-28T11:20:22Z</time></trkpt>
<trkpt lat="46.2390507292" lon="7.5392858684"><ele></ele><time>2014-9-28T11:20:25Z</time></trkpt>
<trkpt lat="46.2388587836" lon="7.5397358928"><ele></ele><time>2014-9-28T11:20:28Z</time></trkpt>
<trkpt lat="46.2386360765" lon="7.5400979910"><ele></ele><time>2014-9-28T11:20:31Z</time></trkpt>
<trkpt lat="46.2385734636" lon="7.5406219438"><ele></ele><time>2014-9-28T11:20:34Z</time></trkpt>
<trkpt lat="46.2386575341" lon="7.5411675218"><ele></ele><time>2014-9-28T11:20:37Z</time></trkpt>
<trkpt lat="46.2386908103" lon="7.5415005349"><ele></ele><time>2014-9-28T11:20:40Z</time></trkpt>
<trkpt lat="46.2385567836" lon="7.5417958293"><ele></ele><time>2014-9-28T11:20:43Z</time></trkpt>
<trkpt lat="46.2383550312" lon="7.5421554130"><ele></ele><time>2014-9-28T11:20:46Z</time></trkpt>
<trkpt lat="46.2383715436" lon="7.5425850693"><ele></ele><time>2014-9-28T11:20:49Z</time></trkpt>
<trkpt lat="46.2384962663" lon="7.5429812819"><ele></ele><time>2014-9-28T11:20:52Z</time></trkpt>
<trkpt lat="46.2385684345" lon="7.5434259418"><ele></ele><time>2014-9-28T11:20:55Z</time></trkpt>
<trkpt lat="46.2386178877" lon="7.5437809993"><ele></ele><time>2014-9-28T11:20:58Z</time></trkpt>
<trkpt lat="46.2386944145" lon="7.5442406628"><ele></ele><time>2014-9-28T11:21:1Z</time></trkpt>
<trkpt lat="46.2387523334" lon="7.5446918607"><ele></ele><time>2014-9-28T11:21:4Z</time></trkpt>
<trkpt lat="46.2388417684" lon="7.5450710580"><ele></ele><time>2014-9-28T11:21:7Z</time></trkpt>
<trkpt lat="46.2390464544" lon="7.5455335714"><ele></ele><time>2014-9-28T11:21:10Z</time></trkpt>
<trkpt lat="46.2392813154" lon="7.5457528420"><ele></ele><time>2014-9-28T11:21:13Z</time></trkpt>
<trkpt lat="46.2395614386" lon="7.5459935702"><ele></ele><time>2014-9-28T11:21:16Z</time></trkpt>
<trkpt lat="46.2398344371" lon="7.5462858472"><ele></ele><time>2014-9-28T11:21:19Z</time></trkpt>
<trkpt lat="46.2401728146" lon="7.5463946443"><ele></ele><time>2014-9-28T11:21:22Z</time></trkpt>
<trkpt lat="46.2405131198" lon="7.5464111567"><ele></ele><time>2014-9-28T11:21:25Z</time></trkpt>
<trkpt lat="46.2408356555" lon="7.5463208836"><ele></ele><time>2014-9-28T11:21:28Z</time></trkpt>
<trkpt lat="46.2409820035" lon="7.5464302674"><ele></ele><time>2014-9-28T11:21:31Z</time></trkpt>
<trkpt lat="46.2411982566" lon="7.5466841552"><ele></ele><time>2014-9-28T11:21:34Z</time></trkpt>
<trkpt lat="46.2413081434" lon="7.5470092054"><ele></ele><time>2014-9-28T11:21:37Z</time></trkpt>
<trkpt lat="46.2413160224" lon="7.5470745005"><ele></ele><time>2014-9-28T11:21:40Z</time></trkpt>
<trkpt lat="46.2414053734" lon="7.5473734830"><ele></ele><time>2014-9-28T11:21:43Z</time></trkpt>
<trkpt lat="46.2415046152" lon="7.5477910694"><ele></ele><time>2014-9-28T11:21:46Z</time></trkpt>
<trkpt lat="46.2416138314" lon="7.5481942389"><ele></ele><time>2014-9-28T11:21:49Z</time></trkpt>
<trkpt lat="46.2417213712" lon="7.5485837460"><ele></ele><time>2014-9-28T11:21:52Z</time></trkpt>
<trkpt lat="46.2416920345" lon="7.5489956327"><ele></ele><time>2014-9-28T11:21:55Z</time></trkpt>
<trkpt lat="46.2416549027" lon="7.5493484270"><ele></ele><time>2014-9-28T11:21:58Z</time></trkpt>
<trkpt lat="46.2417057808" lon="7.5496606529"><ele></ele><time>2014-9-28T11:22:1Z</time></trkpt>
<trkpt lat="46.2418751791" lon="7.5499275327"><ele></ele><time>2014-9-28T11:22:4Z</time></trkpt>
<trkpt lat="46.2421035022" lon="7.5501719490"><ele></ele><time>2014-9-28T11:22:7Z</time></trkpt>
<trkpt lat="46.2423604075" lon="7.5504398346"><ele></ele><time>2014-9-28T11:22:10Z</time></trkpt>
<trkpt lat="46.2424479146" lon="7.5507995859"><ele></ele><time>2014-9-28T11:22:13Z</time></trkpt>
<trkpt lat="46.2424006406" lon="7.5511522964"><ele></ele><time>2014-9-28T11:22:16Z</time></trkpt>
<trkpt lat="46.2422723137" lon="7.5516046677"><ele></ele><time>2014-9-28T11:22:19Z</time></trkpt>
<trkpt lat="46.2421589065" lon="7.5520252716"><ele></ele><time>2014-9-28T11:22:22Z</time></trkpt>
<trkpt lat="46.2421723176" lon="7.5523772277"><ele></ele><time>2014-9-28T11:22:25Z</time></trkpt>
<trkpt lat="46.2422246207" lon="7.5527721830"><ele></ele><time>2014-9-28T11:22:28Z</time></trkpt>
<trkpt lat="46.2420604192" lon="7.5529491249"><ele></ele><time>2014-9-28T11:22:31Z</time></trkpt>
<trkpt lat="46.2419512868" lon="7.5529522263"><ele></ele><time>2014-9-28T11:22:34Z</time></trkpt>
<trkpt lat="46.2419087067" lon="7.5529321935"><ele></ele><time>2014-9-28T11:22:37Z</time></trkpt>
<trkpt lat="46.2416199502" lon="7.5531093869"><ele></ele><time>2014-9-28T11:22:40Z</time></trkpt>
<trkpt lat="46.2413092330" lon="7.5533703994"><ele></ele><time>2014-9-28T11:22:43Z</time></trkpt>
<trkpt lat="46.2409075722" lon="7.5537132192"><ele></ele><time>2014-9-28T11:22:46Z</time></trkpt>
<trkpt lat="46.2406328134" lon="7.5540223438"><ele></ele><time>2014-9-28T11:22:49Z</time></trkpt>
<trkpt lat="46.2403712142" lon="7.5542792492"><ele></ele><time>2014-9-28T11:22:52Z</time></trkpt>
<trkpt lat="46.2402109522" lon="7.5545243360"><ele></ele><time>2014-9-28T11:22:55Z</time></trkpt>
<trkpt lat="46.2399996445" lon="7.5549119152"><ele></ele><time>2014-9-28T11:22:58Z</time></trkpt>
<trkpt lat="46.2397808768" lon="7.5551542360"><ele></ele><time>2014-9-28T11:23:1Z</time></trkpt>
<trkpt lat="46.2395357061" lon="7.5554176793"><ele></ele><time>2014-9-28T11:23:4Z</time></trkpt>
<trkpt lat="46.2391967420" lon="7.5558589865"><ele></ele><time>2014-9-28T11:23:7Z</time></trkpt>
<trkpt lat="46.2388983462" lon="7.5561284646"><ele></ele><time>2014-9-28T11:23:10Z</time></trkpt>
<trkpt lat="46.2385169696" lon="7.5563090108"><ele></ele><time>2014-9-28T11:23:13Z</time></trkpt>
<trkpt lat="46.2383280415" lon="7.5563615654"><ele></ele><time>2014-9-28T11:23:16Z</time></trkpt>
<trkpt lat="46.2379078567" lon="7.5562665984"><ele></ele><time>2014-9-28T11:23:19Z</time></trkpt>
<trkpt lat="46.2377854809" lon="7.5562728848"><ele></ele><time>2014-9-28T11:23:22Z</time></trkpt>
<trkpt lat="46.2374400627" lon="7.5563496631"><ele></ele><time>2014-9-28T11:23:25Z</time></trkpt>
<trkpt lat="46.2372880150" lon="7.5564055704"><ele></ele><time>2014-9-28T11:23:28Z</time></trkpt>
<trkpt lat="46.2369255815" lon="7.5566371623"><ele></ele><time>2014-9-28T11:23:31Z</time></trkpt>
<trkpt lat="46.2368496414" lon="7.5566703547"><ele></ele><time>2014-9-28T11:23:34Z</time></trkpt>
<trkpt lat="46.2364411075" lon="7.5567602925"><ele></ele><time>2014-9-28T11:23:37Z</time></trkpt>
<trkpt lat="46.2363285385" lon="7.5568067282"><ele></ele><time>2014-9-28T11:23:40Z</time></trkpt>
<trkpt lat="46.2361072563" lon="7.5567196403"><ele></ele><time>2014-9-28T11:23:43Z</time></trkpt>
<trkpt lat="46.2360461522" lon="7.5566570275"><ele></ele><time>2014-9-28T11:23:46Z</time></trkpt>
<trkpt lat="46.2359706312" lon="7.5565924868"><ele></ele><time>2014-9-28T11:23:49Z</time></trkpt>
<trkpt lat="46.2359626684" lon="7.5566083286"><ele></ele><time>2014-9-28T11:23:52Z</time></trkpt>
<trkpt lat="46.2359027378" lon="7.5566030480"><ele></ele><time>2014-9-28T11:23:55Z</time></trkpt>
<trkpt lat="46.2358796876" lon="7.5566085801"><ele></ele><time>2014-9-28T11:23:58Z</time></trkpt>
<trkpt lat="46.2356693018" lon="7.5564144552"><ele></ele><time>2014-9-28T11:24:1Z</time></trkpt>
<trkpt lat="46.2354859058" lon="7.5562405307"><ele></ele><time>2014-9-28T11:24:4Z</time></trkpt>
<trkpt lat="46.2354207784" lon="7.5561742298"><ele></ele><time>2014-9-28T11:24:7Z</time></trkpt>
<trkpt lat="46.2353956327" lon="7.5561578851"><ele></ele><time>2014-9-28T11:24:10Z</time></trkpt>
<trkpt lat="46.2353738397" lon="7.5561341643"><ele></ele><time>2014-9-28T11:24:13Z</time></trkpt>
<trkpt lat="46.2353245541" lon="7.5560814422"><ele></ele><time>2014-9-28T11:24:16Z</time></trkpt>
<trkpt lat="46.2351534795" lon="7.5559904985"><ele></ele><time>2014-9-28T11:24:19Z</time></trkpt>
<trkpt lat="46.2349764537" lon="7.5559424702"><ele></ele><time>2014-9-28T11:24:22Z</time></trkpt>
<trkpt lat="46.2348401640" lon="7.5558162387"><ele></ele><time>2014-9-28T11:24:25Z</time></trkpt>
<trkpt lat="46.2348251604" lon="7.5558077730"><ele></ele><time>2014-9-28T11:24:28Z</time></trkpt>
<trkpt lat="46.2346766330" lon="7.5556629337"><ele></ele><time>2014-9-28T11:24:31Z</time></trkpt>
<trkpt lat="46.2345317099" lon="7.5555809587"><ele></ele><time>2014-9-28T11:24:34Z</time></trkpt>
<trkpt lat="46.2344893813" lon="7.5555496104"><ele></ele><time>2014-9-28T11:24:37Z</time></trkpt>
<trkpt lat="46.2343391776" lon="7.5554408971"><ele></ele><time>2014-9-28T11:24:40Z</time></trkpt>
<trkpt lat="46.2342732120" lon="7.5553865824"><ele></ele><time>2014-9-28T11:24:43Z</time></trkpt>
<trkpt lat="46.2341069989" lon="7.5552144181"><ele></ele><time>2014-9-28T11:24:46Z</time></trkpt>
<trkpt lat="46.2339685299" lon="7.5551034417"><ele></ele><time>2014-9-28T11:24:49Z</time></trkpt>
<trkpt lat="46.2339153886" lon="7.5550757814"><ele></ele><time>2014-9-28T11:24:52Z</time></trkpt>
<trkpt lat="46.2338607386" lon="7.5550489593"><ele></ele><time>2014-9-28T11:24:55Z</time></trkpt>
<trkpt lat="46.2338348385" lon="7.5550477020"><ele></ele><time>2014-9-28T11:24:58Z</time></trkpt>
<trkpt lat="46.2337492593" lon="7.5550172757"><ele></ele><time>2014-9-28T11:25:1Z</time></trkpt>
<trkpt lat="46.2336106226" lon="7.5549558364"><ele></ele><time>2014-9-28T11:25:4Z</time></trkpt>
<trkpt lat="46.2334456667" lon="7.5547941495"><ele></ele><time>2014-9-28T11:25:7Z</time></trkpt>
<trkpt lat="46.2333072815" lon="7.5546300318"><ele></ele><time>2014-9-28T11:25:10Z</time></trkpt>
<trkpt lat="46.2331396434" lon="7.5543753058"><ele></ele><time>2014-9-28T11:25:13Z</time></trkpt>
<trkpt lat="46.2330775335" lon="7.5542423688"><ele></ele><time>2014-9-28T11:25:16Z</time></trkpt>
<trkpt lat="46.2328673992" lon="7.5539640896"><ele></ele><time>2014-9-28T11:25:19Z</time></trkpt>
<trkpt lat="46.2327446882" lon="7.5536459964"><ele></ele><time>2014-9-28T11:25:22Z</time></trkpt>
<trkpt lat="46.2325620465" lon="7.5532759354"><ele></ele><time>2014-9-28T11:25:25Z</time></trkpt>
<trkpt lat="46.2325564306" lon="7.5529786292"><ele></ele><time>2014-9-28T11:25:28Z</time></trkpt>
<trkpt lat="46.2325784750" lon="7.5526884478"><ele></ele><time>2014-9-28T11:25:31Z</time></trkpt>
<trkpt lat="46.2324272655" lon="7.5523532555"><ele></ele><time>2014-9-28T11:25:34Z</time></trkpt>
<trkpt lat="46.2323120143" lon="7.5520951767"><ele></ele><time>2014-9-28T11:25:37Z</time></trkpt>
<trkpt lat="46.2320995331" lon="7.5518999621"><ele></ele><time>2014-9-28T11:25:40Z</time></trkpt>
<trkpt lat="46.2317163125" lon="7.5518006366"><ele></ele><time>2014-9-28T11:25:43Z</time></trkpt>
<trkpt lat="46.2316765822" lon="7.5518153887"><ele></ele><time>2014-9-28T11:25:46Z</time></trkpt>
<trkpt lat="46.2311989814" lon="7.5520664267"><ele></ele><time>2014-9-28T11:25:49Z</time></trkpt>
<trkpt lat="46.2310440838" lon="7.5521402713"><ele></ele><time>2014-9-28T11:25:52Z</time></trkpt>
<trkpt lat="46.2308777031" lon="7.5522718672"><ele></ele><time>2014-9-28T11:25:55Z</time></trkpt>
<trkpt lat="46.2306986656" lon="7.5522935763"><ele></ele><time>2014-9-28T11:25:58Z</time></trkpt>
<trkpt lat="46.2303959113" lon="7.5520955119"><ele></ele><time>2014-9-28T11:26:1Z</time></trkpt>
<trkpt lat="46.2302198075" lon="7.5519433804"><ele></ele><time>2014-9-28T11:26:4Z</time></trkpt>
<trkpt lat="46.2301255111" lon="7.5518594775"><ele></ele><time>2014-9-28T11:26:7Z</time></trkpt>
<trkpt lat="46.2298331503" lon="7.5518959388"><ele></ele><time>2014-9-28T11:26:10Z</time></trkpt>
<trkpt lat="46.2297593895" lon="7.5520089269"><ele></ele><time>2014-9-28T11:26:13Z</time></trkpt>
<trkpt lat="46.2293568905" lon="7.5523319654"><ele></ele><time>2014-9-28T11:26:16Z</time></trkpt>
<trkpt lat="46.2289449200" lon="7.5521515869"><ele></ele><time>2014-9-28T11:26:19Z</time></trkpt>
<trkpt lat="46.2287164293" lon="7.5521517545"><ele></ele><time>2014-9-28T11:26:22Z</time></trkpt>
<trkpt lat="46.2284742761" lon="7.5522384234"><ele></ele><time>2014-9-28T11:26:25Z</time></trkpt>
<trkpt lat="46.2281051371" lon="7.5521772355"><ele></ele><time>2014-9-28T11:26:28Z</time></trkpt>
<trkpt lat="46.2279183045" lon="7.5520566199"><ele></ele><time>2014-9-28T11:26:31Z</time></trkpt>
<trkpt lat="46.2278955057" lon="7.5519964378"><ele></ele><time>2014-9-28T11:26:34Z</time></trkpt>
<trkpt lat="46.2276966032" lon="7.5517227687"><ele></ele><time>2014-9-28T11:26:37Z</time></trkpt>
<trkpt lat="46.2274880614" lon="7.5516556296"><ele></ele><time>2014-9-28T11:26:40Z</time></trkpt>
<trkpt lat="46.2272678688" lon="7.5515718944"><ele></ele><time>2014-9-28T11:26:43Z</time></trkpt>
<trkpt lat="46.2270076945" lon="7.5515439827"><ele></ele><time>2014-9-28T11:26:46Z</time></trkpt>
<trkpt lat="46.2268511206" lon="7.5518360082"><ele></ele><time>2014-9-28T11:26:49Z</time></trkpt>
<trkpt lat="46.2267648708" lon="7.5522406865"><ele></ele><time>2014-9-28T11:26:52Z</time></trkpt>
<trkpt lat="46.2266426627" lon="7.5526358094"><ele></ele><time>2014-9-28T11:26:55Z</time></trkpt>
<trkpt lat="46.2264676485" lon="7.5529473647"><ele></ele><time>2014-9-28T11:26:58Z</time></trkpt>
<trkpt lat="46.2262366433" lon="7.5533744227"><ele></ele><time>2014-9-28T11:27:1Z</time></trkpt>
<trkpt lat="46.2261119206" lon="7.5539289694"><ele></ele><time>2014-9-28T11:27:4Z</time></trkpt>
<trkpt lat="46.2261018623" lon="7.5539892353"><ele></ele><time>2014-9-28T11:27:7Z</time></trkpt>
<trkpt lat="46.2260618806" lon="7.5542436261"><ele></ele><time>2014-9-28T11:27:10Z</time></trkpt>
<trkpt lat="46.2259982619" lon="7.5545338076"><ele></ele><time>2014-9-28T11:27:13Z</time></trkpt>
<trkpt lat="46.2259240821" lon="7.5550050382"><ele></ele><time>2014-9-28T11:27:16Z</time></trkpt>
<trkpt lat="46.2259006966" lon="7.5552716665"><ele></ele><time>2014-9-28T11:27:19Z</time></trkpt>
<trkpt lat="46.2259607948" lon="7.5557577331"><ele></ele><time>2014-9-28T11:27:22Z</time></trkpt>
<trkpt lat="46.2260418478" lon="7.5567108393"><ele></ele><time>2014-9-28T11:27:25Z</time></trkpt>
<trkpt lat="46.2259735353" lon="7.5575811323"><ele></ele><time>2014-9-28T11:27:28Z</time></trkpt>
<trkpt lat="46.2258171290" lon="7.5578210223"><ele></ele><time>2014-9-28T11:27:31Z</time></trkpt>
<trkpt lat="46.2253883108" lon="7.5580623373"><ele></ele><time>2014-9-28T11:27:34Z</time></trkpt>
<trkpt lat="46.2249698024" lon="7.5580168236"><ele></ele><time>2014-9-28T11:27:37Z</time></trkpt>
<trkpt lat="46.2246813811" lon="7.5583272893"><ele></ele><time>2014-9-28T11:27:40Z</time></trkpt>
<trkpt lat="46.2245858274" lon="7.5588439498"><ele></ele><time>2014-9-28T11:27:43Z</time></trkpt>
<trkpt lat="46.2244199496" lon="7.5590815768"><ele></ele><time>2014-9-28T11:27:46Z</time></trkpt>
<trkpt lat="46.2241873518" lon="7.5595369656"><ele></ele><time>2014-9-28T11:27:49Z</time></trkpt>
<trkpt lat="46.2240880262" lon="7.5597153325"><ele></ele><time>2014-9-28T11:27:52Z</time></trkpt>
<trkpt lat="46.2238774728" lon="7.5599558093"><ele></ele><time>2014-9-28T11:27:55Z</time></trkpt>
<trkpt lat="46.2235049810" lon="7.5600799453"><ele></ele><time>2014-9-28T11:27:58Z</time></trkpt>
<trkpt lat="46.2231153063" lon="7.5600128062"><ele></ele><time>2014-9-28T11:28:1Z</time></trkpt>
<trkpt lat="46.2229823694" lon="7.5602107868"><ele></ele><time>2014-9-28T11:28:4Z</time></trkpt>
<trkpt lat="46.2227910105" lon="7.5603748206"><ele></ele><time>2014-9-28T11:28:7Z</time></trkpt>
<trkpt lat="46.2225299142" lon="7.5607483182"><ele></ele><time>2014-9-28T11:28:10Z</time></trkpt>
<trkpt lat="46.2224445865" lon="7.5607767329"><ele></ele><time>2014-9-28T11:28:13Z</time></trkpt>
<trkpt lat="46.2222903594" lon="7.5607702788"><ele></ele><time>2014-9-28T11:28:16Z</time></trkpt>
<trkpt lat="46.2220899481" lon="7.5608050637"><ele></ele><time>2014-9-28T11:28:19Z</time></trkpt>
<trkpt lat="46.2220891099" lon="7.5608017948"><ele></ele><time>2014-9-28T11:28:22Z</time></trkpt>
<trkpt lat="46.2220929656" lon="7.5608052313"><ele></ele><time>2014-9-28T11:28:25Z</time></trkpt>
<trkpt lat="46.2220922112" lon="7.5607951730"><ele></ele><time>2014-9-28T11:28:28Z</time></trkpt>
<trkpt lat="46.2219658960" lon="7.5607234240"><ele></ele><time>2014-9-28T11:28:31Z</time></trkpt>
<trkpt lat="46.2217946537" lon="7.5607013796"><ele></ele><time>2014-9-28T11:28:34Z</time></trkpt>
<trkpt lat="46.2215561885" lon="7.5607898086"><ele></ele><time>2014-9-28T11:28:37Z</time></trkpt>
<trkpt lat="46.2212903146" lon="7.5609629788"><ele></ele><time>2014-9-28T11:28:40Z</time></trkpt>
<trkpt lat="46.2209847942" lon="7.5607367512"><ele></ele><time>2014-9-28T11:28:43Z</time></trkpt>
<trkpt lat="46.2209120393" lon="7.5606111065"><ele></ele><time>2014-9-28T11:28:46Z</time></trkpt>
<trkpt lat="46.2206609175" lon="7.5603724737"><ele></ele><time>2014-9-28T11:28:49Z</time></trkpt>
<trkpt lat="46.2202510424" lon="7.5600895844"><ele></ele><time>2014-9-28T11:28:52Z</time></trkpt>
<trkpt lat="46.2201529741" lon="7.5600685459"><ele></ele><time>2014-9-28T11:28:55Z</time></trkpt>
<trkpt lat="46.2197817396" lon="7.5601601601"><ele></ele><time>2014-9-28T11:28:58Z</time></trkpt>
<trkpt lat="46.2197195459" lon="7.5601218548"><ele></ele><time>2014-9-28T11:29:1Z</time></trkpt>
<trkpt lat="46.2195275165" lon="7.5599818770"><ele></ele><time>2014-9-28T11:29:4Z</time></trkpt>
<trkpt lat="46.2193771452" lon="7.5599214435"><ele></ele><time>2014-9-28T11:29:7Z</time></trkpt>
<trkpt lat="46.2188192457" lon="7.5595626142"><ele></ele><time>2014-9-28T11:29:10Z</time></trkpt>
<trkpt lat="46.2186565530" lon="7.5593126658"><ele></ele><time>2014-9-28T11:29:13Z</time></trkpt>
<trkpt lat="46.2183688022" lon="7.5592697505"><ele></ele><time>2014-9-28T11:29:16Z</time></trkpt>
<trkpt lat="46.2183080334" lon="7.5593862589"><ele></ele><time>2014-9-28T11:29:19Z</time></trkpt>
<trkpt lat="46.2181158364" lon="7.5597629417"><ele></ele><time>2014-9-28T11:29:22Z</time></trkpt>
<trkpt lat="46.2178936321" lon="7.5599052664"><ele></ele><time>2014-9-28T11:29:25Z</time></trkpt>
<trkpt lat="46.2176284287" lon="7.5600218587"><ele></ele><time>2014-9-28T11:29:28Z</time></trkpt>
<trkpt lat="46.2175767962" lon="7.5600550510"><ele></ele><time>2014-9-28T11:29:31Z</time></trkpt>
<trkpt lat="46.2175780535" lon="7.5603238586"><ele></ele><time>2014-9-28T11:29:34Z</time></trkpt>
<trkpt lat="46.2175251637" lon="7.5604878925"><ele></ele><time>2014-9-28T11:29:37Z</time></trkpt>
<trkpt lat="46.2173607107" lon="7.5604101084"><ele></ele><time>2014-9-28T11:29:40Z</time></trkpt>
<trkpt lat="46.2173207290" lon="7.5603646785"><ele></ele><time>2014-9-28T11:29:43Z</time></trkpt>
<trkpt lat="46.2170629017" lon="7.5600884110"><ele></ele><time>2014-9-28T11:29:46Z</time></trkpt>
<trkpt lat="46.2168131210" lon="7.5599773508"><ele></ele><time>2014-9-28T11:29:49Z</time></trkpt>
<trkpt lat="46.2165318243" lon="7.5598052703"><ele></ele><time>2014-9-28T11:29:52Z</time></trkpt>
<trkpt lat="46.2163038366" lon="7.5598275661"><ele></ele><time>2014-9-28T11:29:55Z</time></trkpt>
<trkpt lat="46.2161073647" lon="7.5596942101"><ele></ele><time>2014-9-28T11:29:58Z</time></trkpt>
<trkpt lat="46.2158776168" lon="7.5595674757"><ele></ele><time>2014-9-28T11:30:1Z</time></trkpt>
<trkpt lat="46.2157703284" lon="7.5595768634"><ele></ele><time>2014-9-28T11:30:4Z</time></trkpt>
<trkpt lat="46.2158022635" lon="7.5598375406"><ele></ele><time>2014-9-28T11:30:7Z</time></trkpt>
<trkpt lat="46.2158331927" lon="7.5600676239"><ele></ele><time>2014-9-28T11:30:10Z</time></trkpt>
<trkpt lat="46.2158144172" lon="7.5603114534"><ele></ele><time>2014-9-28T11:30:13Z</time></trkpt>
<trkpt lat="46.2157482002" lon="7.5606542733"><ele></ele><time>2014-9-28T11:30:16Z</time></trkpt>
<trkpt lat="46.2157124095" lon="7.5608323049"><ele></ele><time>2014-9-28T11:30:19Z</time></trkpt>
<trkpt lat="46.2156678177" lon="7.5611200556"><ele></ele><time>2014-9-28T11:30:22Z</time></trkpt>
<trkpt lat="46.2156017683" lon="7.5613819063"><ele></ele><time>2014-9-28T11:30:25Z</time></trkpt>
<trkpt lat="46.2155741081" lon="7.5616502948"><ele></ele><time>2014-9-28T11:30:28Z</time></trkpt>
<trkpt lat="46.2154664844" lon="7.5619674660"><ele></ele><time>2014-9-28T11:30:31Z</time></trkpt>
<trkpt lat="46.2153238244" lon="7.5625045784"><ele></ele><time>2014-9-28T11:30:34Z</time></trkpt>
<trkpt lat="46.2151467148" lon="7.5628430396"><ele></ele><time>2014-9-28T11:30:37Z</time></trkpt>
<trkpt lat="46.2150680088" lon="7.5629658345"><ele></ele><time>2014-9-28T11:30:40Z</time></trkpt>
<trkpt lat="46.2148005422" lon="7.5634468719"><ele></ele><time>2014-9-28T11:30:43Z</time></trkpt>
<trkpt lat="46.2147630751" lon="7.5635078084"><ele></ele><time>2014-9-28T11:30:46Z</time></trkpt>
<trkpt lat="46.2145605683" lon="7.5639394764"><ele></ele><time>2014-9-28T11:30:49Z</time></trkpt>
<trkpt lat="46.2144531123" lon="7.5640041847"><ele></ele><time>2014-9-28T11:30:52Z</time></trkpt>
<trkpt lat="46.2142075226" lon="7.5642912649"><ele></ele><time>2014-9-28T11:30:55Z</time></trkpt>
<trkpt lat="46.2141037546" lon="7.5647579692"><ele></ele><time>2014-9-28T11:30:58Z</time></trkpt>
<trkpt lat="46.2138269003" lon="7.5653146952"><ele></ele><time>2014-9-28T11:31:1Z</time></trkpt>
<trkpt lat="46.2137534749" lon="7.5656252448"><ele></ele><time>2014-9-28T11:31:4Z</time></trkpt>
<trkpt lat="46.2136324402" lon="7.5660211220"><ele></ele><time>2014-9-28T11:31:7Z</time></trkpt>
<trkpt lat="46.2134224735" lon="7.5662692264"><ele></ele><time>2014-9-28T11:31:10Z</time></trkpt>
<trkpt lat="46.2132052984" lon="7.5664906763"><ele></ele><time>2014-9-28T11:31:13Z</time></trkpt>
<trkpt lat="46.2128697708" lon="7.5668424647"><ele></ele><time>2014-9-28T11:31:16Z</time></trkpt>
<trkpt lat="46.2125711236" lon="7.5671147928"><ele></ele><time>2014-9-28T11:31:19Z</time></trkpt>
<trkpt lat="46.2122184131" lon="7.5675311219"><ele></ele><time>2014-9-28T11:31:22Z</time></trkpt>
<trkpt lat="46.2118703127" lon="7.5679320283"><ele></ele><time>2014-9-28T11:31:25Z</time></trkpt>
<trkpt lat="46.2115952186" lon="7.5682942942"><ele></ele><time>2014-9-28T11:31:28Z</time></trkpt>
<trkpt lat="46.2113238126" lon="7.5686291512"><ele></ele><time>2014-9-28T11:31:31Z</time></trkpt>
<trkpt lat="46.2110593636" lon="7.5688030757"><ele></ele><time>2014-9-28T11:31:34Z</time></trkpt>
<trkpt lat="46.2107923999" lon="7.5688030757"><ele></ele><time>2014-9-28T11:31:37Z</time></trkpt>
<trkpt lat="46.2105576228" lon="7.5690942630"><ele></ele><time>2014-9-28T11:31:40Z</time></trkpt>
<trkpt lat="46.2102849595" lon="7.5694575347"><ele></ele><time>2014-9-28T11:31:43Z</time></trkpt>
<trkpt lat="46.2101029884" lon="7.5695846882"><ele></ele><time>2014-9-28T11:31:46Z</time></trkpt>
<trkpt lat="46.2100637611" lon="7.5696177967"><ele></ele><time>2014-9-28T11:31:49Z</time></trkpt>
<trkpt lat="46.2100418843" lon="7.5696291123"><ele></ele><time>2014-9-28T11:31:52Z</time></trkpt>
<trkpt lat="46.2098667864" lon="7.5697429385"><ele></ele><time>2014-9-28T11:31:55Z</time></trkpt>
<trkpt lat="46.2096809596" lon="7.5698206387"><ele></ele><time>2014-9-28T11:31:58Z</time></trkpt>
<trkpt lat="46.2094100565" lon="7.5699331239"><ele></ele><time>2014-9-28T11:32:1Z</time></trkpt>
<trkpt lat="46.2092127465" lon="7.5701704994"><ele></ele><time>2014-9-28T11:32:4Z</time></trkpt>
<trkpt lat="46.2091020215" lon="7.5702144206"><ele></ele><time>2014-9-28T11:32:7Z</time></trkpt>
<trkpt lat="46.2088536657" lon="7.5703486986"><ele></ele><time>2014-9-28T11:32:10Z</time></trkpt>
<trkpt lat="46.2086287793" lon="7.5706868246"><ele></ele><time>2014-9-28T11:32:13Z</time></trkpt>
<trkpt lat="46.2085825112" lon="7.5707167480"><ele></ele><time>2014-9-28T11:32:16Z</time></trkpt>
<trkpt lat="46.2085764762" lon="7.5707608368"><ele></ele><time>2014-9-28T11:32:19Z</time></trkpt>
<trkpt lat="46.2085663341" lon="7.5707547180"><ele></ele><time>2014-9-28T11:32:22Z</time></trkpt>
<trkpt lat="46.2085719500" lon="7.5706937816"><ele></ele><time>2014-9-28T11:32:25Z</time></trkpt>
<trkpt lat="46.2085740454" lon="7.5706946198"><ele></ele><time>2014-9-28T11:32:28Z</time></trkpt>
<trkpt lat="46.2085742969" lon="7.5706875790"><ele></ele><time>2014-9-28T11:32:31Z</time></trkpt>
<trkpt lat="46.2085753027" lon="7.5706675462"><ele></ele><time>2014-9-28T11:32:34Z</time></trkpt>
<trkpt lat="46.2085696869" lon="7.5706667919"><ele></ele><time>2014-9-28T11:32:37Z</time></trkpt>
<trkpt lat="46.2085688487" lon="7.5706815440"><ele></ele><time>2014-9-28T11:32:40Z</time></trkpt>
<trkpt lat="46.2085881270" lon="7.5706752576"><ele></ele><time>2014-9-28T11:32:43Z</time></trkpt>
<trkpt lat="46.2085814215" lon="7.5706744194"><ele></ele><time>2014-9-28T11:32:46Z</time></trkpt>
<trkpt lat="46.2085754704" lon="7.5706704799"><ele></ele><time>2014-9-28T11:32:49Z</time></trkpt>
<trkpt lat="46.2085690163" lon="7.5706635229"><ele></ele><time>2014-9-28T11:32:52Z</time></trkpt>
<trkpt lat="46.2084656674" lon="7.5705507025"><ele></ele><time>2014-9-28T11:32:55Z</time></trkpt>
<trkpt lat="46.2084105983" lon="7.5705080386"><ele></ele><time>2014-9-28T11:32:58Z</time></trkpt>
<trkpt lat="46.2081142981" lon="7.5701844133"><ele></ele><time>2014-9-28T11:33:1Z</time></trkpt>
<trkpt lat="46.2080090214" lon="7.5700982474"><ele></ele><time>2014-9-28T11:33:4Z</time></trkpt>
<trkpt lat="46.2077313289" lon="7.5698268414"><ele></ele><time>2014-9-28T11:33:7Z</time></trkpt>
<trkpt lat="46.2076142337" lon="7.5698142685"><ele></ele><time>2014-9-28T11:33:10Z</time></trkpt>
<trkpt lat="46.2073999085" lon="7.5697989296"><ele></ele><time>2014-9-28T11:33:13Z</time></trkpt>
<trkpt lat="46.2071457691" lon="7.5695239194"><ele></ele><time>2014-9-28T11:33:16Z</time></trkpt>
<trkpt lat="46.2068927195" lon="7.5695257634"><ele></ele><time>2014-9-28T11:33:19Z</time></trkpt>
<trkpt lat="46.2068024464" lon="7.5698619615"><ele></ele><time>2014-9-28T11:33:22Z</time></trkpt>
<trkpt lat="46.2067309488" lon="7.5702669751"><ele></ele><time>2014-9-28T11:33:25Z</time></trkpt>
<trkpt lat="46.2066387478" lon="7.5710355118"><ele></ele><time>2014-9-28T11:33:28Z</time></trkpt>
<trkpt lat="46.2064835988" lon="7.5715262722"><ele></ele><time>2014-9-28T11:33:31Z</time></trkpt>
<trkpt lat="46.2061444670" lon="7.5722212996"><ele></ele><time>2014-9-28T11:33:34Z</time></trkpt>
<trkpt lat="46.2060074229" lon="7.5725081284"><ele></ele><time>2014-9-28T11:33:37Z</time></trkpt>
<trkpt lat="46.2058418803" lon="7.5727215316"><ele></ele><time>2014-9-28T11:33:40Z</time></trkpt>
<trkpt lat="46.2054445781" lon="7.5729801971"><ele></ele><time>2014-9-28T11:33:43Z</time></trkpt>
<trkpt lat="46.2054065242" lon="7.5730226096"><ele></ele><time>2014-9-28T11:33:46Z</time></trkpt>
<trkpt lat="46.2052028440" lon="7.5732161477"><ele></ele><time>2014-9-28T11:33:49Z</time></trkpt>
<trkpt lat="46.2050285842" lon="7.5733749010"><ele></ele><time>2014-9-28T11:33:52Z</time></trkpt>
<trkpt lat="46.2048098166" lon="7.5733960234"><ele></ele><time>2014-9-28T11:33:55Z</time></trkpt>
<trkpt lat="46.2046741135" lon="7.5733747333"><ele></ele><time>2014-9-28T11:33:58Z</time></trkpt>
<trkpt lat="46.2045649812" lon="7.5732952729"><ele></ele><time>2014-9-28T11:34:1Z</time></trkpt>
<trkpt lat="46.2041123584" lon="7.5728791952"><ele></ele><time>2014-9-28T11:34:4Z</time></trkpt>
<trkpt lat="46.2037226837" lon="7.5725204498"><ele></ele><time>2014-9-28T11:34:7Z</time></trkpt>
<trkpt lat="46.2035803590" lon="7.5724875089"><ele></ele><time>2014-9-28T11:34:10Z</time></trkpt>
<trkpt lat="46.2033850607" lon="7.5725550670"><ele></ele><time>2014-9-28T11:34:13Z</time></trkpt>
<trkpt lat="46.2032449991" lon="7.5726733357"><ele></ele><time>2014-9-28T11:34:16Z</time></trkpt>
<trkpt lat="46.2029138301" lon="7.5732097775"><ele></ele><time>2014-9-28T11:34:19Z</time></trkpt>
<trkpt lat="46.2028633710" lon="7.5732883159"><ele></ele><time>2014-9-28T11:34:22Z</time></trkpt>
<trkpt lat="46.2027024385" lon="7.5734636653"><ele></ele><time>2014-9-28T11:34:25Z</time></trkpt>
<trkpt lat="46.2025372311" lon="7.5736308843"><ele></ele><time>2014-9-28T11:34:28Z</time></trkpt>
<trkpt lat="46.2020281143" lon="7.5738503225"><ele></ele><time>2014-9-28T11:34:31Z</time></trkpt>
<trkpt lat="46.2014002260" lon="7.5742170308"><ele></ele><time>2014-9-28T11:34:34Z</time></trkpt>
<trkpt lat="46.2013245374" lon="7.5742346328"><ele></ele><time>2014-9-28T11:34:37Z</time></trkpt>
<trkpt lat="46.2009693962" lon="7.5741264224"><ele></ele><time>2014-9-28T11:34:40Z</time></trkpt>
<trkpt lat="46.2008036021" lon="7.5740626361"><ele></ele><time>2014-9-28T11:34:43Z</time></trkpt>
<trkpt lat="46.2006727606" lon="7.5740652345"><ele></ele><time>2014-9-28T11:34:46Z</time></trkpt>
<trkpt lat="46.2005509716" lon="7.5742596947"><ele></ele><time>2014-9-28T11:34:49Z</time></trkpt>
<trkpt lat="46.2003736943" lon="7.5745519716"><ele></ele><time>2014-9-28T11:34:52Z</time></trkpt>
<trkpt lat="46.2000462972" lon="7.5744638778"><ele></ele><time>2014-9-28T11:34:55Z</time></trkpt>
<trkpt lat="46.1997958459" lon="7.5747113116"><ele></ele><time>2014-9-28T11:34:58Z</time></trkpt>
<trkpt lat="46.1996650882" lon="7.5749246310"><ele></ele><time>2014-9-28T11:35:1Z</time></trkpt>
<trkpt lat="46.1993606575" lon="7.5753076002"><ele></ele><time>2014-9-28T11:35:4Z</time></trkpt>
<trkpt lat="46.1992010660" lon="7.5754506793"><ele></ele><time>2014-9-28T11:35:7Z</time></trkpt>
<trkpt lat="46.1989260558" lon="7.5754231028"><ele></ele><time>2014-9-28T11:35:10Z</time></trkpt>
<trkpt lat="46.1988520436" lon="7.5753337517"><ele></ele><time>2014-9-28T11:35:13Z</time></trkpt>
<trkpt lat="46.1985330284" lon="7.5750078633"><ele></ele><time>2014-9-28T11:35:16Z</time></trkpt>
<trkpt lat="46.1983045377" lon="7.5749353599"><ele></ele><time>2014-9-28T11:35:19Z</time></trkpt>
<trkpt lat="46.1981040426" lon="7.5746647082"><ele></ele><time>2014-9-28T11:35:22Z</time></trkpt>
<trkpt lat="46.1978681758" lon="7.5746157579"><ele></ele><time>2014-9-28T11:35:25Z</time></trkpt>
<trkpt lat="46.1977068242" lon="7.5745813921"><ele></ele><time>2014-9-28T11:35:28Z</time></trkpt>
<trkpt lat="46.1974306405" lon="7.5745206233"><ele></ele><time>2014-9-28T11:35:31Z</time></trkpt>
<trkpt lat="46.1972283851" lon="7.5744502991"><ele></ele><time>2014-9-28T11:35:34Z</time></trkpt>
<trkpt lat="46.1967237107" lon="7.5742973294"><ele></ele><time>2014-9-28T11:35:37Z</time></trkpt>
<trkpt lat="46.1964218784" lon="7.5744855031"><ele></ele><time>2014-9-28T11:35:40Z</time></trkpt>
<trkpt lat="46.1962684896" lon="7.5748721603"><ele></ele><time>2014-9-28T11:35:43Z</time></trkpt>
<trkpt lat="46.1958744563" lon="7.5752111245"><ele></ele><time>2014-9-28T11:35:46Z</time></trkpt>
<trkpt lat="46.1958005279" lon="7.5752056763"><ele></ele><time>2014-9-28T11:35:49Z</time></trkpt>
<trkpt lat="46.1953886412" lon="7.5751951151"><ele></ele><time>2014-9-28T11:35:52Z</time></trkpt>
<trkpt lat="46.1950873956" lon="7.5753036607"><ele></ele><time>2014-9-28T11:35:55Z</time></trkpt>
<trkpt lat="46.1948584020" lon="7.5754220132"><ele></ele><time>2014-9-28T11:35:58Z</time></trkpt>
<trkpt lat="46.1948198453" lon="7.5755738933"><ele></ele><time>2014-9-28T11:36:1Z</time></trkpt>
<trkpt lat="46.1947900057" lon="7.5765945576"><ele></ele><time>2014-9-28T11:36:4Z</time></trkpt>
<trkpt lat="46.1947936937" lon="7.5767740980"><ele></ele><time>2014-9-28T11:36:7Z</time></trkpt>
<trkpt lat="46.1946701445" lon="7.5774783455"><ele></ele><time>2014-9-28T11:36:10Z</time></trkpt>
<trkpt lat="46.1946361978" lon="7.5780422799"><ele></ele><time>2014-9-28T11:36:13Z</time></trkpt>
<trkpt lat="46.1945493612" lon="7.5783229060"><ele></ele><time>2014-9-28T11:36:16Z</time></trkpt>
<trkpt lat="46.1943093035" lon="7.5785865169"><ele></ele><time>2014-9-28T11:36:19Z</time></trkpt>
<trkpt lat="46.1941150110" lon="7.5786503032"><ele></ele><time>2014-9-28T11:36:22Z</time></trkpt>
<trkpt lat="46.1937590316" lon="7.5787383970"><ele></ele><time>2014-9-28T11:36:25Z</time></trkpt>
<trkpt lat="46.1934960913" lon="7.5790019240"><ele></ele><time>2014-9-28T11:36:28Z</time></trkpt>
<trkpt lat="46.1931738909" lon="7.5790543109"><ele></ele><time>2014-9-28T11:36:31Z</time></trkpt>
<trkpt lat="46.1928361002" lon="7.5790254772"><ele></ele><time>2014-9-28T11:36:34Z</time></trkpt>
<trkpt lat="46.1926536262" lon="7.5790212862"><ele></ele><time>2014-9-28T11:36:37Z</time></trkpt>
<trkpt lat="46.1924851499" lon="7.5790828094"><ele></ele><time>2014-9-28T11:36:40Z</time></trkpt>
<trkpt lat="46.1924009956" lon="7.5791114755"><ele></ele><time>2014-9-28T11:36:43Z</time></trkpt>
<trkpt lat="46.1920563318" lon="7.5791123137"><ele></ele><time>2014-9-28T11:36:46Z</time></trkpt>
<trkpt lat="46.1917034537" lon="7.5792164169"><ele></ele><time>2014-9-28T11:36:49Z</time></trkpt>
<trkpt lat="46.1914328020" lon="7.5791371241"><ele></ele><time>2014-9-28T11:36:52Z</time></trkpt>
<trkpt lat="46.1908493377" lon="7.5791749265"><ele></ele><time>2014-9-28T11:36:55Z</time></trkpt>
<trkpt lat="46.1903426517" lon="7.5792737491"><ele></ele><time>2014-9-28T11:36:58Z</time></trkpt>
<trkpt lat="46.1897523981" lon="7.5794703886"><ele></ele><time>2014-9-28T11:37:1Z</time></trkpt>
<trkpt lat="46.1890350748" lon="7.5796785951"><ele></ele><time>2014-9-28T11:37:4Z</time></trkpt>
<trkpt lat="46.1885098647" lon="7.5796454027"><ele></ele><time>2014-9-28T11:37:7Z</time></trkpt>
<trkpt lat="46.1881914362" lon="7.5796283875"><ele></ele><time>2014-9-28T11:37:10Z</time></trkpt>
<trkpt lat="46.1878611892" lon="7.5796965323"><ele></ele><time>2014-9-28T11:37:13Z</time></trkpt>
<trkpt lat="46.1875853408" lon="7.5797524396"><ele></ele><time>2014-9-28T11:37:16Z</time></trkpt>
<trkpt lat="46.1871197261" lon="7.5797158945"><ele></ele><time>2014-9-28T11:37:19Z</time></trkpt>
<trkpt lat="46.1867083423" lon="7.5796525273"><ele></ele><time>2014-9-28T11:37:22Z</time></trkpt>
<trkpt lat="46.1866414547" lon="7.5797064230"><ele></ele><time>2014-9-28T11:37:25Z</time></trkpt>
<trkpt lat="46.1864056718" lon="7.5799308904"><ele></ele><time>2014-9-28T11:37:28Z</time></trkpt>
<trkpt lat="46.1860040948" lon="7.5799137075"><ele></ele><time>2014-9-28T11:37:31Z</time></trkpt>
<trkpt lat="46.1856870074" lon="7.5796362665"><ele></ele><time>2014-9-28T11:37:34Z</time></trkpt>
<trkpt lat="46.1853886116" lon="7.5794037525"><ele></ele><time>2014-9-28T11:37:37Z</time></trkpt>
<trkpt lat="46.1851426028" lon="7.5793308299"><ele></ele><time>2014-9-28T11:37:40Z</time></trkpt>
<trkpt lat="46.1847919878" lon="7.5790502038"><ele></ele><time>2014-9-28T11:37:43Z</time></trkpt>
<trkpt lat="46.1845576297" lon="7.5787107367"><ele></ele><time>2014-9-28T11:37:46Z</time></trkpt>
<trkpt lat="46.1842806917" lon="7.5783761311"><ele></ele><time>2014-9-28T11:37:49Z</time></trkpt>
<trkpt lat="46.1839081161" lon="7.5781830121"><ele></ele><time>2014-9-28T11:37:52Z</time></trkpt>
<trkpt lat="46.1838378757" lon="7.5781209022"><ele></ele><time>2014-9-28T11:37:55Z</time></trkpt>
<trkpt lat="46.1834847461" lon="7.5777515117"><ele></ele><time>2014-9-28T11:37:58Z</time></trkpt>
<trkpt lat="46.1830371525" lon="7.5772801135"><ele></ele><time>2014-9-28T11:38:1Z</time></trkpt>
<trkpt lat="46.1829429399" lon="7.5771655329"><ele></ele><time>2014-9-28T11:38:4Z</time></trkpt>
<trkpt lat="46.1825593840" lon="7.5767487846"><ele></ele><time>2014-9-28T11:38:7Z</time></trkpt>
<trkpt lat="46.1823443882" lon="7.5764643867"><ele></ele><time>2014-9-28T11:38:10Z</time></trkpt>
<trkpt lat="46.1821661051" lon="7.5763000175"><ele></ele><time>2014-9-28T11:38:13Z</time></trkpt>
<trkpt lat="46.1820210982" lon="7.5761845149"><ele></ele><time>2014-9-28T11:38:16Z</time></trkpt>
<trkpt lat="46.1818630993" lon="7.5760748796"><ele></ele><time>2014-9-28T11:38:19Z</time></trkpt>
<trkpt lat="46.1816796195" lon="7.5758951716"><ele></ele><time>2014-9-28T11:38:22Z</time></trkpt>
<trkpt lat="46.1815115623" lon="7.5756898150"><ele></ele><time>2014-9-28T11:38:25Z</time></trkpt>
<trkpt lat="46.1813844088" lon="7.5756212510"><ele></ele><time>2014-9-28T11:38:28Z</time></trkpt>
<trkpt lat="46.1810373981" lon="7.5755462330"><ele></ele><time>2014-9-28T11:38:31Z</time></trkpt>
<trkpt lat="46.1808420159" lon="7.5754212588"><ele></ele><time>2014-9-28T11:38:34Z</time></trkpt>
<trkpt lat="46.1806084961" lon="7.5752375275"><ele></ele><time>2014-9-28T11:38:37Z</time></trkpt>
<trkpt lat="46.1802572943" lon="7.5748948753"><ele></ele><time>2014-9-28T11:38:40Z</time></trkpt>
<trkpt lat="46.1797998101" lon="7.5747771095"><ele></ele><time>2014-9-28T11:38:43Z</time></trkpt>
<trkpt lat="46.1794489436" lon="7.5747634470"><ele></ele><time>2014-9-28T11:38:46Z</time></trkpt>
<trkpt lat="46.1793280765" lon="7.5748025905"><ele></ele><time>2014-9-28T11:38:49Z</time></trkpt>
<trkpt lat="46.1791259889" lon="7.5747641176"><ele></ele><time>2014-9-28T11:38:52Z</time></trkpt>
<trkpt lat="46.1788083985" lon="7.5744673144"><ele></ele><time>2014-9-28T11:38:55Z</time></trkpt>
<trkpt lat="46.1786766350" lon="7.5741089042"><ele></ele><time>2014-9-28T11:38:58Z</time></trkpt>
<trkpt lat="46.1785979290" lon="7.5738276076"><ele></ele><time>2014-9-28T11:39:1Z</time></trkpt>
<trkpt lat="46.1784478929" lon="7.5735733006"><ele></ele><time>2014-9-28T11:39:4Z</time></trkpt>
<trkpt lat="46.1781490780" lon="7.5735624041"><ele></ele><time>2014-9-28T11:39:7Z</time></trkpt>
<trkpt lat="46.1779109482" lon="7.5737371668"><ele></ele><time>2014-9-28T11:39:10Z</time></trkpt>
<trkpt lat="46.1776795238" lon="7.5740519911"><ele></ele><time>2014-9-28T11:39:13Z</time></trkpt>
<trkpt lat="46.1774887517" lon="7.5741954893"><ele></ele><time>2014-9-28T11:39:16Z</time></trkpt>
<trkpt lat="46.1769886874" lon="7.5742786378"><ele></ele><time>2014-9-28T11:39:19Z</time></trkpt>
<trkpt lat="46.1768074706" lon="7.5743062980"><ele></ele><time>2014-9-28T11:39:22Z</time></trkpt>
<trkpt lat="46.1765645631" lon="7.5741923042"><ele></ele><time>2014-9-28T11:39:25Z</time></trkpt>
<trkpt lat="46.1763193924" lon="7.5741667394"><ele></ele><time>2014-9-28T11:39:28Z</time></trkpt>
<trkpt lat="46.1762333103" lon="7.5741812401"><ele></ele><time>2014-9-28T11:39:31Z</time></trkpt>
<trkpt lat="46.1759940907" lon="7.5741134305"><ele></ele><time>2014-9-28T11:39:34Z</time></trkpt>
<trkpt lat="46.1758788396" lon="7.5740843453"><ele></ele><time>2014-9-28T11:39:37Z</time></trkpt>
<trkpt lat="46.1758313142" lon="7.5740298629"><ele></ele><time>2014-9-28T11:39:40Z</time></trkpt>
<trkpt lat="46.1757943500" lon="7.5740546733"><ele></ele><time>2014-9-28T11:39:43Z</time></trkpt>
<trkpt lat="46.1757875606" lon="7.5740229059"><ele></ele><time>2014-9-28T11:39:46Z</time></trkpt>
<trkpt lat="46.1757517699" lon="7.5739991851"><ele></ele><time>2014-9-28T11:39:49Z</time></trkpt>
<trkpt lat="46.1755219381" lon="7.5738635659"><ele></ele><time>2014-9-28T11:39:52Z</time></trkpt>
<trkpt lat="46.1752144899" lon="7.5737820938"><ele></ele><time>2014-9-28T11:39:55Z</time></trkpt>
<trkpt lat="46.1751345266" lon="7.5737629831"><ele></ele><time>2014-9-28T11:39:58Z</time></trkpt>
<trkpt lat="46.1750185210" lon="7.5736654177"><ele></ele><time>2014-9-28T11:40:1Z</time></trkpt>
<trkpt lat="46.1748501286" lon="7.5734140445"><ele></ele><time>2014-9-28T11:40:4Z</time></trkpt>
<trkpt lat="46.1748009268" lon="7.5733264536"><ele></ele><time>2014-9-28T11:40:7Z</time></trkpt>
<trkpt lat="46.1747987475" lon="7.5734034833"><ele></ele><time>2014-9-28T11:40:10Z</time></trkpt>
<trkpt lat="46.1748585943" lon="7.5734997913"><ele></ele><time>2014-9-28T11:40:13Z</time></trkpt>
<trkpt lat="46.1750593409" lon="7.5737976842"><ele></ele><time>2014-9-28T11:40:16Z</time></trkpt>
<trkpt lat="46.1753066070" lon="7.5738559384"><ele></ele><time>2014-9-28T11:40:19Z</time></trkpt>
<trkpt lat="46.1755060963" lon="7.5739136059"><ele></ele><time>2014-9-28T11:40:22Z</time></trkpt>
<trkpt lat="46.1756736506" lon="7.5739799906"><ele></ele><time>2014-9-28T11:40:25Z</time></trkpt>
<trkpt lat="46.1758736428" lon="7.5740610436"><ele></ele><time>2014-9-28T11:40:28Z</time></trkpt>
<trkpt lat="46.1761163827" lon="7.5741443597"><ele></ele><time>2014-9-28T11:40:31Z</time></trkpt>
<trkpt lat="46.1763683427" lon="7.5742028654"><ele></ele><time>2014-9-28T11:40:34Z</time></trkpt>
<trkpt lat="46.1766631342" lon="7.5742575154"><ele></ele><time>2014-9-28T11:40:37Z</time></trkpt>
<trkpt lat="46.1769062933" lon="7.5743078068"><ele></ele><time>2014-9-28T11:40:40Z</time></trkpt>
<trkpt lat="46.1769976560" lon="7.5743358023"><ele></ele><time>2014-9-28T11:40:43Z</time></trkpt>
<trkpt lat="46.1770777870" lon="7.5742511451"><ele></ele><time>2014-9-28T11:40:46Z</time></trkpt>
<trkpt lat="46.1771315150" lon="7.5742404163"><ele></ele><time>2014-9-28T11:40:49Z</time></trkpt>
<trkpt lat="46.1774190143" lon="7.5742209703"><ele></ele><time>2014-9-28T11:40:52Z</time></trkpt>
<trkpt lat="46.1775471736" lon="7.5741310325"><ele></ele><time>2014-9-28T11:40:55Z</time></trkpt>
<trkpt lat="46.1776791047" lon="7.5741231535"><ele></ele><time>2014-9-28T11:40:58Z</time></trkpt>
<trkpt lat="46.1777008977" lon="7.5741384923"><ele></ele><time>2014-9-28T11:41:1Z</time></trkpt>
<trkpt lat="46.1777078547" lon="7.5741338823"><ele></ele><time>2014-9-28T11:41:4Z</time></trkpt>
<trkpt lat="46.1777210981" lon="7.5740672462"><ele></ele><time>2014-9-28T11:41:7Z</time></trkpt>
<trkpt lat="46.1777927633" lon="7.5738463830"><ele></ele><time>2014-9-28T11:41:10Z</time></trkpt>
<trkpt lat="46.1779174861" lon="7.5737561937"><ele></ele><time>2014-9-28T11:41:13Z</time></trkpt>
<trkpt lat="46.1780588049" lon="7.5736522581"><ele></ele><time>2014-9-28T11:41:16Z</time></trkpt>
<trkpt lat="46.1780584697" lon="7.5736383442"><ele></ele><time>2014-9-28T11:41:19Z</time></trkpt>
<trkpt lat="46.1780928355" lon="7.5735639129"><ele></ele><time>2014-9-28T11:41:22Z</time></trkpt>
<trkpt lat="46.1780438013" lon="7.5736158807"><ele></ele><time>2014-9-28T11:41:25Z</time></trkpt>
<trkpt lat="46.1779218446" lon="7.5737063214"><ele></ele><time>2014-9-28T11:41:28Z</time></trkpt>
<trkpt lat="46.1776097864" lon="7.5737240911"><ele></ele><time>2014-9-28T11:41:31Z</time></trkpt>
<trkpt lat="46.1774185952" lon="7.5736650825"><ele></ele><time>2014-9-28T11:41:34Z</time></trkpt>
<trkpt lat="46.1772098020" lon="7.5735725462"><ele></ele><time>2014-9-28T11:41:37Z</time></trkpt>
<trkpt lat="46.1771464348" lon="7.5735313911"><ele></ele><time>2014-9-28T11:41:40Z</time></trkpt>
<trkpt lat="46.1769339535" lon="7.5733435526"><ele></ele><time>2014-9-28T11:41:43Z</time></trkpt>
<trkpt lat="46.1767046247" lon="7.5731979590"><ele></ele><time>2014-9-28T11:41:46Z</time></trkpt>
<trkpt lat="46.1766119208" lon="7.5731058419"><ele></ele><time>2014-9-28T11:41:49Z</time></trkpt>
<trkpt lat="46.1765201390" lon="7.5730119646"><ele></ele><time>2014-9-28T11:41:52Z</time></trkpt>
<trkpt lat="46.1764037982" lon="7.5728158280"><ele></ele><time>2014-9-28T11:41:55Z</time></trkpt>
<trkpt lat="46.1762393452" lon="7.5726369582"><ele></ele><time>2014-9-28T11:41:58Z</time></trkpt>
<trkpt lat="46.1760590505" lon="7.5724031031"><ele></ele><time>2014-9-28T11:42:1Z</time></trkpt>
<trkpt lat="46.1759017222" lon="7.5721503887"><ele></ele><time>2014-9-28T11:42:4Z</time></trkpt>
<trkpt lat="46.1757753231" lon="7.5719555933"><ele></ele><time>2014-9-28T11:42:7Z</time></trkpt>
<trkpt lat="46.1756127980" lon="7.5717690121"><ele></ele><time>2014-9-28T11:42:10Z</time></trkpt>
<trkpt lat="46.1756632570" lon="7.5716649089"><ele></ele><time>2014-9-28T11:42:13Z</time></trkpt>
<trkpt lat="46.1759923305" lon="7.5716635678"><ele></ele><time>2014-9-28T11:42:16Z</time></trkpt>
<trkpt lat="46.1762316339" lon="7.5717387535"><ele></ele><time>2014-9-28T11:42:19Z</time></trkpt>
<trkpt lat="46.1764333025" lon="7.5717317127"><ele></ele><time>2014-9-28T11:42:22Z</time></trkpt>
<trkpt lat="46.1765748728" lon="7.5717156194"><ele></ele><time>2014-9-28T11:42:25Z</time></trkpt>
<trkpt lat="46.1766444426" lon="7.5717001967"><ele></ele><time>2014-9-28T11:42:28Z</time></trkpt>
<trkpt lat="46.1770051159" lon="7.5716951676"><ele></ele><time>2014-9-28T11:42:31Z</time></trkpt>
<trkpt lat="46.1772709060" lon="7.5716606341"><ele></ele><time>2014-9-28T11:42:34Z</time></trkpt>
<trkpt lat="46.1776490975" lon="7.5715255179"><ele></ele><time>2014-9-28T11:42:37Z</time></trkpt>
<trkpt lat="46.1779801827" lon="7.5714365859"><ele></ele><time>2014-9-28T11:42:40Z</time></trkpt>
<trkpt lat="46.1780366767" lon="7.5714386813"><ele></ele><time>2014-9-28T11:42:43Z</time></trkpt>
<trkpt lat="46.1780961044" lon="7.5714482367"><ele></ele><time>2014-9-28T11:42:46Z</time></trkpt>
<trkpt lat="46.1780030653" lon="7.5713608135"><ele></ele><time>2014-9-28T11:42:49Z</time></trkpt>
<trkpt lat="46.1777615827" lon="7.5712999608"><ele></ele><time>2014-9-28T11:42:52Z</time></trkpt>
<trkpt lat="46.1774832197" lon="7.5712713785"><ele></ele><time>2014-9-28T11:42:55Z</time></trkpt>
<trkpt lat="46.1774548888" lon="7.5712156389"><ele></ele><time>2014-9-28T11:42:58Z</time></trkpt>
<trkpt lat="46.1775024980" lon="7.5711272098"><ele></ele><time>2014-9-28T11:43:1Z</time></trkpt>
<trkpt lat="46.1775674578" lon="7.5710846297"><ele></ele><time>2014-9-28T11:43:4Z</time></trkpt>
<trkpt lat="46.1775765941" lon="7.5710697100"><ele></ele><time>2014-9-28T11:43:7Z</time></trkpt>
<trkpt lat="46.1775008217" lon="7.5711452309"><ele></ele><time>2014-9-28T11:43:10Z</time></trkpt>
<trkpt lat="46.1775463354" lon="7.5713070855"><ele></ele><time>2014-9-28T11:43:13Z</time></trkpt>
<trkpt lat="46.1776093673" lon="7.5713081751"><ele></ele><time>2014-9-28T11:43:16Z</time></trkpt>
<trkpt lat="46.1778256204" lon="7.5712935068"><ele></ele><time>2014-9-28T11:43:19Z</time></trkpt>
<trkpt lat="46.1781308893" lon="7.5715079159"><ele></ele><time>2014-9-28T11:43:22Z</time></trkpt>
<trkpt lat="46.1783481482" lon="7.5719664060"><ele></ele><time>2014-9-28T11:43:25Z</time></trkpt>
<trkpt lat="46.1784107611" lon="7.5721043721"><ele></ele><time>2014-9-28T11:43:28Z</time></trkpt>
<trkpt lat="46.1785977613" lon="7.5724181067"><ele></ele><time>2014-9-28T11:43:31Z</time></trkpt>
<trkpt lat="46.1789492983" lon="7.5730323326"><ele></ele><time>2014-9-28T11:43:34Z</time></trkpt>
<trkpt lat="46.1792128254" lon="7.5732607394"><ele></ele><time>2014-9-28T11:43:37Z</time></trkpt>
<trkpt lat="46.1795770191" lon="7.5734522659"><ele></ele><time>2014-9-28T11:43:40Z</time></trkpt>
<trkpt lat="46.1798309907" lon="7.5735763181"><ele></ele><time>2014-9-28T11:43:43Z</time></trkpt>
<trkpt lat="46.1802904867" lon="7.5739435293"><ele></ele><time>2014-9-28T11:43:46Z</time></trkpt>
<trkpt lat="46.1805810034" lon="7.5743311923"><ele></ele><time>2014-9-28T11:43:49Z</time></trkpt>
<trkpt lat="46.1809539981" lon="7.5747660454"><ele></ele><time>2014-9-28T11:43:52Z</time></trkpt>
<trkpt lat="46.1813738476" lon="7.5748605933"><ele></ele><time>2014-9-28T11:43:55Z</time></trkpt>
<trkpt lat="46.1816126481" lon="7.5749235414"><ele></ele><time>2014-9-28T11:43:58Z</time></trkpt>
<trkpt lat="46.1817791965" lon="7.5750180893"><ele></ele><time>2014-9-28T11:44:1Z</time></trkpt>
<trkpt lat="46.1819688790" lon="7.5751642697"><ele></ele><time>2014-9-28T11:44:4Z</time></trkpt>
<trkpt lat="46.1823042389" lon="7.5753961969"><ele></ele><time>2014-9-28T11:44:7Z</time></trkpt>
<trkpt lat="46.1825580429" lon="7.5756113604"><ele></ele><time>2014-9-28T11:44:10Z</time></trkpt>
<trkpt lat="46.1827842705" lon="7.5758322235"><ele></ele><time>2014-9-28T11:44:13Z</time></trkpt>
<trkpt lat="46.1829627212" lon="7.5759302080"><ele></ele><time>2014-9-28T11:44:16Z</time></trkpt>
<trkpt lat="46.1830155272" lon="7.5759214070"><ele></ele><time>2014-9-28T11:44:19Z</time></trkpt>
<trkpt lat="46.1830431875" lon="7.5759349857"><ele></ele><time>2014-9-28T11:44:22Z</time></trkpt>
<trkpt lat="46.1830262560" lon="7.5758535974"><ele></ele><time>2014-9-28T11:44:25Z</time></trkpt>
<trkpt lat="46.1827652436" lon="7.5756669324"><ele></ele><time>2014-9-28T11:44:28Z</time></trkpt>
<trkpt lat="46.1826469749" lon="7.5754063390"><ele></ele><time>2014-9-28T11:44:31Z</time></trkpt>
<trkpt lat="46.1824813485" lon="7.5751253776"><ele></ele><time>2014-9-28T11:44:34Z</time></trkpt>
<trkpt lat="46.1824455578" lon="7.5750449114"><ele></ele><time>2014-9-28T11:44:37Z</time></trkpt>
<trkpt lat="46.1823570449" lon="7.5749257207"><ele></ele><time>2014-9-28T11:44:40Z</time></trkpt>
<trkpt lat="46.1823027302" lon="7.5748446677"><ele></ele><time>2014-9-28T11:44:43Z</time></trkpt>
<trkpt lat="46.1821474135" lon="7.5746663846"><ele></ele><time>2014-9-28T11:44:46Z</time></trkpt>
<trkpt lat="46.1819676217" lon="7.5744689908"><ele></ele><time>2014-9-28T11:44:49Z</time></trkpt>
<trkpt lat="46.1818320863" lon="7.5742548332"><ele></ele><time>2014-9-28T11:44:52Z</time></trkpt>
<trkpt lat="46.1816207785" lon="7.5739023741"><ele></ele><time>2014-9-28T11:44:55Z</time></trkpt>
<trkpt lat="46.1815066170" lon="7.5735779945"><ele></ele><time>2014-9-28T11:44:58Z</time></trkpt>
<trkpt lat="46.1813114025" lon="7.5733873900"><ele></ele><time>2014-9-28T11:45:1Z</time></trkpt>
<trkpt lat="46.1810614541" lon="7.5732475799"><ele></ele><time>2014-9-28T11:45:4Z</time></trkpt>
<trkpt lat="46.1808776390" lon="7.5730870664"><ele></ele><time>2014-9-28T11:45:7Z</time></trkpt>
<trkpt lat="46.1806669179" lon="7.5728753395"><ele></ele><time>2014-9-28T11:45:10Z</time></trkpt>
<trkpt lat="46.1804809235" lon="7.5727272313"><ele></ele><time>2014-9-28T11:45:13Z</time></trkpt>
<trkpt lat="46.1803546920" lon="7.5725294184"><ele></ele><time>2014-9-28T11:45:16Z</time></trkpt>
<trkpt lat="46.1802261975" lon="7.5723331142"><ele></ele><time>2014-9-28T11:45:19Z</time></trkpt>
<trkpt lat="46.1800614931" lon="7.5722301006"><ele></ele><time>2014-9-28T11:45:22Z</time></trkpt>
<trkpt lat="46.1799060926" lon="7.5722772069"><ele></ele><time>2014-9-28T11:45:25Z</time></trkpt>
<trkpt lat="46.1797415558" lon="7.5721848384"><ele></ele><time>2014-9-28T11:45:28Z</time></trkpt>
<trkpt lat="46.1795325950" lon="7.5721099880"><ele></ele><time>2014-9-28T11:45:31Z</time></trkpt>
<trkpt lat="46.1792818923" lon="7.5720019452"><ele></ele><time>2014-9-28T11:45:34Z</time></trkpt>
<trkpt lat="46.1791254021" lon="7.5717661623"><ele></ele><time>2014-9-28T11:45:37Z</time></trkpt>
<trkpt lat="46.1789854243" lon="7.5715069100"><ele></ele><time>2014-9-28T11:45:40Z</time></trkpt>
<trkpt lat="46.1788480449" lon="7.5710071810"><ele></ele><time>2014-9-28T11:45:43Z</time></trkpt>
<trkpt lat="46.1787486356" lon="7.5705688074"><ele></ele><time>2014-9-28T11:45:46Z</time></trkpt>
<trkpt lat="46.1786291935" lon="7.5701488741"><ele></ele><time>2014-9-28T11:45:49Z</time></trkpt>
<trkpt lat="46.1783180572" lon="7.5700136740"><ele></ele><time>2014-9-28T11:45:52Z</time></trkpt>
<trkpt lat="46.1778766662" lon="7.5700427592"><ele></ele><time>2014-9-28T11:45:55Z</time></trkpt>
<trkpt lat="46.1777903326" lon="7.5700507220"><ele></ele><time>2014-9-28T11:45:58Z</time></trkpt>
<trkpt lat="46.1775599141" lon="7.5699691661"><ele></ele><time>2014-9-28T11:46:1Z</time></trkpt>
<trkpt lat="46.1774931103" lon="7.5699192099"><ele></ele><time>2014-9-28T11:46:4Z</time></trkpt>
<trkpt lat="46.1773880012" lon="7.5697359815"><ele></ele><time>2014-9-28T11:46:7Z</time></trkpt>
<trkpt lat="46.1771645397" lon="7.5694226660"><ele></ele><time>2014-9-28T11:46:10Z</time></trkpt>
<trkpt lat="46.1769201234" lon="7.5693681836"><ele></ele><time>2014-9-28T11:46:13Z</time></trkpt>
<trkpt lat="46.1764756311" lon="7.5695713609"><ele></ele><time>2014-9-28T11:46:16Z</time></trkpt>
<trkpt lat="46.1761572864" lon="7.5696810801"><ele></ele><time>2014-9-28T11:46:19Z</time></trkpt>
<trkpt lat="46.1758613214" lon="7.5696992688"><ele></ele><time>2014-9-28T11:46:22Z</time></trkpt>
<trkpt lat="46.1756061763" lon="7.5696413498"><ele></ele><time>2014-9-28T11:46:25Z</time></trkpt>
<trkpt lat="46.1752937827" lon="7.5697257556"><ele></ele><time>2014-9-28T11:46:28Z</time></trkpt>
<trkpt lat="46.1749977339" lon="7.5695504900"><ele></ele><time>2014-9-28T11:46:31Z</time></trkpt>
<trkpt lat="46.1749155074" lon="7.5691477396"><ele></ele><time>2014-9-28T11:46:34Z</time></trkpt>
<trkpt lat="46.1746915430" lon="7.5689440593"><ele></ele><time>2014-9-28T11:46:37Z</time></trkpt>
<trkpt lat="46.1743900459" lon="7.5690624118"><ele></ele><time>2014-9-28T11:46:40Z</time></trkpt>
<trkpt lat="46.1741204001" lon="7.5691360049"><ele></ele><time>2014-9-28T11:46:43Z</time></trkpt>
<trkpt lat="46.1740273610" lon="7.5691684429"><ele></ele><time>2014-9-28T11:46:46Z</time></trkpt>
<trkpt lat="46.1740368325" lon="7.5690433849"><ele></ele><time>2014-9-28T11:46:49Z</time></trkpt>
<trkpt lat="46.1740889680" lon="7.5690652616"><ele></ele><time>2014-9-28T11:46:52Z</time></trkpt>
<trkpt lat="46.1742766388" lon="7.5689988770"><ele></ele><time>2014-9-28T11:46:55Z</time></trkpt>
<trkpt lat="46.1744567659" lon="7.5688063446"><ele></ele><time>2014-9-28T11:46:58Z</time></trkpt>
<trkpt lat="46.1746518966" lon="7.5686403830"><ele></ele><time>2014-9-28T11:47:1Z</time></trkpt>
<trkpt lat="46.1748980731" lon="7.5685021654"><ele></ele><time>2014-9-28T11:47:4Z</time></trkpt>
<trkpt lat="46.1751304194" lon="7.5685528759"><ele></ele><time>2014-9-28T11:47:7Z</time></trkpt>
<trkpt lat="46.1753278133" lon="7.5686271396"><ele></ele><time>2014-9-28T11:47:10Z</time></trkpt>
<trkpt lat="46.1754083633" lon="7.5686178356"><ele></ele><time>2014-9-28T11:47:13Z</time></trkpt>
<trkpt lat="46.1755837128" lon="7.5686124712"><ele></ele><time>2014-9-28T11:47:16Z</time></trkpt>
<trkpt lat="46.1756450683" lon="7.5686079450"><ele></ele><time>2014-9-28T11:47:19Z</time></trkpt>
<trkpt lat="46.1757620797" lon="7.5686009880"><ele></ele><time>2014-9-28T11:47:22Z</time></trkpt>
<trkpt lat="46.1758646742" lon="7.5686003175"><ele></ele><time>2014-9-28T11:47:25Z</time></trkpt>
<trkpt lat="46.1759325676" lon="7.5686197635"><ele></ele><time>2014-9-28T11:47:28Z</time></trkpt>
<trkpt lat="46.1761560291" lon="7.5686524529"><ele></ele><time>2014-9-28T11:47:31Z</time></trkpt>
<trkpt lat="46.1763630621" lon="7.5687143113"><ele></ele><time>2014-9-28T11:47:34Z</time></trkpt>
<trkpt lat="46.1765137687" lon="7.5686427299"><ele></ele><time>2014-9-28T11:47:37Z</time></trkpt>
<trkpt lat="46.1765700113" lon="7.5686006527"><ele></ele><time>2014-9-28T11:47:40Z</time></trkpt>
<trkpt lat="46.1766810715" lon="7.5684538018"><ele></ele><time>2014-9-28T11:47:43Z</time></trkpt>
<trkpt lat="46.1767698359" lon="7.5682941265"><ele></ele><time>2014-9-28T11:47:46Z</time></trkpt>
<trkpt lat="46.1768091470" lon="7.5682122353"><ele></ele><time>2014-9-28T11:47:49Z</time></trkpt>
<trkpt lat="46.1769615300" lon="7.5680643786"><ele></ele><time>2014-9-28T11:47:52Z</time></trkpt>
<trkpt lat="46.1769733485" lon="7.5680465251"><ele></ele><time>2014-9-28T11:47:55Z</time></trkpt>
<trkpt lat="46.1770233884" lon="7.5679934677"><ele></ele><time>2014-9-28T11:47:58Z</time></trkpt>
<trkpt lat="46.1771101411" lon="7.5679023564"><ele></ele><time>2014-9-28T11:48:1Z</time></trkpt>
<trkpt lat="46.1772459280" lon="7.5677353051"><ele></ele><time>2014-9-28T11:48:4Z</time></trkpt>
<trkpt lat="46.1773059424" lon="7.5676571857"><ele></ele><time>2014-9-28T11:48:7Z</time></trkpt>
<trkpt lat="46.1773740035" lon="7.5675821677"><ele></ele><time>2014-9-28T11:48:10Z</time></trkpt>
<trkpt lat="46.1775562260" lon="7.5674738735"><ele></ele><time>2014-9-28T11:48:13Z</time></trkpt>
<trkpt lat="46.1777182482" lon="7.5674965885"><ele></ele><time>2014-9-28T11:48:16Z</time></trkpt>
<trkpt lat="46.1778584775" lon="7.5676314533"><ele></ele><time>2014-9-28T11:48:19Z</time></trkpt>
<trkpt lat="46.1780629959" lon="7.5679144263"><ele></ele><time>2014-9-28T11:48:22Z</time></trkpt>
<trkpt lat="46.1782439612" lon="7.5682223774"><ele></ele><time>2014-9-28T11:48:25Z</time></trkpt>
<trkpt lat="46.1784612201" lon="7.5683983974"><ele></ele><time>2014-9-28T11:48:28Z</time></trkpt>
<trkpt lat="46.1787215620" lon="7.5686776824"><ele></ele><time>2014-9-28T11:48:31Z</time></trkpt>
<trkpt lat="46.1789889447" lon="7.5687988009"><ele></ele><time>2014-9-28T11:48:34Z</time></trkpt>
<trkpt lat="46.1791906971" lon="7.5687059294"><ele></ele><time>2014-9-28T11:48:37Z</time></trkpt>
<trkpt lat="46.1793892644" lon="7.5686492678"><ele></ele><time>2014-9-28T11:48:40Z</time></trkpt>
<trkpt lat="46.1796206050" lon="7.5686093699"><ele></ele><time>2014-9-28T11:48:43Z</time></trkpt>
<trkpt lat="46.1797200143" lon="7.5686186738"><ele></ele><time>2014-9-28T11:48:46Z</time></trkpt>
<trkpt lat="46.1797544640" lon="7.5685417280"><ele></ele><time>2014-9-28T11:48:49Z</time></trkpt>
<trkpt lat="46.1797325872" lon="7.5685082003"><ele></ele><time>2014-9-28T11:48:52Z</time></trkpt>
<trkpt lat="46.1796101276" lon="7.5684967171"><ele></ele><time>2014-9-28T11:48:55Z</time></trkpt>
<trkpt lat="46.1794876680" lon="7.5684807915"><ele></ele><time>2014-9-28T11:48:58Z</time></trkpt>
<trkpt lat="46.1793227959" lon="7.5684583280"><ele></ele><time>2014-9-28T11:49:1Z</time></trkpt>
<trkpt lat="46.1791005917" lon="7.5684721582"><ele></ele><time>2014-9-28T11:49:4Z</time></trkpt>
<trkpt lat="46.1788862664" lon="7.5683927815"><ele></ele><time>2014-9-28T11:49:7Z</time></trkpt>
<trkpt lat="46.1787838396" lon="7.5681944657"><ele></ele><time>2014-9-28T11:49:10Z</time></trkpt>
<trkpt lat="46.1786792334" lon="7.5679195393"><ele></ele><time>2014-9-28T11:49:13Z</time></trkpt>
<trkpt lat="46.1785564385" lon="7.5677076448"><ele></ele><time>2014-9-28T11:49:16Z</time></trkpt>
<trkpt lat="46.1784376670" lon="7.5674365740"><ele></ele><time>2014-9-28T11:49:19Z</time></trkpt>
<trkpt lat="46.1783859506" lon="7.5671700295"><ele></ele><time>2014-9-28T11:49:22Z</time></trkpt>
<trkpt lat="46.1783669237" lon="7.5667909998"><ele></ele><time>2014-9-28T11:49:25Z</time></trkpt>
<trkpt lat="46.1783714499" lon="7.5664986391"><ele></ele><time>2014-9-28T11:49:28Z</time></trkpt>
<trkpt lat="46.1783321388" lon="7.5662054401"><ele></ele><time>2014-9-28T11:49:31Z</time></trkpt>
<trkpt lat="46.1781759840" lon="7.5660129078"><ele></ele><time>2014-9-28T11:49:34Z</time></trkpt>
<trkpt lat="46.1779687833" lon="7.5658699125"><ele></ele><time>2014-9-28T11:49:37Z</time></trkpt>
<trkpt lat="46.1777186673" lon="7.5659302622"><ele></ele><time>2014-9-28T11:49:40Z</time></trkpt>
<trkpt lat="46.1775643565" lon="7.5660231337"><ele></ele><time>2014-9-28T11:49:43Z</time></trkpt>
<trkpt lat="46.1774037592" lon="7.5661072042"><ele></ele><time>2014-9-28T11:49:46Z</time></trkpt>
<trkpt lat="46.1772294994" lon="7.5661662966"><ele></ele><time>2014-9-28T11:49:49Z</time></trkpt>
<trkpt lat="46.1770639569" lon="7.5663000718"><ele></ele><time>2014-9-28T11:49:52Z</time></trkpt>
<trkpt lat="46.1768857576" lon="7.5664532091"><ele></ele><time>2014-9-28T11:49:55Z</time></trkpt>
<trkpt lat="46.1767187063" lon="7.5664672069"><ele></ele><time>2014-9-28T11:49:58Z</time></trkpt>
<trkpt lat="46.1766327918" lon="7.5663895905"><ele></ele><time>2014-9-28T11:50:1Z</time></trkpt>
<trkpt lat="46.1766461190" lon="7.5662656222"><ele></ele><time>2014-9-28T11:50:4Z</time></trkpt>
<trkpt lat="46.1766827479" lon="7.5662294962"><ele></ele><time>2014-9-28T11:50:7Z</time></trkpt>
<trkpt lat="46.1768332031" lon="7.5661429949"><ele></ele><time>2014-9-28T11:50:10Z</time></trkpt>
<trkpt lat="46.1769508012" lon="7.5659824815"><ele></ele><time>2014-9-28T11:50:13Z</time></trkpt>
<trkpt lat="46.1770946346" lon="7.5658060424"><ele></ele><time>2014-9-28T11:50:16Z</time></trkpt>
<trkpt lat="46.1771580856" lon="7.5657512248"><ele></ele><time>2014-9-28T11:50:19Z</time></trkpt>
<trkpt lat="46.1772250570" lon="7.5657118298"><ele></ele><time>2014-9-28T11:50:22Z</time></trkpt>
<trkpt lat="46.1774162482" lon="7.5655819941"><ele></ele><time>2014-9-28T11:50:25Z</time></trkpt>
<trkpt lat="46.1775824614" lon="7.5654180441"><ele></ele><time>2014-9-28T11:50:28Z</time></trkpt>
<trkpt lat="46.1777495127" lon="7.5652641524"><ele></ele><time>2014-9-28T11:50:31Z</time></trkpt>
<trkpt lat="46.1779348366" lon="7.5651099253"><ele></ele><time>2014-9-28T11:50:34Z</time></trkpt>
<trkpt lat="46.1781109404" lon="7.5649841968"><ele></ele><time>2014-9-28T11:50:37Z</time></trkpt>
<trkpt lat="46.1782455537" lon="7.5648118649"><ele></ele><time>2014-9-28T11:50:40Z</time></trkpt>
<trkpt lat="46.1783965118" lon="7.5646548718"><ele></ele><time>2014-9-28T11:50:43Z</time></trkpt>
<trkpt lat="46.1786459573" lon="7.5646065082"><ele></ele><time>2014-9-28T11:50:46Z</time></trkpt>
<trkpt lat="46.1788475420" lon="7.5647328235"><ele></ele><time>2014-9-28T11:50:49Z</time></trkpt>
<trkpt lat="46.1789608654" lon="7.5649188180"><ele></ele><time>2014-9-28T11:50:52Z</time></trkpt>
<trkpt lat="46.1790984962" lon="7.5651818421"><ele></ele><time>2014-9-28T11:50:55Z</time></trkpt>
<trkpt lat="46.1791810580" lon="7.5653986819"><ele></ele><time>2014-9-28T11:50:58Z</time></trkpt>
<trkpt lat="46.1792683136" lon="7.5657539908"><ele></ele><time>2014-9-28T11:51:1Z</time></trkpt>
<trkpt lat="46.1793056130" lon="7.5659562461"><ele></ele><time>2014-9-28T11:51:4Z</time></trkpt>
<trkpt lat="46.1793331057" lon="7.5662417337"><ele></ele><time>2014-9-28T11:51:7Z</time></trkpt>
<trkpt lat="46.1793427449" lon="7.5663169194"><ele></ele><time>2014-9-28T11:51:10Z</time></trkpt>
<trkpt lat="46.1793585867" lon="7.5664525386"><ele></ele><time>2014-9-28T11:51:13Z</time></trkpt>
<trkpt lat="46.1793917790" lon="7.5665243715"><ele></ele><time>2014-9-28T11:51:16Z</time></trkpt>
<trkpt lat="46.1794109736" lon="7.5665654428"><ele></ele><time>2014-9-28T11:51:19Z</time></trkpt>
<trkpt lat="46.1794200260" lon="7.5665659457"><ele></ele><time>2014-9-28T11:51:22Z</time></trkpt>
<trkpt lat="46.1794190202" lon="7.5665644370"><ele></ele><time>2014-9-28T11:51:25Z</time></trkpt>
<trkpt lat="46.1794177629" lon="7.5665563904"><ele></ele><time>2014-9-28T11:51:28Z</time></trkpt>
<trkpt lat="46.1794211995" lon="7.5665518641"><ele></ele><time>2014-9-28T11:51:31Z</time></trkpt>
<trkpt lat="46.1794372089" lon="7.5665571447"><ele></ele><time>2014-9-28T11:51:34Z</time></trkpt>
<trkpt lat="46.1794852372" lon="7.5665371958"><ele></ele><time>2014-9-28T11:51:37Z</time></trkpt>
<trkpt lat="46.1797041725" lon="7.5664107129"><ele></ele><time>2014-9-28T11:51:40Z</time></trkpt>
<trkpt lat="46.1798900831" lon="7.5661871675"><ele></ele><time>2014-9-28T11:51:43Z</time></trkpt>
<trkpt lat="46.1800888181" lon="7.5659200363"><ele></ele><time>2014-9-28T11:51:46Z</time></trkpt>
<trkpt lat="46.1802519299" lon="7.5657401606"><ele></ele><time>2014-9-28T11:51:49Z</time></trkpt>
<trkpt lat="46.1805250123" lon="7.5656304415"><ele></ele><time>2014-9-28T11:51:52Z</time></trkpt>
<trkpt lat="46.1808020342" lon="7.5656912103"><ele></ele><time>2014-9-28T11:51:55Z</time></trkpt>
<trkpt lat="46.1808382440" lon="7.5657731853"><ele></ele><time>2014-9-28T11:51:58Z</time></trkpt>
<trkpt lat="46.1809267569" lon="7.5661337748"><ele></ele><time>2014-9-28T11:52:1Z</time></trkpt>
<trkpt lat="46.1809373181" lon="7.5661709066"><ele></ele><time>2014-9-28T11:52:4Z</time></trkpt>
<trkpt lat="46.1809570994" lon="7.5665760878"><ele></ele><time>2014-9-28T11:52:7Z</time></trkpt>
<trkpt lat="46.1810232326" lon="7.5669163093"><ele></ele><time>2014-9-28T11:52:10Z</time></trkpt>
<trkpt lat="46.1811498832" lon="7.5671417825"><ele></ele><time>2014-9-28T11:52:13Z</time></trkpt>
<trkpt lat="46.1812406592" lon="7.5673406012"><ele></ele><time>2014-9-28T11:52:16Z</time></trkpt>
<trkpt lat="46.1813530605" lon="7.5676267594"><ele></ele><time>2014-9-28T11:52:19Z</time></trkpt>
<trkpt lat="46.1813737638" lon="7.5676667411"><ele></ele><time>2014-9-28T11:52:22Z</time></trkpt>
<trkpt lat="46.1814091355" lon="7.5677636359"><ele></ele><time>2014-9-28T11:52:25Z</time></trkpt>
<trkpt lat="46.1816223711" lon="7.5680330303"><ele></ele><time>2014-9-28T11:52:28Z</time></trkpt>
<trkpt lat="46.1818583217" lon="7.5681792106"><ele></ele><time>2014-9-28T11:52:31Z</time></trkpt>
<trkpt lat="46.1820430588" lon="7.5682930369"><ele></ele><time>2014-9-28T11:52:34Z</time></trkpt>
<trkpt lat="46.1820745748" lon="7.5683113933"><ele></ele><time>2014-9-28T11:52:37Z</time></trkpt>
<trkpt lat="46.1821517721" lon="7.5683255587"><ele></ele><time>2014-9-28T11:52:40Z</time></trkpt>
<trkpt lat="46.1823218409" lon="7.5682977308"><ele></ele><time>2014-9-28T11:52:43Z</time></trkpt>
<trkpt lat="46.1824314762" lon="7.5682858285"><ele></ele><time>2014-9-28T11:52:46Z</time></trkpt>
<trkpt lat="46.1826196499" lon="7.5683292467"><ele></ele><time>2014-9-28T11:52:49Z</time></trkpt>
<trkpt lat="46.1828469671" lon="7.5684250519"><ele></ele><time>2014-9-28T11:52:52Z</time></trkpt>
<trkpt lat="46.1830198020" lon="7.5684807915"><ele></ele><time>2014-9-28T11:52:55Z</time></trkpt>
<trkpt lat="46.1831425969" lon="7.5684919395"><ele></ele><time>2014-9-28T11:52:58Z</time></trkpt>
<trkpt lat="46.1831783038" lon="7.5684785284"><ele></ele><time>2014-9-28T11:53:1Z</time></trkpt>
<trkpt lat="46.1832521483" lon="7.5684655365"><ele></ele><time>2014-9-28T11:53:4Z</time></trkpt>
<trkpt lat="46.1833066307" lon="7.5684601720"><ele></ele><time>2014-9-28T11:53:7Z</time></trkpt>
<trkpt lat="46.1834894400" lon="7.5684956275"><ele></ele><time>2014-9-28T11:53:10Z</time></trkpt>
<trkpt lat="46.1837179307" lon="7.5686652772"><ele></ele><time>2014-9-28T11:53:13Z</time></trkpt>
<trkpt lat="46.1839409731" lon="7.5688212644"><ele></ele><time>2014-9-28T11:53:16Z</time></trkpt>
<trkpt lat="46.1839520372" lon="7.5688329153"><ele></ele><time>2014-9-28T11:53:19Z</time></trkpt>
<trkpt lat="46.1840484291" lon="7.5689362641"><ele></ele><time>2014-9-28T11:53:22Z</time></trkpt>
<trkpt lat="46.1842138041" lon="7.5691527687"><ele></ele><time>2014-9-28T11:53:25Z</time></trkpt>
<trkpt lat="46.1843603197" lon="7.5694001187"><ele></ele><time>2014-9-28T11:53:28Z</time></trkpt>
<trkpt lat="46.1844215076" lon="7.5695085805"><ele></ele><time>2014-9-28T11:53:31Z</time></trkpt>
<trkpt lat="46.1844677757" lon="7.5695835147"><ele></ele><time>2014-9-28T11:53:34Z</time></trkpt>
<trkpt lat="46.1845539417" lon="7.5697205588"><ele></ele><time>2014-9-28T11:53:37Z</time></trkpt>
<trkpt lat="46.1845854577" lon="7.5697555114"><ele></ele><time>2014-9-28T11:53:40Z</time></trkpt>
<trkpt lat="46.1846858729" lon="7.5698016956"><ele></ele><time>2014-9-28T11:53:43Z</time></trkpt>
<trkpt lat="46.1848603003" lon="7.5697600376"><ele></ele><time>2014-9-28T11:53:46Z</time></trkpt>
<trkpt lat="46.1850210652" lon="7.5697493926"><ele></ele><time>2014-9-28T11:53:49Z</time></trkpt>
<trkpt lat="46.1852611229" lon="7.5697886199"><ele></ele><time>2014-9-28T11:53:52Z</time></trkpt>
<trkpt lat="46.1853088159" lon="7.5697977562"><ele></ele><time>2014-9-28T11:53:55Z</time></trkpt>
<trkpt lat="46.1853369791" lon="7.5697979238"><ele></ele><time>2014-9-28T11:53:58Z</time></trkpt>
<trkpt lat="46.1853932217" lon="7.5697912183"><ele></ele><time>2014-9-28T11:54:1Z</time></trkpt>
<trkpt lat="46.1854482908" lon="7.5697713532"><ele></ele><time>2014-9-28T11:54:4Z</time></trkpt>
<trkpt lat="46.1855756119" lon="7.5697168708"><ele></ele><time>2014-9-28T11:54:7Z</time></trkpt>
<trkpt lat="46.1857321020" lon="7.5697014481"><ele></ele><time>2014-9-28T11:54:10Z</time></trkpt>
<trkpt lat="46.1858522147" lon="7.5697747897"><ele></ele><time>2014-9-28T11:54:13Z</time></trkpt>
<trkpt lat="46.1859211139" lon="7.5698006060"><ele></ele><time>2014-9-28T11:54:16Z</time></trkpt>
<trkpt lat="46.1860082857" lon="7.5697840936"><ele></ele><time>2014-9-28T11:54:19Z</time></trkpt>
<trkpt lat="46.1860825494" lon="7.5697126798"><ele></ele><time>2014-9-28T11:54:22Z</time></trkpt>
<trkpt lat="46.1861995608" lon="7.5696519110"><ele></ele><time>2014-9-28T11:54:25Z</time></trkpt>
<trkpt lat="46.1862776801" lon="7.5696710218"><ele></ele><time>2014-9-28T11:54:28Z</time></trkpt>
<trkpt lat="46.1864361819" lon="7.5696689263"><ele></ele><time>2014-9-28T11:54:31Z</time></trkpt>
<trkpt lat="46.1865469068" lon="7.5696158689"><ele></ele><time>2014-9-28T11:54:34Z</time></trkpt>
<trkpt lat="46.1866069213" lon="7.5696052238"><ele></ele><time>2014-9-28T11:54:37Z</time></trkpt>
<trkpt lat="46.1866347492" lon="7.5695970934"><ele></ele><time>2014-9-28T11:54:40Z</time></trkpt>
<trkpt lat="46.1866650917" lon="7.5695830118"><ele></ele><time>2014-9-28T11:54:43Z</time></trkpt>
<trkpt lat="46.1868085898" lon="7.5694906432"><ele></ele><time>2014-9-28T11:54:46Z</time></trkpt>
<trkpt lat="46.1870479770" lon="7.5693924073"><ele></ele><time>2014-9-28T11:54:49Z</time></trkpt>
<trkpt lat="46.1871966720" lon="7.5693618134"><ele></ele><time>2014-9-28T11:54:52Z</time></trkpt>
<trkpt lat="46.1872291099" lon="7.5693245139"><ele></ele><time>2014-9-28T11:54:55Z</time></trkpt>
<trkpt lat="46.1871051416" lon="7.5692106038"><ele></ele><time>2014-9-28T11:54:58Z</time></trkpt>
<trkpt lat="46.1869557761" lon="7.5690939277"><ele></ele><time>2014-9-28T11:55:1Z</time></trkpt>
<trkpt lat="46.1867344938" lon="7.5689698756"><ele></ele><time>2014-9-28T11:55:4Z</time></trkpt>
<trkpt lat="46.1864858028" lon="7.5688530318"><ele></ele><time>2014-9-28T11:55:7Z</time></trkpt>
<trkpt lat="46.1862555519" lon="7.5687750801"><ele></ele><time>2014-9-28T11:55:10Z</time></trkpt>
<trkpt lat="46.1860046815" lon="7.5687759183"><ele></ele><time>2014-9-28T11:55:13Z</time></trkpt>
<trkpt lat="46.1857620254" lon="7.5687135570"><ele></ele><time>2014-9-28T11:55:16Z</time></trkpt>
<trkpt lat="46.1856560782" lon="7.5686024129"><ele></ele><time>2014-9-28T11:55:19Z</time></trkpt>
<trkpt lat="46.1854901165" lon="7.5683854055"><ele></ele><time>2014-9-28T11:55:22Z</time></trkpt>
<trkpt lat="46.1853979994" lon="7.5681202859"><ele></ele><time>2014-9-28T11:55:25Z</time></trkpt>
<trkpt lat="46.1853685789" lon="7.5679363031"><ele></ele><time>2014-9-28T11:55:28Z</time></trkpt>
<trkpt lat="46.1853508092" lon="7.5678498019"><ele></ele><time>2014-9-28T11:55:31Z</time></trkpt>
<trkpt lat="46.1853140965" lon="7.5675231591"><ele></ele><time>2014-9-28T11:55:34Z</time></trkpt>
<trkpt lat="46.1853151862" lon="7.5672489032"><ele></ele><time>2014-9-28T11:55:37Z</time></trkpt>
<trkpt lat="46.1853446905" lon="7.5669939257"><ele></ele><time>2014-9-28T11:55:40Z</time></trkpt>
<trkpt lat="46.1853139289" lon="7.5666604098"><ele></ele><time>2014-9-28T11:55:43Z</time></trkpt>
<trkpt lat="46.1851792317" lon="7.5664103776"><ele></ele><time>2014-9-28T11:55:46Z</time></trkpt>
<trkpt lat="46.1850439478" lon="7.5661937054"><ele></ele><time>2014-9-28T11:55:49Z</time></trkpt>
<trkpt lat="46.1849519983" lon="7.5660879258"><ele></ele><time>2014-9-28T11:55:52Z</time></trkpt>
<trkpt lat="46.1849461310" lon="7.5660713296"><ele></ele><time>2014-9-28T11:55:55Z</time></trkpt>
<trkpt lat="46.1848598812" lon="7.5659982394"><ele></ele><time>2014-9-28T11:55:58Z</time></trkpt>
<trkpt lat="46.1848380882" lon="7.5659841578"><ele></ele><time>2014-9-28T11:56:1Z</time></trkpt>
<trkpt lat="46.1847751401" lon="7.5659301784"><ele></ele><time>2014-9-28T11:56:4Z</time></trkpt>
<trkpt lat="46.1847283691" lon="7.5658759475"><ele></ele><time>2014-9-28T11:56:7Z</time></trkpt>
<trkpt lat="46.1847002059" lon="7.5658424199"><ele></ele><time>2014-9-28T11:56:10Z</time></trkpt>
<trkpt lat="46.1846700311" lon="7.5658061262"><ele></ele><time>2014-9-28T11:56:13Z</time></trkpt>
<trkpt lat="46.1845865473" lon="7.5656918809"><ele></ele><time>2014-9-28T11:56:16Z</time></trkpt>
<trkpt lat="46.1845734715" lon="7.5656829961"><ele></ele><time>2014-9-28T11:56:19Z</time></trkpt>
<trkpt lat="46.1845060810" lon="7.5656117499"><ele></ele><time>2014-9-28T11:56:22Z</time></trkpt>
<trkpt lat="46.1844128743" lon="7.5655187946"><ele></ele><time>2014-9-28T11:56:25Z</time></trkpt>
<trkpt lat="46.1843069270" lon="7.5654537510"><ele></ele><time>2014-9-28T11:56:28Z</time></trkpt>
<trkpt lat="46.1841032468" lon="7.5654254202"><ele></ele><time>2014-9-28T11:56:31Z</time></trkpt>
<trkpt lat="46.1838843115" lon="7.5654173736"><ele></ele><time>2014-9-28T11:56:34Z</time></trkpt>
<trkpt lat="46.1837965529" lon="7.5654028729"><ele></ele><time>2014-9-28T11:56:37Z</time></trkpt>
<trkpt lat="46.1837743409" lon="7.5653594546"><ele></ele><time>2014-9-28T11:56:40Z</time></trkpt>
<trkpt lat="46.1837983970" lon="7.5652936567"><ele></ele><time>2014-9-28T11:56:43Z</time></trkpt>
<trkpt lat="46.1839848105" lon="7.5652769767"><ele></ele><time>2014-9-28T11:56:46Z</time></trkpt>
<trkpt lat="46.1842142232" lon="7.5652423594"><ele></ele><time>2014-9-28T11:56:49Z</time></trkpt>
<trkpt lat="46.1844956875" lon="7.5652950816"><ele></ele><time>2014-9-28T11:56:52Z</time></trkpt>
<trkpt lat="46.1847155448" lon="7.5654097460"><ele></ele><time>2014-9-28T11:56:55Z</time></trkpt>
<trkpt lat="46.1849319655" lon="7.5654314552"><ele></ele><time>2014-9-28T11:56:58Z</time></trkpt>
<trkpt lat="46.1850978434" lon="7.5655083172"><ele></ele><time>2014-9-28T11:57:1Z</time></trkpt>
<trkpt lat="46.1853221431" lon="7.5655861851"><ele></ele><time>2014-9-28T11:57:4Z</time></trkpt>
<trkpt lat="46.1855559144" lon="7.5655779708"><ele></ele><time>2014-9-28T11:57:7Z</time></trkpt>
<trkpt lat="46.1858171783" lon="7.5655743666"><ele></ele><time>2014-9-28T11:57:10Z</time></trkpt>
<trkpt lat="46.1859567370" lon="7.5656443555"><ele></ele><time>2014-9-28T11:57:13Z</time></trkpt>
<trkpt lat="46.1861460004" lon="7.5658228062"><ele></ele><time>2014-9-28T11:57:16Z</time></trkpt>
<trkpt lat="46.1862755008" lon="7.5659958925"><ele></ele><time>2014-9-28T11:57:19Z</time></trkpt>
<trkpt lat="46.1862974614" lon="7.5660283305"><ele></ele><time>2014-9-28T11:57:22Z</time></trkpt>
<trkpt lat="46.1863392871" lon="7.5660729222"><ele></ele><time>2014-9-28T11:57:25Z</time></trkpt>
<trkpt lat="46.1865630001" lon="7.5662095472"><ele></ele><time>2014-9-28T11:57:28Z</time></trkpt>
<trkpt lat="46.1867666803" lon="7.5663494412"><ele></ele><time>2014-9-28T11:57:31Z</time></trkpt>
<trkpt lat="46.1869722046" lon="7.5663646124"><ele></ele><time>2014-9-28T11:57:34Z</time></trkpt>
<trkpt lat="46.1871823389" lon="7.5663838908"><ele></ele><time>2014-9-28T11:57:37Z</time></trkpt>
<trkpt lat="46.1872851010" lon="7.5663893390"><ele></ele><time>2014-9-28T11:57:40Z</time></trkpt>
<trkpt lat="46.1873108335" lon="7.5662629399"><ele></ele><time>2014-9-28T11:57:43Z</time></trkpt>
<trkpt lat="46.1871424410" lon="7.5660854112"><ele></ele><time>2014-9-28T11:57:46Z</time></trkpt>
<trkpt lat="46.1870416906" lon="7.5658608600"><ele></ele><time>2014-9-28T11:57:49Z</time></trkpt>
<trkpt lat="46.1870325543" lon="7.5658412464"><ele></ele><time>2014-9-28T11:57:52Z</time></trkpt>
<trkpt lat="46.1869693547" lon="7.5657570921"><ele></ele><time>2014-9-28T11:57:55Z</time></trkpt>
<trkpt lat="46.1868544389" lon="7.5656850915"><ele></ele><time>2014-9-28T11:57:58Z</time></trkpt>
<trkpt lat="46.1866944283" lon="7.5654871110"><ele></ele><time>2014-9-28T11:58:1Z</time></trkpt>
<trkpt lat="46.1865105294" lon="7.5652028807"><ele></ele><time>2014-9-28T11:58:4Z</time></trkpt>
<trkpt lat="46.1863769218" lon="7.5649878848"><ele></ele><time>2014-9-28T11:58:7Z</time></trkpt>
<trkpt lat="46.1862494331" lon="7.5647932570"><ele></ele><time>2014-9-28T11:58:10Z</time></trkpt>
<trkpt lat="46.1862325855" lon="7.5647819415"><ele></ele><time>2014-9-28T11:58:13Z</time></trkpt>
<trkpt lat="46.1861355230" lon="7.5646982901"><ele></ele><time>2014-9-28T11:58:16Z</time></trkpt>
<trkpt lat="46.1859541386" lon="7.5645403750"><ele></ele><time>2014-9-28T11:58:19Z</time></trkpt>
<trkpt lat="46.1858212017" lon="7.5643788557"><ele></ele><time>2014-9-28T11:58:22Z</time></trkpt>
<trkpt lat="46.1857601814" lon="7.5642746687"><ele></ele><time>2014-9-28T11:58:25Z</time></trkpt>
<trkpt lat="46.1856223829" lon="7.5641147420"><ele></ele><time>2014-9-28T11:58:28Z</time></trkpt>
<trkpt lat="46.1855842452" lon="7.5640864950"><ele></ele><time>2014-9-28T11:58:31Z</time></trkpt>
<trkpt lat="46.1854745261" lon="7.5639242213"><ele></ele><time>2014-9-28T11:58:34Z</time></trkpt>
<trkpt lat="46.1853788048" lon="7.5638463534"><ele></ele><time>2014-9-28T11:58:37Z</time></trkpt>
<trkpt lat="46.1852955725" lon="7.5637751073"><ele></ele><time>2014-9-28T11:58:40Z</time></trkpt>
<trkpt lat="46.1852076463" lon="7.5636958983"><ele></ele><time>2014-9-28T11:58:43Z</time></trkpt>
<trkpt lat="46.1851279344" lon="7.5636212155"><ele></ele><time>2014-9-28T11:58:46Z</time></trkpt>
<trkpt lat="46.1850244179" lon="7.5635208841"><ele></ele><time>2014-9-28T11:58:49Z</time></trkpt>
<trkpt lat="46.1848965101" lon="7.5634119194"><ele></ele><time>2014-9-28T11:58:52Z</time></trkpt>
<trkpt lat="46.1848856974" lon="7.5634015258"><ele></ele><time>2014-9-28T11:58:55Z</time></trkpt>
<trkpt lat="46.1848064885" lon="7.5633357279"><ele></ele><time>2014-9-28T11:58:58Z</time></trkpt>
<trkpt lat="46.1847354937" lon="7.5632508192"><ele></ele><time>2014-9-28T11:59:1Z</time></trkpt>
<trkpt lat="46.1846087594" lon="7.5630528387"><ele></ele><time>2014-9-28T11:59:4Z</time></trkpt>
<trkpt lat="46.1845803447" lon="7.5629880466"><ele></ele><time>2014-9-28T11:59:7Z</time></trkpt>
<trkpt lat="46.1845267843" lon="7.5628255215"><ele></ele><time>2014-9-28T11:59:10Z</time></trkpt>
<trkpt lat="46.1844744813" lon="7.5626790058"><ele></ele><time>2014-9-28T11:59:13Z</time></trkpt>
<trkpt lat="46.1844311468" lon="7.5625301432"><ele></ele><time>2014-9-28T11:59:16Z</time></trkpt>
<trkpt lat="46.1844248604" lon="7.5625122897"><ele></ele><time>2014-9-28T11:59:19Z</time></trkpt>
<trkpt lat="46.1843884829" lon="7.5623440649"><ele></ele><time>2014-9-28T11:59:22Z</time></trkpt>
<trkpt lat="46.1843819451" lon="7.5623022392"><ele></ele><time>2014-9-28T11:59:25Z</time></trkpt>
<trkpt lat="46.1843537819" lon="7.5622131396"><ele></ele><time>2014-9-28T11:59:28Z</time></trkpt>
<trkpt lat="46.1842753273" lon="7.5620014127"><ele></ele><time>2014-9-28T11:59:31Z</time></trkpt>
<trkpt lat="46.1842526123" lon="7.5618196093"><ele></ele><time>2014-9-28T11:59:34Z</time></trkpt>
<trkpt lat="46.1841741577" lon="7.5614108238"><ele></ele><time>2014-9-28T11:59:37Z</time></trkpt>
<trkpt lat="46.1840172485" lon="7.5609786529"><ele></ele><time>2014-9-28T11:59:40Z</time></trkpt>
<trkpt lat="46.1837976426" lon="7.5606073346"><ele></ele><time>2014-9-28T11:59:43Z</time></trkpt>
<trkpt lat="46.1836482771" lon="7.5602476671"><ele></ele><time>2014-9-28T11:59:46Z</time></trkpt>
<trkpt lat="46.1835714988" lon="7.5597545598"><ele></ele><time>2014-9-28T11:59:49Z</time></trkpt>
<trkpt lat="46.1835410725" lon="7.5593900308"><ele></ele><time>2014-9-28T11:59:52Z</time></trkpt>
<trkpt lat="46.1835022643" lon="7.5590389129"><ele></ele><time>2014-9-28T11:59:55Z</time></trkpt>
<trkpt lat="46.1834427528" lon="7.5586197339"><ele></ele><time>2014-9-28T11:59:58Z</time></trkpt>
<trkpt lat="46.1833673995" lon="7.5581143890"><ele></ele><time>2014-9-28T12:0:1Z</time></trkpt>
<trkpt lat="46.1833182815" lon="7.5576006621"><ele></ele><time>2014-9-28T12:0:4Z</time></trkpt>
<trkpt lat="46.1832896154" lon="7.5572016835"><ele></ele><time>2014-9-28T12:0:7Z</time></trkpt>
<trkpt lat="46.1832839157" lon="7.5567525811"><ele></ele><time>2014-9-28T12:0:10Z</time></trkpt>
<trkpt lat="46.1831197981" lon="7.5563708693"><ele></ele><time>2014-9-28T12:0:13Z</time></trkpt>
<trkpt lat="46.1831576843" lon="7.5559433084"><ele></ele><time>2014-9-28T12:0:16Z</time></trkpt>
<trkpt lat="46.1831786390" lon="7.5555779412"><ele></ele><time>2014-9-28T12:0:19Z</time></trkpt>
<trkpt lat="46.1832221411" lon="7.5551954750"><ele></ele><time>2014-9-28T12:0:22Z</time></trkpt>
<trkpt lat="46.1832509749" lon="7.5548244920"><ele></ele><time>2014-9-28T12:0:25Z</time></trkpt>
<trkpt lat="46.1832447723" lon="7.5545190554"><ele></ele><time>2014-9-28T12:0:28Z</time></trkpt>
<trkpt lat="46.1832540762" lon="7.5541326497"><ele></ele><time>2014-9-28T12:0:31Z</time></trkpt>
<trkpt lat="46.1833143421" lon="7.5538495928"><ele></ele><time>2014-9-28T12:0:34Z</time></trkpt>
<trkpt lat="46.1833353806" lon="7.5537020713"><ele></ele><time>2014-9-28T12:0:37Z</time></trkpt>
<trkpt lat="46.1833595205" lon="7.5534465909"><ele></ele><time>2014-9-28T12:0:40Z</time></trkpt>
<trkpt lat="46.1833169404" lon="7.5531499553"><ele></ele><time>2014-9-28T12:0:43Z</time></trkpt>
<trkpt lat="46.1832808983" lon="7.5528435130"><ele></ele><time>2014-9-28T12:0:46Z</time></trkpt>
<trkpt lat="46.1832233146" lon="7.5525078177"><ele></ele><time>2014-9-28T12:0:49Z</time></trkpt>
<trkpt lat="46.1832461134" lon="7.5524160359"><ele></ele><time>2014-9-28T12:0:52Z</time></trkpt>
<trkpt lat="46.1833490431" lon="7.5524240825"><ele></ele><time>2014-9-28T12:0:55Z</time></trkpt>
<trkpt lat="46.1834015977" lon="7.5524975918"><ele></ele><time>2014-9-28T12:0:58Z</time></trkpt>
<trkpt lat="46.1835963093" lon="7.5528004300"><ele></ele><time>2014-9-28T12:1:1Z</time></trkpt>
<trkpt lat="46.1837007478" lon="7.5531297550"><ele></ele><time>2014-9-28T12:1:4Z</time></trkpt>
<trkpt lat="46.1836447567" lon="7.5534613431"><ele></ele><time>2014-9-28T12:1:7Z</time></trkpt>
<trkpt lat="46.1836702377" lon="7.5537806936"><ele></ele><time>2014-9-28T12:1:10Z</time></trkpt>
<trkpt lat="46.1836991552" lon="7.5539896544"><ele></ele><time>2014-9-28T12:1:13Z</time></trkpt>
<trkpt lat="46.1837258097" lon="7.5540786702"><ele></ele><time>2014-9-28T12:1:16Z</time></trkpt>
<trkpt lat="46.1837368738" lon="7.5541234296"><ele></ele><time>2014-9-28T12:1:19Z</time></trkpt>
<trkpt lat="46.1837777775" lon="7.5543121062"><ele></ele><time>2014-9-28T12:1:22Z</time></trkpt>
<trkpt lat="46.1838020850" lon="7.5544584543"><ele></ele><time>2014-9-28T12:1:25Z</time></trkpt>
<trkpt lat="46.1838662904" lon="7.5547664054"><ele></ele><time>2014-9-28T12:1:28Z</time></trkpt>
<trkpt lat="46.1839329265" lon="7.5550767872"><ele></ele><time>2014-9-28T12:1:31Z</time></trkpt>
<trkpt lat="46.1839572340" lon="7.5551465247"><ele></ele><time>2014-9-28T12:1:34Z</time></trkpt>
<trkpt lat="46.1840754189" lon="7.5554245524"><ele></ele><time>2014-9-28T12:1:37Z</time></trkpt>
<trkpt lat="46.1841065995" lon="7.5555140711"><ele></ele><time>2014-9-28T12:1:40Z</time></trkpt>
<trkpt lat="46.1841712240" lon="7.5556271430"><ele></ele><time>2014-9-28T12:1:43Z</time></trkpt>
<trkpt lat="46.1842548754" lon="7.5558768399"><ele></ele><time>2014-9-28T12:1:46Z</time></trkpt>
<trkpt lat="46.1842346750" lon="7.5563014671"><ele></ele><time>2014-9-28T12:1:49Z</time></trkpt>
<trkpt lat="46.1843391135" lon="7.5567502342"><ele></ele><time>2014-9-28T12:1:52Z</time></trkpt>
<trkpt lat="46.1843298096" lon="7.5570862647"><ele></ele><time>2014-9-28T12:1:55Z</time></trkpt>
<trkpt lat="46.1843795981" lon="7.5574424118"><ele></ele><time>2014-9-28T12:1:58Z</time></trkpt>
<trkpt lat="46.1844442226" lon="7.5575270690"><ele></ele><time>2014-9-28T12:2:1Z</time></trkpt>
<trkpt lat="46.1846354976" lon="7.5576423202"><ele></ele><time>2014-9-28T12:2:4Z</time></trkpt>
<trkpt lat="46.1847662553" lon="7.5578124728"><ele></ele><time>2014-9-28T12:2:7Z</time></trkpt>
<trkpt lat="46.1848707777" lon="7.5580319110"><ele></ele><time>2014-9-28T12:2:10Z</time></trkpt>
<trkpt lat="46.1849687621" lon="7.5582222641"><ele></ele><time>2014-9-28T12:2:13Z</time></trkpt>
<trkpt lat="46.1851700954" lon="7.5583737250"><ele></ele><time>2014-9-28T12:2:16Z</time></trkpt>
<trkpt lat="46.1853616219" lon="7.5585707836"><ele></ele><time>2014-9-28T12:2:19Z</time></trkpt>
<trkpt lat="46.1854770407" lon="7.5587338954"><ele></ele><time>2014-9-28T12:2:22Z</time></trkpt>
<trkpt lat="46.1855631229" lon="7.5588737894"><ele></ele><time>2014-9-28T12:2:25Z</time></trkpt>
<trkpt lat="46.1856142525" lon="7.5589603744"><ele></ele><time>2014-9-28T12:2:28Z</time></trkpt>
<trkpt lat="46.1857586727" lon="7.5591803994"><ele></ele><time>2014-9-28T12:2:31Z</time></trkpt>
<trkpt lat="46.1859060265" lon="7.5593613647"><ele></ele><time>2014-9-28T12:2:34Z</time></trkpt>
<trkpt lat="46.1860656179" lon="7.5595073774"><ele></ele><time>2014-9-28T12:2:37Z</time></trkpt>
<trkpt lat="46.1862398777" lon="7.5596486125"><ele></ele><time>2014-9-28T12:2:40Z</time></trkpt>
<trkpt lat="46.1863742396" lon="7.5598042645"><ele></ele><time>2014-9-28T12:2:43Z</time></trkpt>
<trkpt lat="46.1864958610" lon="7.5599947851"><ele></ele><time>2014-9-28T12:2:46Z</time></trkpt>
<trkpt lat="46.1865501758" lon="7.5601472519"><ele></ele><time>2014-9-28T12:2:49Z</time></trkpt>
<trkpt lat="46.1865781713" lon="7.5601941906"><ele></ele><time>2014-9-28T12:2:52Z</time></trkpt>
<trkpt lat="46.1866301391" lon="7.5602335017"><ele></ele><time>2014-9-28T12:2:55Z</time></trkpt>
<trkpt lat="46.1866811849" lon="7.5603060890"><ele></ele><time>2014-9-28T12:2:58Z</time></trkpt>
<trkpt lat="46.1867911555" lon="7.5604565442"><ele></ele><time>2014-9-28T12:3:1Z</time></trkpt>
<trkpt lat="46.1868688557" lon="7.5605840329"><ele></ele><time>2014-9-28T12:3:4Z</time></trkpt>
<trkpt lat="46.1869400181" lon="7.5606799219"><ele></ele><time>2014-9-28T12:3:7Z</time></trkpt>
<trkpt lat="46.1870136950" lon="7.5607819296"><ele></ele><time>2014-9-28T12:3:10Z</time></trkpt>
<trkpt lat="46.1870777328" lon="7.5608938280"><ele></ele><time>2014-9-28T12:3:13Z</time></trkpt>
<trkpt lat="46.1871812493" lon="7.5610451214"><ele></ele><time>2014-9-28T12:3:16Z</time></trkpt>
<trkpt lat="46.1872601230" lon="7.5611843448"><ele></ele><time>2014-9-28T12:3:19Z</time></trkpt>
<trkpt lat="46.1872825865" lon="7.5612022821"><ele></ele><time>2014-9-28T12:3:22Z</time></trkpt>
<trkpt lat="46.1873114202" lon="7.5612707622"><ele></ele><time>2014-9-28T12:3:25Z</time></trkpt>
<trkpt lat="46.1874138471" lon="7.5613638852"><ele></ele><time>2014-9-28T12:3:28Z</time></trkpt>
<trkpt lat="46.1874891166" lon="7.5614258274"><ele></ele><time>2014-9-28T12:3:31Z</time></trkpt>
<trkpt lat="46.1874803994" lon="7.5614707544"><ele></ele><time>2014-9-28T12:3:34Z</time></trkpt>
<trkpt lat="46.1874861829" lon="7.5614948105"><ele></ele><time>2014-9-28T12:3:37Z</time></trkpt>
<trkpt lat="46.1874908768" lon="7.5615044497"><ele></ele><time>2014-9-28T12:3:40Z</time></trkpt>
<trkpt lat="46.1874797288" lon="7.5615061261"><ele></ele><time>2014-9-28T12:3:43Z</time></trkpt>
<trkpt lat="46.1874776334" lon="7.5615021028"><ele></ele><time>2014-9-28T12:3:46Z</time></trkpt>
<trkpt lat="46.1874706764" lon="7.5615080539"><ele></ele><time>2014-9-28T12:3:49Z</time></trkpt>
<trkpt lat="46.1874822434" lon="7.5615128316"><ele></ele><time>2014-9-28T12:3:52Z</time></trkpt>
<trkpt lat="46.1874791421" lon="7.5615048688"><ele></ele><time>2014-9-28T12:3:55Z</time></trkpt>
<trkpt lat="46.1874799803" lon="7.5615151785"><ele></ele><time>2014-9-28T12:3:58Z</time></trkpt>
<trkpt lat="46.1874773819" lon="7.5615161844"><ele></ele><time>2014-9-28T12:4:1Z</time></trkpt>
<trkpt lat="46.1874764599" lon="7.5615162682"><ele></ele><time>2014-9-28T12:4:4Z</time></trkpt>
<trkpt lat="46.1874770466" lon="7.5615110714"><ele></ele><time>2014-9-28T12:4:7Z</time></trkpt>
<trkpt lat="46.1874810699" lon="7.5615180284"><ele></ele><time>2014-9-28T12:4:10Z</time></trkpt>
<trkpt lat="46.1874828301" lon="7.5615088921"><ele></ele><time>2014-9-28T12:4:13Z</time></trkpt>
<trkpt lat="46.1874881946" lon="7.5615124963"><ele></ele><time>2014-9-28T12:4:16Z</time></trkpt>
<trkpt lat="46.1874798965" lon="7.5615139212"><ele></ele><time>2014-9-28T12:4:19Z</time></trkpt>
<trkpt lat="46.1874775495" lon="7.5615174416"><ele></ele><time>2014-9-28T12:4:22Z</time></trkpt>
<trkpt lat="46.1874782201" lon="7.5615034439"><ele></ele><time>2014-9-28T12:4:25Z</time></trkpt>
<trkpt lat="46.1874793936" lon="7.5615139212"><ele></ele><time>2014-9-28T12:4:28Z</time></trkpt>
<trkpt lat="46.1874774657" lon="7.5615114067"><ele></ele><time>2014-9-28T12:4:31Z</time></trkpt>
<trkpt lat="46.1874859314" lon="7.5615208782"><ele></ele><time>2014-9-28T12:4:34Z</time></trkpt>
<trkpt lat="46.1874834169" lon="7.5615190342"><ele></ele><time>2014-9-28T12:4:37Z</time></trkpt>
<trkpt lat="46.1874821596" lon="7.5615176931"><ele></ele><time>2014-9-28T12:4:40Z</time></trkpt>
<trkpt lat="46.1874856800" lon="7.5615172740"><ele></ele><time>2014-9-28T12:4:43Z</time></trkpt>
<trkpt lat="46.1874816567" lon="7.5615135022"><ele></ele><time>2014-9-28T12:4:46Z</time></trkpt>
<trkpt lat="46.1874762923" lon="7.5615148433"><ele></ele><time>2014-9-28T12:4:49Z</time></trkpt>
<trkpt lat="46.1874840036" lon="7.5615088921"><ele></ele><time>2014-9-28T12:4:52Z</time></trkpt>
<trkpt lat="46.1874842551" lon="7.5615031924"><ele></ele><time>2014-9-28T12:4:55Z</time></trkpt>
<trkpt lat="46.1874808185" lon="7.5615147594"><ele></ele><time>2014-9-28T12:4:58Z</time></trkpt>
<trkpt lat="46.1874866858" lon="7.5615073834"><ele></ele><time>2014-9-28T12:5:1Z</time></trkpt>
<trkpt lat="46.1874992587" lon="7.5614961516"><ele></ele><time>2014-9-28T12:5:4Z</time></trkpt>
<trkpt lat="46.1875058804" lon="7.5614955649"><ele></ele><time>2014-9-28T12:5:7Z</time></trkpt>
<trkpt lat="46.1875096522" lon="7.5614954811"><ele></ele><time>2014-9-28T12:5:10Z</time></trkpt>
<trkpt lat="46.1875068024" lon="7.5614958163"><ele></ele><time>2014-9-28T12:5:13Z</time></trkpt>
<trkpt lat="46.1875013541" lon="7.5614886917"><ele></ele><time>2014-9-28T12:5:16Z</time></trkpt>
<trkpt lat="46.1874982528" lon="7.5614969060"><ele></ele><time>2014-9-28T12:5:19Z</time></trkpt>
<trkpt lat="46.1874929722" lon="7.5614919607"><ele></ele><time>2014-9-28T12:5:22Z</time></trkpt>
<trkpt lat="46.1875002645" lon="7.5614910387"><ele></ele><time>2014-9-28T12:5:25Z</time></trkpt>
<trkpt lat="46.1874981690" lon="7.5614995882"><ele></ele><time>2014-9-28T12:5:28Z</time></trkpt>
<trkpt lat="46.1874927208" lon="7.5614901166"><ele></ele><time>2014-9-28T12:5:31Z</time></trkpt>
<trkpt lat="46.1874896195" lon="7.5614856742"><ele></ele><time>2014-9-28T12:5:34Z</time></trkpt>
<trkpt lat="46.1874851771" lon="7.5615119096"><ele></ele><time>2014-9-28T12:5:37Z</time></trkpt>
<trkpt lat="46.1874919664" lon="7.5615190342"><ele></ele><time>2014-9-28T12:5:40Z</time></trkpt>
<trkpt lat="46.1874936428" lon="7.5615127478"><ele></ele><time>2014-9-28T12:5:43Z</time></trkpt>
<trkpt lat="46.1874944810" lon="7.5615042821"><ele></ele><time>2014-9-28T12:5:46Z</time></trkpt>
<trkpt lat="46.1874855962" lon="7.5615000073"><ele></ele><time>2014-9-28T12:5:49Z</time></trkpt>
<trkpt lat="46.1874753702" lon="7.5615052879"><ele></ele><time>2014-9-28T12:5:52Z</time></trkpt>
<trkpt lat="46.1874753702" lon="7.5615036115"><ele></ele><time>2014-9-28T12:5:55Z</time></trkpt>
<trkpt lat="46.1874828301" lon="7.5615037791"><ele></ele><time>2014-9-28T12:5:58Z</time></trkpt>
<trkpt lat="46.1874852609" lon="7.5615008455"><ele></ele><time>2014-9-28T12:6:1Z</time></trkpt>
<trkpt lat="46.1874857638" lon="7.5614971574"><ele></ele><time>2014-9-28T12:6:4Z</time></trkpt>
<trkpt lat="46.1874784715" lon="7.5614974927"><ele></ele><time>2014-9-28T12:6:7Z</time></trkpt>
<trkpt lat="46.1874814052" lon="7.5614992529"><ele></ele><time>2014-9-28T12:6:10Z</time></trkpt>
<trkpt lat="46.1874884460" lon="7.5614974089"><ele></ele><time>2014-9-28T12:6:13Z</time></trkpt>
<trkpt lat="46.1874895357" lon="7.5614944752"><ele></ele><time>2014-9-28T12:6:16Z</time></trkpt>
<trkpt lat="46.1874792259" lon="7.5615125801"><ele></ele><time>2014-9-28T12:6:19Z</time></trkpt>
<trkpt lat="46.1874803156" lon="7.5615152624"><ele></ele><time>2014-9-28T12:6:22Z</time></trkpt>
<trkpt lat="46.1874880269" lon="7.5615026895"><ele></ele><time>2014-9-28T12:6:25Z</time></trkpt>
<trkpt lat="46.1874833331" lon="7.5615088083"><ele></ele><time>2014-9-28T12:6:28Z</time></trkpt>
<trkpt lat="46.1874840874" lon="7.5615001749"><ele></ele><time>2014-9-28T12:6:31Z</time></trkpt>
<trkpt lat="46.1874821596" lon="7.5615000073"><ele></ele><time>2014-9-28T12:6:34Z</time></trkpt>
<trkpt lat="46.1874844227" lon="7.5615066290"><ele></ele><time>2014-9-28T12:6:37Z</time></trkpt>
<trkpt lat="46.1874890327" lon="7.5615112390"><ele></ele><time>2014-9-28T12:6:40Z</time></trkpt>
<trkpt lat="46.1874916311" lon="7.5615105685"><ele></ele><time>2014-9-28T12:6:43Z</time></trkpt>
<trkpt lat="46.1874933075" lon="7.5615142565"><ele></ele><time>2014-9-28T12:6:46Z</time></trkpt>
<trkpt lat="46.1874902062" lon="7.5615126640"><ele></ele><time>2014-9-28T12:6:49Z</time></trkpt>
<trkpt lat="46.1874971632" lon="7.5615161005"><ele></ele><time>2014-9-28T12:6:52Z</time></trkpt>
<trkpt lat="46.1874957383" lon="7.5615131669"><ele></ele><time>2014-9-28T12:6:55Z</time></trkpt>
<trkpt lat="46.1874928884" lon="7.5615136698"><ele></ele><time>2014-9-28T12:6:58Z</time></trkpt>
<trkpt lat="46.1875029467" lon="7.5615109876"><ele></ele><time>2014-9-28T12:7:1Z</time></trkpt>
<trkpt lat="46.1875088140" lon="7.5615192018"><ele></ele><time>2014-9-28T12:7:4Z</time></trkpt>
<trkpt lat="46.1875059642" lon="7.5614401605"><ele></ele><time>2014-9-28T12:7:7Z</time></trkpt>
<trkpt lat="46.1875039525" lon="7.5614370592"><ele></ele><time>2014-9-28T12:7:10Z</time></trkpt>
<trkpt lat="46.1874403339" lon="7.5614101533"><ele></ele><time>2014-9-28T12:7:13Z</time></trkpt>
<trkpt lat="46.1872637272" lon="7.5611816626"><ele></ele><time>2014-9-28T12:7:16Z</time></trkpt>
<trkpt lat="46.1870690156" lon="7.5608369987"><ele></ele><time>2014-9-28T12:7:19Z</time></trkpt>
<trkpt lat="46.1868043151" lon="7.5604614057"><ele></ele><time>2014-9-28T12:7:22Z</time></trkpt>
<trkpt lat="46.1864819471" lon="7.5600211043"><ele></ele><time>2014-9-28T12:7:25Z</time></trkpt>
<trkpt lat="46.1863537878" lon="7.5597998220"><ele></ele><time>2014-9-28T12:7:28Z</time></trkpt>
<trkpt lat="46.1862897500" lon="7.5597302523"><ele></ele><time>2014-9-28T12:7:31Z</time></trkpt>
<trkpt lat="46.1861765105" lon="7.5596294180"><ele></ele><time>2014-9-28T12:7:34Z</time></trkpt>
<trkpt lat="46.1858325172" lon="7.5592817366"><ele></ele><time>2014-9-28T12:7:37Z</time></trkpt>
<trkpt lat="46.1857600976" lon="7.5591855124"><ele></ele><time>2014-9-28T12:7:40Z</time></trkpt>
<trkpt lat="46.1853934731" lon="7.5586264394"><ele></ele><time>2014-9-28T12:7:43Z</time></trkpt>
<trkpt lat="46.1849079095" lon="7.5581301469"><ele></ele><time>2014-9-28T12:7:46Z</time></trkpt>
<trkpt lat="46.1847692728" lon="7.5578755885"><ele></ele><time>2014-9-28T12:7:49Z</time></trkpt>
<trkpt lat="46.1846140400" lon="7.5576649513"><ele></ele><time>2014-9-28T12:7:52Z</time></trkpt>
<trkpt lat="46.1844658479" lon="7.5575440004"><ele></ele><time>2014-9-28T12:7:55Z</time></trkpt>
<trkpt lat="46.1843601521" lon="7.5573326927"><ele></ele><time>2014-9-28T12:7:58Z</time></trkpt>
<trkpt lat="46.1842991319" lon="7.5566808321"><ele></ele><time>2014-9-28T12:8:1Z</time></trkpt>
<trkpt lat="46.1842069309" lon="7.5561183225"><ele></ele><time>2014-9-28T12:8:4Z</time></trkpt>
<trkpt lat="46.1840683781" lon="7.5554684736"><ele></ele><time>2014-9-28T12:8:7Z</time></trkpt>
<trkpt lat="46.1837557331" lon="7.5543006230"><ele></ele><time>2014-9-28T12:8:10Z</time></trkpt>
<trkpt lat="46.1836688966" lon="7.5539170671"><ele></ele><time>2014-9-28T12:8:13Z</time></trkpt>
<trkpt lat="46.1836267356" lon="7.5535267219"><ele></ele><time>2014-9-28T12:8:16Z</time></trkpt>
<trkpt lat="46.1835974827" lon="7.5528083928"><ele></ele><time>2014-9-28T12:8:19Z</time></trkpt>
<trkpt lat="46.1835385580" lon="7.5527145155"><ele></ele><time>2014-9-28T12:8:22Z</time></trkpt>
<trkpt lat="46.1833702493" lon="7.5524699315"><ele></ele><time>2014-9-28T12:8:25Z</time></trkpt>
<trkpt lat="46.1832037009" lon="7.5524804927"><ele></ele><time>2014-9-28T12:8:28Z</time></trkpt>
<trkpt lat="46.1832227279" lon="7.5526560098"><ele></ele><time>2014-9-28T12:8:31Z</time></trkpt>
<trkpt lat="46.1832971592" lon="7.5530459359"><ele></ele><time>2014-9-28T12:8:34Z</time></trkpt>
<trkpt lat="46.1833307706" lon="7.5532699004"><ele></ele><time>2014-9-28T12:8:37Z</time></trkpt>
<trkpt lat="46.1832664814" lon="7.5540041551"><ele></ele><time>2014-9-28T12:8:40Z</time></trkpt>
<trkpt lat="46.1832351331" lon="7.5542168040"><ele></ele><time>2014-9-28T12:8:43Z</time></trkpt>
<trkpt lat="46.1832119990" lon="7.5553016737"><ele></ele><time>2014-9-28T12:8:46Z</time></trkpt>
<trkpt lat="46.1830887012" lon="7.5561754033"><ele></ele><time>2014-9-28T12:8:49Z</time></trkpt>
<trkpt lat="46.1832111608" lon="7.5566707738"><ele></ele><time>2014-9-28T12:8:52Z</time></trkpt>
<trkpt lat="46.1832807306" lon="7.5570567604"><ele></ele><time>2014-9-28T12:8:55Z</time></trkpt>
<trkpt lat="46.1832929682" lon="7.5575211179"><ele></ele><time>2014-9-28T12:8:58Z</time></trkpt>
<trkpt lat="46.1834001727" lon="7.5585271977"><ele></ele><time>2014-9-28T12:9:1Z</time></trkpt>
<trkpt lat="46.1835395638" lon="7.5594532304"><ele></ele><time>2014-9-28T12:9:4Z</time></trkpt>
<trkpt lat="46.1835759412" lon="7.5600307435"><ele></ele><time>2014-9-28T12:9:7Z</time></trkpt>
<trkpt lat="46.1837913562" lon="7.5606389344"><ele></ele><time>2014-9-28T12:9:10Z</time></trkpt>
<trkpt lat="46.1840270553" lon="7.5610291958"><ele></ele><time>2014-9-28T12:9:13Z</time></trkpt>
<trkpt lat="46.1841987167" lon="7.5616109837"><ele></ele><time>2014-9-28T12:9:16Z</time></trkpt>
<trkpt lat="46.1842438113" lon="7.5618877541"><ele></ele><time>2014-9-28T12:9:19Z</time></trkpt>
<trkpt lat="46.1843647622" lon="7.5623265468"><ele></ele><time>2014-9-28T12:9:22Z</time></trkpt>
<trkpt lat="46.1845127866" lon="7.5630039722"><ele></ele><time>2014-9-28T12:9:25Z</time></trkpt>
<trkpt lat="46.1846236791" lon="7.5632298645"><ele></ele><time>2014-9-28T12:9:28Z</time></trkpt>
<trkpt lat="46.1848313827" lon="7.5634615403"><ele></ele><time>2014-9-28T12:9:31Z</time></trkpt>
<trkpt lat="46.1854249053" lon="7.5639663823"><ele></ele><time>2014-9-28T12:9:34Z</time></trkpt>
<trkpt lat="46.1857528053" lon="7.5643730722"><ele></ele><time>2014-9-28T12:9:37Z</time></trkpt>
<trkpt lat="46.1863372754" lon="7.5650020503"><ele></ele><time>2014-9-28T12:9:40Z</time></trkpt>
<trkpt lat="46.1864490062" lon="7.5651452132"><ele></ele><time>2014-9-28T12:9:43Z</time></trkpt>
<trkpt lat="46.1868907325" lon="7.5657288451"><ele></ele><time>2014-9-28T12:9:46Z</time></trkpt>
<trkpt lat="46.1872178782" lon="7.5662137382"><ele></ele><time>2014-9-28T12:9:49Z</time></trkpt>
<trkpt lat="46.1873474624" lon="7.5664692186"><ele></ele><time>2014-9-28T12:9:52Z</time></trkpt>
<trkpt lat="46.1874394957" lon="7.5664990582"><ele></ele><time>2014-9-28T12:9:55Z</time></trkpt>
<trkpt lat="46.1874578521" lon="7.5664961245"><ele></ele><time>2014-9-28T12:9:58Z</time></trkpt>
<trkpt lat="46.1875515617" lon="7.5664162450"><ele></ele><time>2014-9-28T12:10:1Z</time></trkpt>
<trkpt lat="46.1877467763" lon="7.5662629399"><ele></ele><time>2014-9-28T12:10:4Z</time></trkpt>
<trkpt lat="46.1878870055" lon="7.5661998242"><ele></ele><time>2014-9-28T12:10:7Z</time></trkpt>
<trkpt lat="46.1881090421" lon="7.5661298353"><ele></ele><time>2014-9-28T12:10:10Z</time></trkpt>
<trkpt lat="46.1883677915" lon="7.5660506263"><ele></ele><time>2014-9-28T12:10:13Z</time></trkpt>
<trkpt lat="46.1886671092" lon="7.5659783743"><ele></ele><time>2014-9-28T12:10:16Z</time></trkpt>
<trkpt lat="46.1889651697" lon="7.5660371315"><ele></ele><time>2014-9-28T12:10:19Z</time></trkpt>
<trkpt lat="46.1893079896" lon="7.5660521351"><ele></ele><time>2014-9-28T12:10:22Z</time></trkpt>
<trkpt lat="46.1896322854" lon="7.5659872591"><ele></ele><time>2014-9-28T12:10:25Z</time></trkpt>
<trkpt lat="46.1900479440" lon="7.5660296716"><ele></ele><time>2014-9-28T12:10:28Z</time></trkpt>
<trkpt lat="46.1903608404" lon="7.5660091359"><ele></ele><time>2014-9-28T12:10:31Z</time></trkpt>
<trkpt lat="46.1906627566" lon="7.5658314396"><ele></ele><time>2014-9-28T12:10:34Z</time></trkpt>
<trkpt lat="46.1909515131" lon="7.5657497160"><ele></ele><time>2014-9-28T12:10:37Z</time></trkpt>
<trkpt lat="46.1910458095" lon="7.5658178609"><ele></ele><time>2014-9-28T12:10:40Z</time></trkpt>
<trkpt lat="46.1910453904" lon="7.5658186153"><ele></ele><time>2014-9-28T12:10:43Z</time></trkpt>
<trkpt lat="46.1910435464" lon="7.5657939725"><ele></ele><time>2014-9-28T12:10:46Z</time></trkpt>
<trkpt lat="46.1910259444" lon="7.5657834951"><ele></ele><time>2014-9-28T12:10:49Z</time></trkpt>
<trkpt lat="46.1907840427" lon="7.5658279192"><ele></ele><time>2014-9-28T12:10:52Z</time></trkpt>
<trkpt lat="46.1905306578" lon="7.5658980757"><ele></ele><time>2014-9-28T12:10:55Z</time></trkpt>
<trkpt lat="46.1905016564" lon="7.5659158453"><ele></ele><time>2014-9-28T12:10:58Z</time></trkpt>
<trkpt lat="46.1904537119" lon="7.5659764465"><ele></ele><time>2014-9-28T12:11:1Z</time></trkpt>
<trkpt lat="46.1902595870" lon="7.5660719164"><ele></ele><time>2014-9-28T12:11:4Z</time></trkpt>
<trkpt lat="46.1900201999" lon="7.5660041906"><ele></ele><time>2014-9-28T12:11:7Z</time></trkpt>
<trkpt lat="46.1897171102" lon="7.5659862533"><ele></ele><time>2014-9-28T12:11:10Z</time></trkpt>
<trkpt lat="46.1894089915" lon="7.5660528056"><ele></ele><time>2014-9-28T12:11:13Z</time></trkpt>
<trkpt lat="46.1891566962" lon="7.5660777837"><ele></ele><time>2014-9-28T12:11:16Z</time></trkpt>
<trkpt lat="46.1888624914" lon="7.5660639536"><ele></ele><time>2014-9-28T12:11:19Z</time></trkpt>
<trkpt lat="46.1885313224" lon="7.5660064537"><ele></ele><time>2014-9-28T12:11:22Z</time></trkpt>
<trkpt lat="46.1881575733" lon="7.5661481917"><ele></ele><time>2014-9-28T12:11:25Z</time></trkpt>
<trkpt lat="46.1877093930" lon="7.5663122255"><ele></ele><time>2014-9-28T12:11:28Z</time></trkpt>
<trkpt lat="46.1876698304" lon="7.5663359463"><ele></ele><time>2014-9-28T12:11:31Z</time></trkpt>
<trkpt lat="46.1874088179" lon="7.5664836355"><ele></ele><time>2014-9-28T12:11:34Z</time></trkpt>
<trkpt lat="46.1871811654" lon="7.5664270576"><ele></ele><time>2014-9-28T12:11:37Z</time></trkpt>
<trkpt lat="46.1868242640" lon="7.5663853157"><ele></ele><time>2014-9-28T12:11:40Z</time></trkpt>
<trkpt lat="46.1865437217" lon="7.5662274845"><ele></ele><time>2014-9-28T12:11:43Z</time></trkpt>
<trkpt lat="46.1862702202" lon="7.5660593435"><ele></ele><time>2014-9-28T12:11:46Z</time></trkpt>
<trkpt lat="46.1858694814" lon="7.5657007657"><ele></ele><time>2014-9-28T12:11:49Z</time></trkpt>
<trkpt lat="46.1855834909" lon="7.5656472053"><ele></ele><time>2014-9-28T12:11:52Z</time></trkpt>
<trkpt lat="46.1853921320" lon="7.5656588562"><ele></ele><time>2014-9-28T12:11:55Z</time></trkpt>
<trkpt lat="46.1850130185" lon="7.5655154418"><ele></ele><time>2014-9-28T12:11:58Z</time></trkpt>
<trkpt lat="46.1848235037" lon="7.5654607918"><ele></ele><time>2014-9-28T12:12:1Z</time></trkpt>
<trkpt lat="46.1845310591" lon="7.5653295312"><ele></ele><time>2014-9-28T12:12:4Z</time></trkpt>
<trkpt lat="46.1841225252" lon="7.5652747136"><ele></ele><time>2014-9-28T12:12:7Z</time></trkpt>
<trkpt lat="46.1839728244" lon="7.5652997755"><ele></ele><time>2014-9-28T12:12:10Z</time></trkpt>
<trkpt lat="46.1837564874" lon="7.5653709378"><ele></ele><time>2014-9-28T12:12:13Z</time></trkpt>
<trkpt lat="46.1838334333" lon="7.5654147752"><ele></ele><time>2014-9-28T12:12:16Z</time></trkpt>
<trkpt lat="46.1840926856" lon="7.5654164515"><ele></ele><time>2014-9-28T12:12:19Z</time></trkpt>
<trkpt lat="46.1843106151" lon="7.5654731970"><ele></ele><time>2014-9-28T12:12:22Z</time></trkpt>
<trkpt lat="46.1847306322" lon="7.5658772048"><ele></ele><time>2014-9-28T12:12:25Z</time></trkpt>
<trkpt lat="46.1849141959" lon="7.5660621095"><ele></ele><time>2014-9-28T12:12:28Z</time></trkpt>
<trkpt lat="46.1853270885" lon="7.5666994695"><ele></ele><time>2014-9-28T12:12:31Z</time></trkpt>
<trkpt lat="46.1853234842" lon="7.5672591291"><ele></ele><time>2014-9-28T12:12:34Z</time></trkpt>
<trkpt lat="46.1853113305" lon="7.5676070619"><ele></ele><time>2014-9-28T12:12:37Z</time></trkpt>
<trkpt lat="46.1853902042" lon="7.5681138318"><ele></ele><time>2014-9-28T12:12:40Z</time></trkpt>
<trkpt lat="46.1855404079" lon="7.5684848148"><ele></ele><time>2014-9-28T12:12:43Z</time></trkpt>
<trkpt lat="46.1856633704" lon="7.5686440710"><ele></ele><time>2014-9-28T12:12:46Z</time></trkpt>
<trkpt lat="46.1860875785" lon="7.5687938556"><ele></ele><time>2014-9-28T12:12:49Z</time></trkpt>
<trkpt lat="46.1866609845" lon="7.5689467415"><ele></ele><time>2014-9-28T12:12:52Z</time></trkpt>
<trkpt lat="46.1870989390" lon="7.5692458916"><ele></ele><time>2014-9-28T12:12:55Z</time></trkpt>
<trkpt lat="46.1871551815" lon="7.5692760665"><ele></ele><time>2014-9-28T12:12:58Z</time></trkpt>
<trkpt lat="46.1873572692" lon="7.5692590512"><ele></ele><time>2014-9-28T12:13:1Z</time></trkpt>
<trkpt lat="46.1875751987" lon="7.5691940915"><ele></ele><time>2014-9-28T12:13:4Z</time></trkpt>
<trkpt lat="46.1877200380" lon="7.5691757351"><ele></ele><time>2014-9-28T12:13:7Z</time></trkpt>
<trkpt lat="46.1878829822" lon="7.5691849552"><ele></ele><time>2014-9-28T12:13:10Z</time></trkpt>
<trkpt lat="46.1880880035" lon="7.5691857934"><ele></ele><time>2014-9-28T12:13:13Z</time></trkpt>
<trkpt lat="46.1882667895" lon="7.5691740587"><ele></ele><time>2014-9-28T12:13:16Z</time></trkpt>
<trkpt lat="46.1884827074" lon="7.5691691134"><ele></ele><time>2014-9-28T12:13:19Z</time></trkpt>
<trkpt lat="46.1886662710" lon="7.5691686943"><ele></ele><time>2014-9-28T12:13:22Z</time></trkpt>
<trkpt lat="46.1888847034" lon="7.5691973604"><ele></ele><time>2014-9-28T12:13:25Z</time></trkpt>
<trkpt lat="46.1890924908" lon="7.5690279622"><ele></ele><time>2014-9-28T12:13:28Z</time></trkpt>
<trkpt lat="46.1893142760" lon="7.5687055942"><ele></ele><time>2014-9-28T12:13:31Z</time></trkpt>
<trkpt lat="46.1895027012" lon="7.5686206017"><ele></ele><time>2014-9-28T12:13:34Z</time></trkpt>
<trkpt lat="46.1896316148" lon="7.5686040055"><ele></ele><time>2014-9-28T12:13:37Z</time></trkpt>
<trkpt lat="46.1896414217" lon="7.5686009880"><ele></ele><time>2014-9-28T12:13:40Z</time></trkpt>
<trkpt lat="46.1897749454" lon="7.5685859006"><ele></ele><time>2014-9-28T12:13:43Z</time></trkpt>
<trkpt lat="46.1898852512" lon="7.5685796980"><ele></ele><time>2014-9-28T12:13:46Z</time></trkpt>
<trkpt lat="46.1899701599" lon="7.5685802009"><ele></ele><time>2014-9-28T12:13:49Z</time></trkpt>
<trkpt lat="46.1902045179" lon="7.5685466733"><ele></ele><time>2014-9-28T12:13:52Z</time></trkpt>
<trkpt lat="46.1902512051" lon="7.5685466733"><ele></ele><time>2014-9-28T12:13:55Z</time></trkpt>
<trkpt lat="46.1905121338" lon="7.5682884268"><ele></ele><time>2014-9-28T12:13:58Z</time></trkpt>
<trkpt lat="46.1906513572" lon="7.5680753589"><ele></ele><time>2014-9-28T12:14:1Z</time></trkpt>
<trkpt lat="46.1907025706" lon="7.5680333655"><ele></ele><time>2014-9-28T12:14:4Z</time></trkpt>
<trkpt lat="46.1908397824" lon="7.5679425057"><ele></ele><time>2014-9-28T12:14:7Z</time></trkpt>
<trkpt lat="46.1909745634" lon="7.5678430963"><ele></ele><time>2014-9-28T12:14:10Z</time></trkpt>
<trkpt lat="46.1911633238" lon="7.5677014422"><ele></ele><time>2014-9-28T12:14:13Z</time></trkpt>
<trkpt lat="46.1913673393" lon="7.5675164536"><ele></ele><time>2014-9-28T12:14:16Z</time></trkpt>
<trkpt lat="46.1915128492" lon="7.5672913995"><ele></ele><time>2014-9-28T12:14:19Z</time></trkpt>
<trkpt lat="46.1916361470" lon="7.5670328178"><ele></ele><time>2014-9-28T12:14:22Z</time></trkpt>
<trkpt lat="46.1917824112" lon="7.5667605735"><ele></ele><time>2014-9-28T12:14:25Z</time></trkpt>
<trkpt lat="46.1918359715" lon="7.5666636787"><ele></ele><time>2014-9-28T12:14:28Z</time></trkpt>
<trkpt lat="46.1919112410" lon="7.5665078592"><ele></ele><time>2014-9-28T12:14:31Z</time></trkpt>
<trkpt lat="46.1919811461" lon="7.5662674662"><ele></ele><time>2014-9-28T12:14:34Z</time></trkpt>
<trkpt lat="46.1920532305" lon="7.5660177693"><ele></ele><time>2014-9-28T12:14:37Z</time></trkpt>
<trkpt lat="46.1921708286" lon="7.5658514723"><ele></ele><time>2014-9-28T12:14:40Z</time></trkpt>
<trkpt lat="46.1922932044" lon="7.5657623727"><ele></ele><time>2014-9-28T12:14:43Z</time></trkpt>
<trkpt lat="46.1924170051" lon="7.5655486342"><ele></ele><time>2014-9-28T12:14:46Z</time></trkpt>
<trkpt lat="46.1924421508" lon="7.5654645637"><ele></ele><time>2014-9-28T12:14:49Z</time></trkpt>
<trkpt lat="46.1924866587" lon="7.5653934013"><ele></ele><time>2014-9-28T12:14:52Z</time></trkpt>
<trkpt lat="46.1926647741" lon="7.5652221590"><ele></ele><time>2014-9-28T12:14:55Z</time></trkpt>
<trkpt lat="46.1928127147" lon="7.5651666708"><ele></ele><time>2014-9-28T12:14:58Z</time></trkpt>
<trkpt lat="46.1929616611" lon="7.5650851987"><ele></ele><time>2014-9-28T12:15:1Z</time></trkpt>
<trkpt lat="46.1931065004" lon="7.5649616495"><ele></ele><time>2014-9-28T12:15:4Z</time></trkpt>
<trkpt lat="46.1932628229" lon="7.5647003017"><ele></ele><time>2014-9-28T12:15:7Z</time></trkpt>
<trkpt lat="46.1934397649" lon="7.5646080170"><ele></ele><time>2014-9-28T12:15:10Z</time></trkpt>
<trkpt lat="46.1936221551" lon="7.5644549634"><ele></ele><time>2014-9-28T12:15:13Z</time></trkpt>
<trkpt lat="46.1937849317" lon="7.5644146465"><ele></ele><time>2014-9-28T12:15:16Z</time></trkpt>
<trkpt lat="46.1938269250" lon="7.5644221064"><ele></ele><time>2014-9-28T12:15:19Z</time></trkpt>
<trkpt lat="46.1938731093" lon="7.5644107070"><ele></ele><time>2014-9-28T12:15:22Z</time></trkpt>
<trkpt lat="46.1939135939" lon="7.5643984694"><ele></ele><time>2014-9-28T12:15:25Z</time></trkpt>
<trkpt lat="46.1939409189" lon="7.5643836334"><ele></ele><time>2014-9-28T12:15:28Z</time></trkpt>
<trkpt lat="46.1940999236" lon="7.5643109623"><ele></ele><time>2014-9-28T12:15:31Z</time></trkpt>
<trkpt lat="46.1942787934" lon="7.5642482657"><ele></ele><time>2014-9-28T12:15:34Z</time></trkpt>
<trkpt lat="46.1944408156" lon="7.5643320009"><ele></ele><time>2014-9-28T12:15:37Z</time></trkpt>
<trkpt lat="46.1946346052" lon="7.5643998943"><ele></ele><time>2014-9-28T12:15:40Z</time></trkpt>
<trkpt lat="46.1948304065" lon="7.5643640198"><ele></ele><time>2014-9-28T12:15:43Z</time></trkpt>
<trkpt lat="46.1949744914" lon="7.5644283928"><ele></ele><time>2014-9-28T12:15:46Z</time></trkpt>
<trkpt lat="46.1950843781" lon="7.5645514391"><ele></ele><time>2014-9-28T12:15:49Z</time></trkpt>
<trkpt lat="46.1951532774" lon="7.5646504294"><ele></ele><time>2014-9-28T12:15:52Z</time></trkpt>
<trkpt lat="46.1952557880" lon="7.5647673570"><ele></ele><time>2014-9-28T12:15:55Z</time></trkpt>
<trkpt lat="46.1954620667" lon="7.5648831110"><ele></ele><time>2014-9-28T12:15:58Z</time></trkpt>
<trkpt lat="46.1956439540" lon="7.5648983661"><ele></ele><time>2014-9-28T12:16:1Z</time></trkpt>
<trkpt lat="46.1958224885" lon="7.5648547802"><ele></ele><time>2014-9-28T12:16:4Z</time></trkpt>
<trkpt lat="46.1959902942" lon="7.5647246931"><ele></ele><time>2014-9-28T12:16:7Z</time></trkpt>
<trkpt lat="46.1961586867" lon="7.5645058416"><ele></ele><time>2014-9-28T12:16:10Z</time></trkpt>
<trkpt lat="46.1962359678" lon="7.5644309074"><ele></ele><time>2014-9-28T12:16:13Z</time></trkpt>
<trkpt lat="46.1963872612" lon="7.5642203540"><ele></ele><time>2014-9-28T12:16:16Z</time></trkpt>
<trkpt lat="46.1965121515" lon="7.5641269796"><ele></ele><time>2014-9-28T12:16:19Z</time></trkpt>
<trkpt lat="46.1966490280" lon="7.5642336812"><ele></ele><time>2014-9-28T12:16:22Z</time></trkpt>
<trkpt lat="46.1967672966" lon="7.5643045921"><ele></ele><time>2014-9-28T12:16:25Z</time></trkpt>
<trkpt lat="46.1968790274" lon="7.5643812027"><ele></ele><time>2014-9-28T12:16:28Z</time></trkpt>
<trkpt lat="46.1969537940" lon="7.5643851422"><ele></ele><time>2014-9-28T12:16:31Z</time></trkpt>
<trkpt lat="46.1970344279" lon="7.5643970445"><ele></ele><time>2014-9-28T12:16:34Z</time></trkpt>
<trkpt lat="46.1971433926" lon="7.5644371100"><ele></ele><time>2014-9-28T12:16:37Z</time></trkpt>
<trkpt lat="46.1972287204" lon="7.5644447375"><ele></ele><time>2014-9-28T12:16:40Z</time></trkpt>
<trkpt lat="46.1973296385" lon="7.5643987209"><ele></ele><time>2014-9-28T12:16:43Z</time></trkpt>
<trkpt lat="46.1973528564" lon="7.5643989723"><ele></ele><time>2014-9-28T12:16:46Z</time></trkpt>
<trkpt lat="46.1974065844" lon="7.5644041691"><ele></ele><time>2014-9-28T12:16:49Z</time></trkpt>
<trkpt lat="46.1974222586" lon="7.5643853098"><ele></ele><time>2014-9-28T12:16:52Z</time></trkpt>
<trkpt lat="46.1974391062" lon="7.5643656123"><ele></ele><time>2014-9-28T12:16:55Z</time></trkpt>
<trkpt lat="46.1974658445" lon="7.5643627625"><ele></ele><time>2014-9-28T12:16:58Z</time></trkpt>
<trkpt lat="46.1975951772" lon="7.5642966293"><ele></ele><time>2014-9-28T12:17:1Z</time></trkpt>
<trkpt lat="46.1977903917" lon="7.5642294902"><ele></ele><time>2014-9-28T12:17:4Z</time></trkpt>
<trkpt lat="46.1979461275" lon="7.5641007442"><ele></ele><time>2014-9-28T12:17:7Z</time></trkpt>
<trkpt lat="46.1980754603" lon="7.5639378000"><ele></ele><time>2014-9-28T12:17:10Z</time></trkpt>
<trkpt lat="46.1982053798" lon="7.5638041086"><ele></ele><time>2014-9-28T12:17:13Z</time></trkpt>
<trkpt lat="46.1983303539" lon="7.5637446810"><ele></ele><time>2014-9-28T12:17:16Z</time></trkpt>
<trkpt lat="46.1985156778" lon="7.5636259932"><ele></ele><time>2014-9-28T12:17:19Z</time></trkpt>
<trkpt lat="46.1986906920" lon="7.5635113288"><ele></ele><time>2014-9-28T12:17:22Z</time></trkpt>
<trkpt lat="46.1988671310" lon="7.5633295253"><ele></ele><time>2014-9-28T12:17:25Z</time></trkpt>
<trkpt lat="46.1989858188" lon="7.5631633960"><ele></ele><time>2014-9-28T12:17:28Z</time></trkpt>
<trkpt lat="46.1991248745" lon="7.5631211512"><ele></ele><time>2014-9-28T12:17:31Z</time></trkpt>
<trkpt lat="46.1992937699" lon="7.5631203968"><ele></ele><time>2014-9-28T12:17:34Z</time></trkpt>
<trkpt lat="46.1993934307" lon="7.5631183013"><ele></ele><time>2014-9-28T12:17:37Z</time></trkpt>
<trkpt lat="46.1995620746" lon="7.5630234182"><ele></ele><time>2014-9-28T12:17:40Z</time></trkpt>
<trkpt lat="46.1996318121" lon="7.5629250146"><ele></ele><time>2014-9-28T12:17:43Z</time></trkpt>
<trkpt lat="46.1997230072" lon="7.5626632478"><ele></ele><time>2014-9-28T12:17:46Z</time></trkpt>
<trkpt lat="46.1998232547" lon="7.5623927638"><ele></ele><time>2014-9-28T12:17:49Z</time></trkpt>
<trkpt lat="46.1999737937" lon="7.5620620977"><ele></ele><time>2014-9-28T12:17:52Z</time></trkpt>
<trkpt lat="46.2001390848" lon="7.5618542265"><ele></ele><time>2014-9-28T12:17:55Z</time></trkpt>
<trkpt lat="46.2003285158" lon="7.5616837386"><ele></ele><time>2014-9-28T12:17:58Z</time></trkpt>
<trkpt lat="46.2005783804" lon="7.5615942199"><ele></ele><time>2014-9-28T12:18:1Z</time></trkpt>
<trkpt lat="46.2007485330" lon="7.5616781227"><ele></ele><time>2014-9-28T12:18:4Z</time></trkpt>
<trkpt lat="46.2009346951" lon="7.5614143442"><ele></ele><time>2014-9-28T12:18:7Z</time></trkpt>
<trkpt lat="46.2011637725" lon="7.5612079818"><ele></ele><time>2014-9-28T12:18:10Z</time></trkpt>
<trkpt lat="46.2013740744" lon="7.5612152740"><ele></ele><time>2014-9-28T12:18:13Z</time></trkpt>
<trkpt lat="46.2015846279" lon="7.5611973368"><ele></ele><time>2014-9-28T12:18:16Z</time></trkpt>
<trkpt lat="46.2017541099" lon="7.5611605402"><ele></ele><time>2014-9-28T12:18:19Z</time></trkpt>
<trkpt lat="46.2018297985" lon="7.5611271802"><ele></ele><time>2014-9-28T12:18:22Z</time></trkpt>
<trkpt lat="46.2018424552" lon="7.5611391664"><ele></ele><time>2014-9-28T12:18:25Z</time></trkpt>
<trkpt lat="46.2018648349" lon="7.5611588638"><ele></ele><time>2014-9-28T12:18:28Z</time></trkpt>
<trkpt lat="46.2018753961" lon="7.5611529965"><ele></ele><time>2014-9-28T12:18:31Z</time></trkpt>
<trkpt lat="46.2018976919" lon="7.5611166190"><ele></ele><time>2014-9-28T12:18:34Z</time></trkpt>
<trkpt lat="46.2019474804" lon="7.5610726979"><ele></ele><time>2014-9-28T12:18:37Z</time></trkpt>
<trkpt lat="46.2019986100" lon="7.5609841850"><ele></ele><time>2014-9-28T12:18:40Z</time></trkpt>
<trkpt lat="46.2021043058" lon="7.5608632341"><ele></ele><time>2014-9-28T12:18:43Z</time></trkpt>
<trkpt lat="46.2021623924" lon="7.5607442949"><ele></ele><time>2014-9-28T12:18:46Z</time></trkpt>
<trkpt lat="46.2022129353" lon="7.5606261939"><ele></ele><time>2014-9-28T12:18:49Z</time></trkpt>
<trkpt lat="46.2022487260" lon="7.5604941789"><ele></ele><time>2014-9-28T12:18:52Z</time></trkpt>
<trkpt lat="46.2022524141" lon="7.5604831986"><ele></ele><time>2014-9-28T12:18:55Z</time></trkpt>
<trkpt lat="46.2022585329" lon="7.5604413729"><ele></ele><time>2014-9-28T12:18:58Z</time></trkpt>
<trkpt lat="46.2022856064" lon="7.5602388661"><ele></ele><time>2014-9-28T12:19:1Z</time></trkpt>
<trkpt lat="46.2023595348" lon="7.5601389538"><ele></ele><time>2014-9-28T12:19:4Z</time></trkpt>
<trkpt lat="46.2024027854" lon="7.5600440707"><ele></ele><time>2014-9-28T12:19:7Z</time></trkpt>
<trkpt lat="46.2024807371" lon="7.5598448329"><ele></ele><time>2014-9-28T12:19:10Z</time></trkpt>
<trkpt lat="46.2024902087" lon="7.5598115567"><ele></ele><time>2014-9-28T12:19:13Z</time></trkpt>
<trkpt lat="46.2026029453" lon="7.5596393086"><ele></ele><time>2014-9-28T12:19:16Z</time></trkpt>
<trkpt lat="46.2027922086" lon="7.5594409928"><ele></ele><time>2014-9-28T12:19:19Z</time></trkpt>
<trkpt lat="46.2028083857" lon="7.5594305992"><ele></ele><time>2014-9-28T12:19:22Z</time></trkpt>
<trkpt lat="46.2029577512" lon="7.5592783000"><ele></ele><time>2014-9-28T12:19:25Z</time></trkpt>
<trkpt lat="46.2030305061" lon="7.5592082273"><ele></ele><time>2014-9-28T12:19:28Z</time></trkpt>
<trkpt lat="46.2030599266" lon="7.5591846742"><ele></ele><time>2014-9-28T12:19:31Z</time></trkpt>
<trkpt lat="46.2032245472" lon="7.5590756256"><ele></ele><time>2014-9-28T12:19:34Z</time></trkpt>
<trkpt lat="46.2032700609" lon="7.5590243284"><ele></ele><time>2014-9-28T12:19:37Z</time></trkpt>
<trkpt lat="46.2033879943" lon="7.5588740408"><ele></ele><time>2014-9-28T12:19:40Z</time></trkpt>
<trkpt lat="46.2035004795" lon="7.5586065743"><ele></ele><time>2014-9-28T12:19:43Z</time></trkpt>
<trkpt lat="46.2035442330" lon="7.5584402774"><ele></ele><time>2014-9-28T12:19:46Z</time></trkpt>
<trkpt lat="46.2035999727" lon="7.5582955219"><ele></ele><time>2014-9-28T12:19:49Z</time></trkpt>
<trkpt lat="46.2036076002" lon="7.5582909957"><ele></ele><time>2014-9-28T12:19:52Z</time></trkpt>
<trkpt lat="46.2036509346" lon="7.5581748225"><ele></ele><time>2014-9-28T12:19:55Z</time></trkpt>
<trkpt lat="46.2036857195" lon="7.5580373593"><ele></ele><time>2014-9-28T12:19:58Z</time></trkpt>
<trkpt lat="46.2037147209" lon="7.5579523668"><ele></ele><time>2014-9-28T12:20:1Z</time></trkpt>
<trkpt lat="46.2037617434" lon="7.5578376185"><ele></ele><time>2014-9-28T12:20:4Z</time></trkpt>
<trkpt lat="46.2037947681" lon="7.5577999000"><ele></ele><time>2014-9-28T12:20:7Z</time></trkpt>
<trkpt lat="46.2038348336" lon="7.5577527937"><ele></ele><time>2014-9-28T12:20:10Z</time></trkpt>
<trkpt lat="46.2038613204" lon="7.5577160809"><ele></ele><time>2014-9-28T12:20:13Z</time></trkpt>
<trkpt lat="46.2039647531" lon="7.5577236246"><ele></ele><time>2014-9-28T12:20:16Z</time></trkpt>
<trkpt lat="46.2040683534" lon="7.5577584095"><ele></ele><time>2014-9-28T12:20:19Z</time></trkpt>
<trkpt lat="46.2041623145" lon="7.5578147359"><ele></ele><time>2014-9-28T12:20:22Z</time></trkpt>
<trkpt lat="46.2042123545" lon="7.5578586571"><ele></ele><time>2014-9-28T12:20:25Z</time></trkpt>
<trkpt lat="46.2043330539" lon="7.5579586532"><ele></ele><time>2014-9-28T12:20:28Z</time></trkpt>
<trkpt lat="46.2044115085" lon="7.5580196735"><ele></ele><time>2014-9-28T12:20:31Z</time></trkpt>
<trkpt lat="46.2044193875" lon="7.5580683723"><ele></ele><time>2014-9-28T12:20:34Z</time></trkpt>
<trkpt lat="46.2044571061" lon="7.5581148081"><ele></ele><time>2014-9-28T12:20:37Z</time></trkpt>
<trkpt lat="46.2045788113" lon="7.5581743196"><ele></ele><time>2014-9-28T12:20:40Z</time></trkpt>
<trkpt lat="46.2046906259" lon="7.5582357589"><ele></ele><time>2014-9-28T12:20:43Z</time></trkpt>
<trkpt lat="46.2047787197" lon="7.5582511816"><ele></ele><time>2014-9-28T12:20:46Z</time></trkpt>
<trkpt lat="46.2048685737" lon="7.5582314841"><ele></ele><time>2014-9-28T12:20:49Z</time></trkpt>
<trkpt lat="46.2049296778" lon="7.5582293049"><ele></ele><time>2014-9-28T12:20:52Z</time></trkpt>
<trkpt lat="46.2049968168" lon="7.5582396984"><ele></ele><time>2014-9-28T12:20:55Z</time></trkpt>
<trkpt lat="46.2050862517" lon="7.5582356751"><ele></ele><time>2014-9-28T12:20:58Z</time></trkpt>
<trkpt lat="46.2051546481" lon="7.5582697894"><ele></ele><time>2014-9-28T12:21:1Z</time></trkpt>
<trkpt lat="46.2052310910" lon="7.5582883973"><ele></ele><time>2014-9-28T12:21:4Z</time></trkpt>
<trkpt lat="46.2053319253" lon="7.5582676101"><ele></ele><time>2014-9-28T12:21:7Z</time></trkpt>
<trkpt lat="46.2054136489" lon="7.5582653470"><ele></ele><time>2014-9-28T12:21:10Z</time></trkpt>
<trkpt lat="46.2054237071" lon="7.5582620781"><ele></ele><time>2014-9-28T12:21:13Z</time></trkpt>
<trkpt lat="46.2054549716" lon="7.5582468230"><ele></ele><time>2014-9-28T12:21:16Z</time></trkpt>
<trkpt lat="46.2055284809" lon="7.5582160614"><ele></ele><time>2014-9-28T12:21:19Z</time></trkpt>
<trkpt lat="46.2056502700" lon="7.5582026504"><ele></ele><time>2014-9-28T12:21:22Z</time></trkpt>
<trkpt lat="46.2057413813" lon="7.5582062546"><ele></ele><time>2014-9-28T12:21:25Z</time></trkpt>
<trkpt lat="46.2057588995" lon="7.5581645966"><ele></ele><time>2014-9-28T12:21:28Z</time></trkpt>
<trkpt lat="46.2057848834" lon="7.5581537001"><ele></ele><time>2014-9-28T12:21:31Z</time></trkpt>
<trkpt lat="46.2059101090" lon="7.5581267942"><ele></ele><time>2014-9-28T12:21:34Z</time></trkpt>
<trkpt lat="46.2060227618" lon="7.5580849685"><ele></ele><time>2014-9-28T12:21:37Z</time></trkpt>
<trkpt lat="46.2061439641" lon="7.5580395386"><ele></ele><time>2014-9-28T12:21:40Z</time></trkpt>
<trkpt lat="46.2062269449" lon="7.5579760037"><ele></ele><time>2014-9-28T12:21:43Z</time></trkpt>
<trkpt lat="46.2062498275" lon="7.5579334237"><ele></ele><time>2014-9-28T12:21:46Z</time></trkpt>
<trkpt lat="46.2062967662" lon="7.5578808691"><ele></ele><time>2014-9-28T12:21:49Z</time></trkpt>
<trkpt lat="46.2063047290" lon="7.5578753371"><ele></ele><time>2014-9-28T12:21:52Z</time></trkpt>
<trkpt lat="46.2064017914" lon="7.5576618500"><ele></ele><time>2014-9-28T12:21:55Z</time></trkpt>
<trkpt lat="46.2064074073" lon="7.5576310884"><ele></ele><time>2014-9-28T12:21:58Z</time></trkpt>
<trkpt lat="46.2064070720" lon="7.5576115586"><ele></ele><time>2014-9-28T12:22:1Z</time></trkpt>
<trkpt lat="46.2064512447" lon="7.5575124845"><ele></ele><time>2014-9-28T12:22:4Z</time></trkpt>
<trkpt lat="46.2065100018" lon="7.5572950579"><ele></ele><time>2014-9-28T12:22:7Z</time></trkpt>
<trkpt lat="46.2065566890" lon="7.5571754482"><ele></ele><time>2014-9-28T12:22:10Z</time></trkpt>
<trkpt lat="46.2066716887" lon="7.5569346361"><ele></ele><time>2014-9-28T12:22:13Z</time></trkpt>
<trkpt lat="46.2067070603" lon="7.5568705983"><ele></ele><time>2014-9-28T12:22:16Z</time></trkpt>
<trkpt lat="46.2067058031" lon="7.5568809081"><ele></ele><time>2014-9-28T12:22:19Z</time></trkpt>
<trkpt lat="46.2066980079" lon="7.5568775553"><ele></ele><time>2014-9-28T12:22:22Z</time></trkpt>
<trkpt lat="46.2066897098" lon="7.5568494760"><ele></ele><time>2014-9-28T12:22:25Z</time></trkpt>
<trkpt lat="46.2066952419" lon="7.5568458717"><ele></ele><time>2014-9-28T12:22:28Z</time></trkpt>
<trkpt lat="46.2066980079" lon="7.5568393338"><ele></ele><time>2014-9-28T12:22:31Z</time></trkpt>
<trkpt lat="46.2066921405" lon="7.5568372384"><ele></ele><time>2014-9-28T12:22:34Z</time></trkpt>
<trkpt lat="46.2066868600" lon="7.5568457041"><ele></ele><time>2014-9-28T12:22:37Z</time></trkpt>
<trkpt lat="46.2066840101" lon="7.5568468776"><ele></ele><time>2014-9-28T12:22:40Z</time></trkpt>
<trkpt lat="46.2066846807" lon="7.5568509009"><ele></ele><time>2014-9-28T12:22:43Z</time></trkpt>
<trkpt lat="46.2066875305" lon="7.5568511523"><ele></ele><time>2014-9-28T12:22:46Z</time></trkpt>
<trkpt lat="46.2066897936" lon="7.5568566844"><ele></ele><time>2014-9-28T12:22:49Z</time></trkpt>
<trkpt lat="46.2066931464" lon="7.5568592828"><ele></ele><time>2014-9-28T12:22:52Z</time></trkpt>
<trkpt lat="46.2066903803" lon="7.5568542536"><ele></ele><time>2014-9-28T12:22:55Z</time></trkpt>
<trkpt lat="46.2066989299" lon="7.5568534154"><ele></ele><time>2014-9-28T12:22:58Z</time></trkpt>
<trkpt lat="46.2067032885" lon="7.5568494760"><ele></ele><time>2014-9-28T12:23:1Z</time></trkpt>
<trkpt lat="46.2067030370" lon="7.5568385795"><ele></ele><time>2014-9-28T12:23:4Z</time></trkpt>
<trkpt lat="46.2067001872" lon="7.5568431057"><ele></ele><time>2014-9-28T12:23:7Z</time></trkpt>
<trkpt lat="46.2067280989" lon="7.5568387471"><ele></ele><time>2014-9-28T12:23:10Z</time></trkpt>
<trkpt lat="46.2067509815" lon="7.5568566006"><ele></ele><time>2014-9-28T12:23:13Z</time></trkpt>
<trkpt lat="46.2067477964" lon="7.5568705145"><ele></ele><time>2014-9-28T12:23:16Z</time></trkpt>
<trkpt lat="46.2067450304" lon="7.5568817463"><ele></ele><time>2014-9-28T12:23:19Z</time></trkpt>
<trkpt lat="46.2067467067" lon="7.5568732806"><ele></ele><time>2014-9-28T12:23:22Z</time></trkpt>
<trkpt lat="46.2067838386" lon="7.5567908026"><ele></ele><time>2014-9-28T12:23:25Z</time></trkpt>
<trkpt lat="46.2068482954" lon="7.5567506533"><ele></ele><time>2014-9-28T12:23:28Z</time></trkpt>
<trkpt lat="46.2070539873" lon="7.5565962587"><ele></ele><time>2014-9-28T12:23:31Z</time></trkpt>
<trkpt lat="46.2071181927" lon="7.5564615615"><ele></ele><time>2014-9-28T12:23:34Z</time></trkpt>
<trkpt lat="46.2071201205" lon="7.5564562809"><ele></ele><time>2014-9-28T12:23:37Z</time></trkpt>
<trkpt lat="46.2071710825" lon="7.5564213283"><ele></ele><time>2014-9-28T12:23:40Z</time></trkpt>
<trkpt lat="46.2072505429" lon="7.5563659240"><ele></ele><time>2014-9-28T12:23:43Z</time></trkpt>
<trkpt lat="46.2072685640" lon="7.5563899800"><ele></ele><time>2014-9-28T12:23:46Z</time></trkpt>
<trkpt lat="46.2072849926" lon="7.5563767366"><ele></ele><time>2014-9-28T12:23:49Z</time></trkpt>
<trkpt lat="46.2073926162" lon="7.5562869664"><ele></ele><time>2014-9-28T12:23:52Z</time></trkpt>
<trkpt lat="46.2074200250" lon="7.5562766567"><ele></ele><time>2014-9-28T12:23:55Z</time></trkpt>
<trkpt lat="46.2075020000" lon="7.5562436320"><ele></ele><time>2014-9-28T12:23:58Z</time></trkpt>
<trkpt lat="46.2075555604" lon="7.5562030636"><ele></ele><time>2014-9-28T12:24:1Z</time></trkpt>
<trkpt lat="46.2076880783" lon="7.5561649259"><ele></ele><time>2014-9-28T12:24:4Z</time></trkpt>
<trkpt lat="46.2078734022" lon="7.5560583919"><ele></ele><time>2014-9-28T12:24:7Z</time></trkpt>
<trkpt lat="46.2079462409" lon="7.5559382793"><ele></ele><time>2014-9-28T12:24:10Z</time></trkpt>
<trkpt lat="46.2079739012" lon="7.5559164863"><ele></ele><time>2014-9-28T12:24:13Z</time></trkpt>
<trkpt lat="46.2080192473" lon="7.5558690447"><ele></ele><time>2014-9-28T12:24:16Z</time></trkpt>
<trkpt lat="46.2080246117" lon="7.5558646023"><ele></ele><time>2014-9-28T12:24:19Z</time></trkpt>
<trkpt lat="46.2080411240" lon="7.5558559690"><ele></ele><time>2014-9-28T12:24:22Z</time></trkpt>
<trkpt lat="46.2081655953" lon="7.5558120478"><ele></ele><time>2014-9-28T12:24:25Z</time></trkpt>
<trkpt lat="46.2082981970" lon="7.5557568949"><ele></ele><time>2014-9-28T12:24:28Z</time></trkpt>
<trkpt lat="46.2084932439" lon="7.5556508638"><ele></ele><time>2014-9-28T12:24:31Z</time></trkpt>
<trkpt lat="46.2084985245" lon="7.5556570664"><ele></ele><time>2014-9-28T12:24:34Z</time></trkpt>
<trkpt lat="46.2085650768" lon="7.5556549709"><ele></ele><time>2014-9-28T12:24:37Z</time></trkpt>
<trkpt lat="46.2087136880" lon="7.5555204414"><ele></ele><time>2014-9-28T12:24:40Z</time></trkpt>
<trkpt lat="46.2089403346" lon="7.5553834811"><ele></ele><time>2014-9-28T12:24:43Z</time></trkpt>
<trkpt lat="46.2089972477" lon="7.5553861633"><ele></ele><time>2014-9-28T12:24:46Z</time></trkpt>
<trkpt lat="46.2090690807" lon="7.5553764403"><ele></ele><time>2014-9-28T12:24:49Z</time></trkpt>
<trkpt lat="46.2090670690" lon="7.5553730037"><ele></ele><time>2014-9-28T12:24:52Z</time></trkpt>
<trkpt lat="46.2090749480" lon="7.5553789549"><ele></ele><time>2014-9-28T12:24:55Z</time></trkpt>
<trkpt lat="46.2091850024" lon="7.5554492790"><ele></ele><time>2014-9-28T12:24:58Z</time></trkpt>
<trkpt lat="46.2093196157" lon="7.5554357842"><ele></ele><time>2014-9-28T12:25:1Z</time></trkpt>
<trkpt lat="46.2093285006" lon="7.5554330181"><ele></ele><time>2014-9-28T12:25:4Z</time></trkpt>
<trkpt lat="46.2093820609" lon="7.5553863309"><ele></ele><time>2014-9-28T12:25:7Z</time></trkpt>
<trkpt lat="46.2093904428" lon="7.5553917792"><ele></ele><time>2014-9-28T12:25:10Z</time></trkpt>
<trkpt lat="46.2093440909" lon="7.5554469321"><ele></ele><time>2014-9-28T12:25:13Z</time></trkpt>
<trkpt lat="46.2092926260" lon="7.5555212796"><ele></ele><time>2014-9-28T12:25:16Z</time></trkpt>
<trkpt lat="46.2090787198" lon="7.5558143947"><ele></ele><time>2014-9-28T12:25:19Z</time></trkpt>
<trkpt lat="46.2090777978" lon="7.5560331624"><ele></ele><time>2014-9-28T12:25:22Z</time></trkpt>
<trkpt lat="46.2091539893" lon="7.5563791674"><ele></ele><time>2014-9-28T12:25:25Z</time></trkpt>
<trkpt lat="46.2091909535" lon="7.5567152817"><ele></ele><time>2014-9-28T12:25:28Z</time></trkpt>
<trkpt lat="46.2090930529" lon="7.5569717679"><ele></ele><time>2014-9-28T12:25:31Z</time></trkpt>
<trkpt lat="46.2090330385" lon="7.5573933776"><ele></ele><time>2014-9-28T12:25:34Z</time></trkpt>
<trkpt lat="46.2088939827" lon="7.5578005705"><ele></ele><time>2014-9-28T12:25:37Z</time></trkpt>
<trkpt lat="46.2087965012" lon="7.5580926798"><ele></ele><time>2014-9-28T12:25:40Z</time></trkpt>
<trkpt lat="46.2085255980" lon="7.5584731344"><ele></ele><time>2014-9-28T12:25:43Z</time></trkpt>
<trkpt lat="46.2083435431" lon="7.5587936584"><ele></ele><time>2014-9-28T12:25:46Z</time></trkpt>
<trkpt lat="46.2082518451" lon="7.5592456944"><ele></ele><time>2014-9-28T12:25:49Z</time></trkpt>
<trkpt lat="46.2082449719" lon="7.5593593530"><ele></ele><time>2014-9-28T12:25:52Z</time></trkpt>
<trkpt lat="46.2083152961" lon="7.5594390649"><ele></ele><time>2014-9-28T12:25:55Z</time></trkpt>
<trkpt lat="46.2083416991" lon="7.5594500452"><ele></ele><time>2014-9-28T12:25:58Z</time></trkpt>
<trkpt lat="46.2083642464" lon="7.5594404899"><ele></ele><time>2014-9-28T12:26:1Z</time></trkpt>
<trkpt lat="46.2083416991" lon="7.5594533142"><ele></ele><time>2014-9-28T12:26:4Z</time></trkpt>
<trkpt lat="46.2083355803" lon="7.5594653841"><ele></ele><time>2014-9-28T12:26:7Z</time></trkpt>
<trkpt lat="46.2083307188" lon="7.5594696589"><ele></ele><time>2014-9-28T12:26:10Z</time></trkpt>
<trkpt lat="46.2084420305" lon="7.5594996661"><ele></ele><time>2014-9-28T12:26:13Z</time></trkpt>
<trkpt lat="46.2084979378" lon="7.5594870094"><ele></ele><time>2014-9-28T12:26:16Z</time></trkpt>
<trkpt lat="46.2085448764" lon="7.5594877638"><ele></ele><time>2014-9-28T12:26:19Z</time></trkpt>
<trkpt lat="46.2085354887" lon="7.5594624504"><ele></ele><time>2014-9-28T12:26:22Z</time></trkpt>
<trkpt lat="46.2084499933" lon="7.5595160108"><ele></ele><time>2014-9-28T12:26:25Z</time></trkpt>
<trkpt lat="46.2083566189" lon="7.5595124066"><ele></ele><time>2014-9-28T12:26:28Z</time></trkpt>
<trkpt lat="46.2083380949" lon="7.5595100597"><ele></ele><time>2014-9-28T12:26:31Z</time></trkpt>
<trkpt lat="46.2083302997" lon="7.5594785437"><ele></ele><time>2014-9-28T12:26:34Z</time></trkpt>
<trkpt lat="46.2083005439" lon="7.5594524760"><ele></ele><time>2014-9-28T12:26:37Z</time></trkpt>
<trkpt lat="46.2082263641" lon="7.5594424177"><ele></ele><time>2014-9-28T12:26:40Z</time></trkpt>
<trkpt lat="46.2082680222" lon="7.5593321119"><ele></ele><time>2014-9-28T12:26:43Z</time></trkpt>
<trkpt lat="46.2082786672" lon="7.5591891166"><ele></ele><time>2014-9-28T12:26:46Z</time></trkpt>
<trkpt lat="46.2083064113" lon="7.5590149406"><ele></ele><time>2014-9-28T12:26:49Z</time></trkpt>
<trkpt lat="46.2083402742" lon="7.5588933192"><ele></ele><time>2014-9-28T12:26:52Z</time></trkpt>
<trkpt lat="46.2083464768" lon="7.5588632282"><ele></ele><time>2014-9-28T12:26:55Z</time></trkpt>
<trkpt lat="46.2083541043" lon="7.5588412676"><ele></ele><time>2014-9-28T12:26:58Z</time></trkpt>
<trkpt lat="46.2083866261" lon="7.5587244239"><ele></ele><time>2014-9-28T12:27:1Z</time></trkpt>
<trkpt lat="46.2084117718" lon="7.5586206559"><ele></ele><time>2014-9-28T12:27:4Z</time></trkpt>
<trkpt lat="46.2084567826" lon="7.5585396867"><ele></ele><time>2014-9-28T12:27:7Z</time></trkpt>
<trkpt lat="46.2085290346" lon="7.5584617350"><ele></ele><time>2014-9-28T12:27:10Z</time></trkpt>
<trkpt lat="46.2085977662" lon="7.5584128685"><ele></ele><time>2014-9-28T12:27:13Z</time></trkpt>
<trkpt lat="46.2086597923" lon="7.5583466515"><ele></ele><time>2014-9-28T12:27:16Z</time></trkpt>
<trkpt lat="46.2086998578" lon="7.5582925044"><ele></ele><time>2014-9-28T12:27:19Z</time></trkpt>
<trkpt lat="46.2087528314" lon="7.5581946876"><ele></ele><time>2014-9-28T12:27:22Z</time></trkpt>
<trkpt lat="46.2088047992" lon="7.5581226870"><ele></ele><time>2014-9-28T12:27:25Z</time></trkpt>
<trkpt lat="46.2088439427" lon="7.5580088608"><ele></ele><time>2014-9-28T12:27:28Z</time></trkpt>
<trkpt lat="46.2088645622" lon="7.5579512771"><ele></ele><time>2014-9-28T12:27:31Z</time></trkpt>
<trkpt lat="46.2088681664" lon="7.5579370279"><ele></ele><time>2014-9-28T12:27:34Z</time></trkpt>
<trkpt lat="46.2088832539" lon="7.5577879138"><ele></ele><time>2014-9-28T12:27:37Z</time></trkpt>
<trkpt lat="46.2089653965" lon="7.5576883368"><ele></ele><time>2014-9-28T12:27:40Z</time></trkpt>
<trkpt lat="46.2090224773" lon="7.5575389713"><ele></ele><time>2014-9-28T12:27:43Z</time></trkpt>
<trkpt lat="46.2090533227" lon="7.5574169308"><ele></ele><time>2014-9-28T12:27:46Z</time></trkpt>
<trkpt lat="46.2090762891" lon="7.5573527254"><ele></ele><time>2014-9-28T12:27:49Z</time></trkpt>
<trkpt lat="46.2090963218" lon="7.5572551601"><ele></ele><time>2014-9-28T12:27:52Z</time></trkpt>
<trkpt lat="46.2091111578" lon="7.5570950657"><ele></ele><time>2014-9-28T12:27:55Z</time></trkpt>
<trkpt lat="46.2091249041" lon="7.5569931418"><ele></ele><time>2014-9-28T12:27:58Z</time></trkpt>
<trkpt lat="46.2091625389" lon="7.5569011085"><ele></ele><time>2014-9-28T12:28:1Z</time></trkpt>
<trkpt lat="46.2091951445" lon="7.5568198878"><ele></ele><time>2014-9-28T12:28:4Z</time></trkpt>
<trkpt lat="46.2092026044" lon="7.5567171257"><ele></ele><time>2014-9-28T12:28:7Z</time></trkpt>
<trkpt lat="46.2092130817" lon="7.5566065684"><ele></ele><time>2014-9-28T12:28:10Z</time></trkpt>
<trkpt lat="46.2092186976" lon="7.5565779023"><ele></ele><time>2014-9-28T12:28:13Z</time></trkpt>
<trkpt lat="46.2092046998" lon="7.5565224979"><ele></ele><time>2014-9-28T12:28:16Z</time></trkpt>
<trkpt lat="46.2091238145" lon="7.5563093461"><ele></ele><time>2014-9-28T12:28:19Z</time></trkpt>
<trkpt lat="46.2090631295" lon="7.5560609903"><ele></ele><time>2014-9-28T12:28:22Z</time></trkpt>
<trkpt lat="46.2090545800" lon="7.5559081882"><ele></ele><time>2014-9-28T12:28:25Z</time></trkpt>
<trkpt lat="46.2091347110" lon="7.5557316653"><ele></ele><time>2014-9-28T12:28:28Z</time></trkpt>
<trkpt lat="46.2091807276" lon="7.5557061005"><ele></ele><time>2014-9-28T12:28:31Z</time></trkpt>
<trkpt lat="46.2093134131" lon="7.5555528793"><ele></ele><time>2014-9-28T12:28:34Z</time></trkpt>
<trkpt lat="46.2093891017" lon="7.5554284081"><ele></ele><time>2014-9-28T12:28:37Z</time></trkpt>
<trkpt lat="46.2093893532" lon="7.5554033462"><ele></ele><time>2014-9-28T12:28:40Z</time></trkpt>
<trkpt lat="46.2093742657" lon="7.5554135721"><ele></ele><time>2014-9-28T12:28:43Z</time></trkpt>
<trkpt lat="46.2092798855" lon="7.5554419030"><ele></ele><time>2014-9-28T12:28:46Z</time></trkpt>
<trkpt lat="46.2092595175" lon="7.5554345269"><ele></ele><time>2014-9-28T12:28:49Z</time></trkpt>
<trkpt lat="46.2091850024" lon="7.5554382149"><ele></ele><time>2014-9-28T12:28:52Z</time></trkpt>
<trkpt lat="46.2091078050" lon="7.5554283243"><ele></ele><time>2014-9-28T12:28:55Z</time></trkpt>
<trkpt lat="46.2090990040" lon="7.5553487800"><ele></ele><time>2014-9-28T12:28:58Z</time></trkpt>
<trkpt lat="46.2092205416" lon="7.5552243926"><ele></ele><time>2014-9-28T12:29:1Z</time></trkpt>
<trkpt lat="46.2092499621" lon="7.5551108178"><ele></ele><time>2014-9-28T12:29:4Z</time></trkpt>
<trkpt lat="46.2092488725" lon="7.5550778769"><ele></ele><time>2014-9-28T12:29:7Z</time></trkpt>
<trkpt lat="46.2092756107" lon="7.5549680740"><ele></ele><time>2014-9-28T12:29:10Z</time></trkpt>
<trkpt lat="46.2092782930" lon="7.5549561717"><ele></ele><time>2014-9-28T12:29:13Z</time></trkpt>
<trkpt lat="46.2093535624" lon="7.5548431836"><ele></ele><time>2014-9-28T12:29:16Z</time></trkpt>
<trkpt lat="46.2094128225" lon="7.5547873601"><ele></ele><time>2014-9-28T12:29:19Z</time></trkpt>
<trkpt lat="46.2094828952" lon="7.5546855200"><ele></ele><time>2014-9-28T12:29:22Z</time></trkpt>
<trkpt lat="46.2095340248" lon="7.5545594562"><ele></ele><time>2014-9-28T12:29:25Z</time></trkpt>
<trkpt lat="46.2095795386" lon="7.5544841867"><ele></ele><time>2014-9-28T12:29:28Z</time></trkpt>
<trkpt lat="46.2096050195" lon="7.5543732103"><ele></ele><time>2014-9-28T12:29:31Z</time></trkpt>
<trkpt lat="46.2096785288" lon="7.5542640779"><ele></ele><time>2014-9-28T12:29:34Z</time></trkpt>
<trkpt lat="46.2096455041" lon="7.5540006347"><ele></ele><time>2014-9-28T12:29:37Z</time></trkpt>
<trkpt lat="46.2095806282" lon="7.5537056755"><ele></ele><time>2014-9-28T12:29:40Z</time></trkpt>
<trkpt lat="46.2095730007" lon="7.5535744149"><ele></ele><time>2014-9-28T12:29:43Z</time></trkpt>
<trkpt lat="46.2095552310" lon="7.5532778632"><ele></ele><time>2014-9-28T12:29:46Z</time></trkpt>
<trkpt lat="46.2095718272" lon="7.5530118216"><ele></ele><time>2014-9-28T12:29:49Z</time></trkpt>
<trkpt lat="46.2095263973" lon="7.5527042896"><ele></ele><time>2014-9-28T12:29:52Z</time></trkpt>
<trkpt lat="46.2094293348" lon="7.5524043851"><ele></ele><time>2014-9-28T12:29:55Z</time></trkpt>
<trkpt lat="46.2092644628" lon="7.5521294586"><ele></ele><time>2014-9-28T12:29:58Z</time></trkpt>
<trkpt lat="46.2091304362" lon="7.5518287998"><ele></ele><time>2014-9-28T12:30:1Z</time></trkpt>
<trkpt lat="46.2091322802" lon="7.5516522769"><ele></ele><time>2014-9-28T12:30:4Z</time></trkpt>
<trkpt lat="46.2092195358" lon="7.5516062602"><ele></ele><time>2014-9-28T12:30:7Z</time></trkpt>
<trkpt lat="46.2093705777" lon="7.5515260454"><ele></ele><time>2014-9-28T12:30:10Z</time></trkpt>
<trkpt lat="46.2093783729" lon="7.5515156519"><ele></ele><time>2014-9-28T12:30:13Z</time></trkpt>
<trkpt lat="46.2094206177" lon="7.5514672045"><ele></ele><time>2014-9-28T12:30:16Z</time></trkpt>
<trkpt lat="46.2096538022" lon="7.5512553100"><ele></ele><time>2014-9-28T12:30:19Z</time></trkpt>
<trkpt lat="46.2098824605" lon="7.5509473588"><ele></ele><time>2014-9-28T12:30:22Z</time></trkpt>
<trkpt lat="46.2100779265" lon="7.5506506395"><ele></ele><time>2014-9-28T12:30:25Z</time></trkpt>
<trkpt lat="46.2102246936" lon="7.5505419262"><ele></ele><time>2014-9-28T12:30:28Z</time></trkpt>
<trkpt lat="46.2104889750" lon="7.5504813250"><ele></ele><time>2014-9-28T12:30:31Z</time></trkpt>
<trkpt lat="46.2107274402" lon="7.5505249109"><ele></ele><time>2014-9-28T12:30:34Z</time></trkpt>
<trkpt lat="46.2109529134" lon="7.5506306905"><ele></ele><time>2014-9-28T12:30:37Z</time></trkpt>
<trkpt lat="46.2111685798" lon="7.5507561676"><ele></ele><time>2014-9-28T12:30:40Z</time></trkpt>
<trkpt lat="46.2114347052" lon="7.5509014260"><ele></ele><time>2014-9-28T12:30:43Z</time></trkpt>
<trkpt lat="46.2115689833" lon="7.5507455226"><ele></ele><time>2014-9-28T12:30:46Z</time></trkpt>
<trkpt lat="46.2117127329" lon="7.5503384974"><ele></ele><time>2014-9-28T12:30:49Z</time></trkpt>
<trkpt lat="46.2119668722" lon="7.5502775609"><ele></ele><time>2014-9-28T12:30:52Z</time></trkpt>
<trkpt lat="46.2121898308" lon="7.5501345657"><ele></ele><time>2014-9-28T12:30:55Z</time></trkpt>
<trkpt lat="46.2124075927" lon="7.5500701088"><ele></ele><time>2014-9-28T12:30:58Z</time></trkpt>
<trkpt lat="46.2127175555" lon="7.5502318796"><ele></ele><time>2014-9-28T12:31:1Z</time></trkpt>
<trkpt lat="46.2128894683" lon="7.5502923131"><ele></ele><time>2014-9-28T12:31:4Z</time></trkpt>
<trkpt lat="46.2130328827" lon="7.5502634794"><ele></ele><time>2014-9-28T12:31:7Z</time></trkpt>
<trkpt lat="46.2133002654" lon="7.5503817480"><ele></ele><time>2014-9-28T12:31:10Z</time></trkpt>
<trkpt lat="46.2135296781" lon="7.5506581832"><ele></ele><time>2014-9-28T12:31:13Z</time></trkpt>
<trkpt lat="46.2136153411" lon="7.5507835764"><ele></ele><time>2014-9-28T12:31:16Z</time></trkpt>
<trkpt lat="46.2137158401" lon="7.5508932117"><ele></ele><time>2014-9-28T12:31:19Z</time></trkpt>
<trkpt lat="46.2140671257" lon="7.5510423258"><ele></ele><time>2014-9-28T12:31:22Z</time></trkpt>
<trkpt lat="46.2142112944" lon="7.5511117280"><ele></ele><time>2014-9-28T12:31:25Z</time></trkpt>
<trkpt lat="46.2145448942" lon="7.5512672123"><ele></ele><time>2014-9-28T12:31:28Z</time></trkpt>
<trkpt lat="46.2149154581" lon="7.5512981415"><ele></ele><time>2014-9-28T12:31:31Z</time></trkpt>
<trkpt lat="46.2152170390" lon="7.5511626061"><ele></ele><time>2014-9-28T12:31:34Z</time></trkpt>
<trkpt lat="46.2153369002" lon="7.5510460138"><ele></ele><time>2014-9-28T12:31:37Z</time></trkpt>
<trkpt lat="46.2154158577" lon="7.5509805512"><ele></ele><time>2014-9-28T12:31:40Z</time></trkpt>
<trkpt lat="46.2155155186" lon="7.5509233028"><ele></ele><time>2014-9-28T12:31:43Z</time></trkpt>
<trkpt lat="46.2156609446" lon="7.5508171041"><ele></ele><time>2014-9-28T12:31:46Z</time></trkpt>
<trkpt lat="46.2157676462" lon="7.5506572612"><ele></ele><time>2014-9-28T12:31:49Z</time></trkpt>
<trkpt lat="46.2158899382" lon="7.5503926445"><ele></ele><time>2014-9-28T12:31:52Z</time></trkpt>
<trkpt lat="46.2159320153" lon="7.5502829254"><ele></ele><time>2014-9-28T12:31:55Z</time></trkpt>
<trkpt lat="46.2160776928" lon="7.5501507428"><ele></ele><time>2014-9-28T12:31:58Z</time></trkpt>
<trkpt lat="46.2163205165" lon="7.5499499962"><ele></ele><time>2014-9-28T12:32:1Z</time></trkpt>
<trkpt lat="46.2165280525" lon="7.5498170592"><ele></ele><time>2014-9-28T12:32:4Z</time></trkpt>
<trkpt lat="46.2167684454" lon="7.5495624170"><ele></ele><time>2014-9-28T12:32:7Z</time></trkpt>
<trkpt lat="46.2168536056" lon="7.5494919252"><ele></ele><time>2014-9-28T12:32:10Z</time></trkpt>
<trkpt lat="46.2169497460" lon="7.5494570564"><ele></ele><time>2014-9-28T12:32:13Z</time></trkpt>
<trkpt lat="46.2171794940" lon="7.5492962077"><ele></ele><time>2014-9-28T12:32:16Z</time></trkpt>
<trkpt lat="46.2177777942" lon="7.5490766019"><ele></ele><time>2014-9-28T12:32:19Z</time></trkpt>
<trkpt lat="46.2178284209" lon="7.5490707345"><ele></ele><time>2014-9-28T12:32:22Z</time></trkpt>
<trkpt lat="46.2179751880" lon="7.5490918569"><ele></ele><time>2014-9-28T12:32:25Z</time></trkpt>
<trkpt lat="46.2184638530" lon="7.5490051042"><ele></ele><time>2014-9-28T12:32:28Z</time></trkpt>
<trkpt lat="46.2186524458" lon="7.5489678886"><ele></ele><time>2014-9-28T12:32:31Z</time></trkpt>
<trkpt lat="46.2188712135" lon="7.5489462633"><ele></ele><time>2014-9-28T12:32:34Z</time></trkpt>
<trkpt lat="46.2193980161" lon="7.5490952935"><ele></ele><time>2014-9-28T12:32:37Z</time></trkpt>
<trkpt lat="46.2194569409" lon="7.5491221156"><ele></ele><time>2014-9-28T12:32:40Z</time></trkpt>
<trkpt lat="46.2197178695" lon="7.5492886640"><ele></ele><time>2014-9-28T12:32:43Z</time></trkpt>
<trkpt lat="46.2199373916" lon="7.5493009016"><ele></ele><time>2014-9-28T12:32:46Z</time></trkpt>
<trkpt lat="46.2202015892" lon="7.5492309965"><ele></ele><time>2014-9-28T12:32:49Z</time></trkpt>
<trkpt lat="46.2204954587" lon="7.5492798630"><ele></ele><time>2014-9-28T12:32:52Z</time></trkpt>
<trkpt lat="46.2207827065" lon="7.5493553840"><ele></ele><time>2014-9-28T12:32:55Z</time></trkpt>
<trkpt lat="46.2210495025" lon="7.5491912663"><ele></ele><time>2014-9-28T12:32:58Z</time></trkpt>
<trkpt lat="46.2212110218" lon="7.5491049327"><ele></ele><time>2014-9-28T12:33:1Z</time></trkpt>
<trkpt lat="46.2214588746" lon="7.5489220396"><ele></ele><time>2014-9-28T12:33:4Z</time></trkpt>
<trkpt lat="46.2218987569" lon="7.5485560019"><ele></ele><time>2014-9-28T12:33:7Z</time></trkpt>
<trkpt lat="46.2219765410" lon="7.5484343804"><ele></ele><time>2014-9-28T12:33:10Z</time></trkpt>
<trkpt lat="46.2223427463" lon="7.5481232442"><ele></ele><time>2014-9-28T12:33:13Z</time></trkpt>
<trkpt lat="46.2223848235" lon="7.5480831787"><ele></ele><time>2014-9-28T12:33:16Z</time></trkpt>
<trkpt lat="46.2225880008" lon="7.5476591382"><ele></ele><time>2014-9-28T12:33:19Z</time></trkpt>
<trkpt lat="46.2229992170" lon="7.5472562201"><ele></ele><time>2014-9-28T12:33:22Z</time></trkpt>
<trkpt lat="46.2235526741" lon="7.5469756778"><ele></ele><time>2014-9-28T12:33:25Z</time></trkpt>
<trkpt lat="46.2240731902" lon="7.5469791144"><ele></ele><time>2014-9-28T12:33:28Z</time></trkpt>
<trkpt lat="46.2244143337" lon="7.5468134042"><ele></ele><time>2014-9-28T12:33:31Z</time></trkpt>
<trkpt lat="46.2246568222" lon="7.5463580154"><ele></ele><time>2014-9-28T12:33:34Z</time></trkpt>
<trkpt lat="46.2247513700" lon="7.5460437778"><ele></ele><time>2014-9-28T12:33:37Z</time></trkpt>
<trkpt lat="46.2249133084" lon="7.5456971023"><ele></ele><time>2014-9-28T12:33:40Z</time></trkpt>
<trkpt lat="46.2250845507" lon="7.5453267060"><ele></ele><time>2014-9-28T12:33:43Z</time></trkpt>
<trkpt lat="46.2252409570" lon="7.5452329963"><ele></ele><time>2014-9-28T12:33:46Z</time></trkpt>
<trkpt lat="46.2254028954" lon="7.5452135503"><ele></ele><time>2014-9-28T12:33:49Z</time></trkpt>
<trkpt lat="46.2256881315" lon="7.5452473294"><ele></ele><time>2014-9-28T12:33:52Z</time></trkpt>
<trkpt lat="46.2261323724" lon="7.5452914182"><ele></ele><time>2014-9-28T12:33:55Z</time></trkpt>
<trkpt lat="46.2263819855" lon="7.5453088526"><ele></ele><time>2014-9-28T12:33:58Z</time></trkpt>
<trkpt lat="46.2271051761" lon="7.5456214976"><ele></ele><time>2014-9-28T12:34:1Z</time></trkpt>
<trkpt lat="46.2271692138" lon="7.5456656702"><ele></ele><time>2014-9-28T12:34:4Z</time></trkpt>
<trkpt lat="46.2274858821" lon="7.5456795841"><ele></ele><time>2014-9-28T12:34:7Z</time></trkpt>
<trkpt lat="46.2276520114" lon="7.5456200726"><ele></ele><time>2014-9-28T12:34:10Z</time></trkpt>
<trkpt lat="46.2278980203" lon="7.5456300471"><ele></ele><time>2014-9-28T12:34:13Z</time></trkpt>
<trkpt lat="46.2281345576" lon="7.5455546938"><ele></ele><time>2014-9-28T12:34:16Z</time></trkpt>
<trkpt lat="46.2282361463" lon="7.5454714615"><ele></ele><time>2014-9-28T12:34:19Z</time></trkpt>
<trkpt lat="46.2284934707" lon="7.5455240998"><ele></ele><time>2014-9-28T12:34:22Z</time></trkpt>
<trkpt lat="46.2286075484" lon="7.5455976091"><ele></ele><time>2014-9-28T12:34:25Z</time></trkpt>
<trkpt lat="46.2288679741" lon="7.5456220005"><ele></ele><time>2014-9-28T12:34:28Z</time></trkpt>
<trkpt lat="46.2292112131" lon="7.5454989541"><ele></ele><time>2014-9-28T12:34:31Z</time></trkpt>
<trkpt lat="46.2295739818" lon="7.5455045700"><ele></ele><time>2014-9-28T12:34:34Z</time></trkpt>
<trkpt lat="46.2300211564" lon="7.5454339106"><ele></ele><time>2014-9-28T12:34:37Z</time></trkpt>
<trkpt lat="46.2302630581" lon="7.5455515925"><ele></ele><time>2014-9-28T12:34:40Z</time></trkpt>
<trkpt lat="46.2305100728" lon="7.5456722919"><ele></ele><time>2014-9-28T12:34:43Z</time></trkpt>
<trkpt lat="46.2307110708" lon="7.5456504989"><ele></ele><time>2014-9-28T12:34:46Z</time></trkpt>
<trkpt lat="46.2310415693" lon="7.5453872234"><ele></ele><time>2014-9-28T12:34:49Z</time></trkpt>
<trkpt lat="46.2314775959" lon="7.5452065095"><ele></ele><time>2014-9-28T12:34:52Z</time></trkpt>
<trkpt lat="46.2315661926" lon="7.5451858062"><ele></ele><time>2014-9-28T12:34:55Z</time></trkpt>
<trkpt lat="46.2317953538" lon="7.5449826289"><ele></ele><time>2014-9-28T12:34:58Z</time></trkpt>
<trkpt lat="46.2318789214" lon="7.5448118895"><ele></ele><time>2014-9-28T12:35:1Z</time></trkpt>
<trkpt lat="46.2320872955" lon="7.5446344446"><ele></ele><time>2014-9-28T12:35:4Z</time></trkpt>
<trkpt lat="46.2322107609" lon="7.5445327722"><ele></ele><time>2014-9-28T12:35:7Z</time></trkpt>
<trkpt lat="46.2322351523" lon="7.5444796309"><ele></ele><time>2014-9-28T12:35:10Z</time></trkpt>
<trkpt lat="46.2322396785" lon="7.5444776192"><ele></ele><time>2014-9-28T12:35:13Z</time></trkpt>
<trkpt lat="46.2322467193" lon="7.5444839057"><ele></ele><time>2014-9-28T12:35:16Z</time></trkpt>
<trkpt lat="46.2322474737" lon="7.5444878452"><ele></ele><time>2014-9-28T12:35:19Z</time></trkpt>
<trkpt lat="46.2323759682" lon="7.5446748454"><ele></ele><time>2014-9-28T12:35:22Z</time></trkpt>
<trkpt lat="46.2328088097" lon="7.5450322498"><ele></ele><time>2014-9-28T12:35:25Z</time></trkpt>
<trkpt lat="46.2328899466" lon="7.5451083574"><ele></ele><time>2014-9-28T12:35:28Z</time></trkpt>
<trkpt lat="46.2329943012" lon="7.5453399494"><ele></ele><time>2014-9-28T12:35:31Z</time></trkpt>
<trkpt lat="46.2331139948" lon="7.5456489064"><ele></ele><time>2014-9-28T12:35:34Z</time></trkpt>
<trkpt lat="46.2331900187" lon="7.5456999522"><ele></ele><time>2014-9-28T12:35:37Z</time></trkpt>
<trkpt lat="46.2333918549" lon="7.5458794087"><ele></ele><time>2014-9-28T12:35:40Z</time></trkpt>
<trkpt lat="46.2336540408" lon="7.5459783152"><ele></ele><time>2014-9-28T12:35:43Z</time></trkpt>
<trkpt lat="46.2342723738" lon="7.5460301992"><ele></ele><time>2014-9-28T12:35:46Z</time></trkpt>
<trkpt lat="46.2344952486" lon="7.5459611323"><ele></ele><time>2014-9-28T12:35:49Z</time></trkpt>
<trkpt lat="46.2346128467" lon="7.5460817479"><ele></ele><time>2014-9-28T12:35:52Z</time></trkpt>
<trkpt lat="46.2345530838" lon="7.5461785588"><ele></ele><time>2014-9-28T12:35:55Z</time></trkpt>
<trkpt lat="46.2343559414" lon="7.5464588497"><ele></ele><time>2014-9-28T12:35:58Z</time></trkpt>
<trkpt lat="46.2342400197" lon="7.5467556529"><ele></ele><time>2014-9-28T12:36:1Z</time></trkpt>
<trkpt lat="46.2341369223" lon="7.5469795335"><ele></ele><time>2014-9-28T12:36:4Z</time></trkpt>
<trkpt lat="46.2340437993" lon="7.5472290628"><ele></ele><time>2014-9-28T12:36:7Z</time></trkpt>
<trkpt lat="46.2340122834" lon="7.5477712881"><ele></ele><time>2014-9-28T12:36:10Z</time></trkpt>
<trkpt lat="46.2340486608" lon="7.5479313824"><ele></ele><time>2014-9-28T12:36:13Z</time></trkpt>
<trkpt lat="46.2341414485" lon="7.5483307801"><ele></ele><time>2014-9-28T12:36:16Z</time></trkpt>
<trkpt lat="46.2344043888" lon="7.5483234879"><ele></ele><time>2014-9-28T12:36:19Z</time></trkpt>
<trkpt lat="46.2346332986" lon="7.5483032875"><ele></ele><time>2014-9-28T12:36:22Z</time></trkpt>
<trkpt lat="46.2352964748" lon="7.5485462788"><ele></ele><time>2014-9-28T12:36:25Z</time></trkpt>
<trkpt lat="46.2355404720" lon="7.5486138370"><ele></ele><time>2014-9-28T12:36:28Z</time></trkpt>
<trkpt lat="46.2357666995" lon="7.5488038547"><ele></ele><time>2014-9-28T12:36:31Z</time></trkpt>
<trkpt lat="46.2357075233" lon="7.5489204470"><ele></ele><time>2014-9-28T12:36:34Z</time></trkpt>
<trkpt lat="46.2356260512" lon="7.5490113068"><ele></ele><time>2014-9-28T12:36:37Z</time></trkpt>
<trkpt lat="46.2354170065" lon="7.5491163321"><ele></ele><time>2014-9-28T12:36:40Z</time></trkpt>
<trkpt lat="46.2354248017" lon="7.5492212735"><ele></ele><time>2014-9-28T12:36:43Z</time></trkpt>
<trkpt lat="46.2356919330" lon="7.5493059307"><ele></ele><time>2014-9-28T12:36:46Z</time></trkpt>
<trkpt lat="46.2359371874" lon="7.5491072796"><ele></ele><time>2014-9-28T12:36:49Z</time></trkpt>
<trkpt lat="46.2362427916" lon="7.5491962116"><ele></ele><time>2014-9-28T12:36:52Z</time></trkpt>
<trkpt lat="46.2367345579" lon="7.5490615983"><ele></ele><time>2014-9-28T12:36:55Z</time></trkpt>
<trkpt lat="46.2368081510" lon="7.5490186829"><ele></ele><time>2014-9-28T12:36:58Z</time></trkpt>
<trkpt lat="46.2371239811" lon="7.5489735045"><ele></ele><time>2014-9-28T12:37:1Z</time></trkpt>
<trkpt lat="46.2372492068" lon="7.5489554834"><ele></ele><time>2014-9-28T12:37:4Z</time></trkpt>
<trkpt lat="46.2376063596" lon="7.5489423238"><ele></ele><time>2014-9-28T12:37:7Z</time></trkpt>
<trkpt lat="46.2377593294" lon="7.5489021745"><ele></ele><time>2014-9-28T12:37:10Z</time></trkpt>
<trkpt lat="46.2378207687" lon="7.5486238115"><ele></ele><time>2014-9-28T12:37:13Z</time></trkpt>
<trkpt lat="46.2377164140" lon="7.5484199636"><ele></ele><time>2014-9-28T12:37:16Z</time></trkpt>
<trkpt lat="46.2375507038" lon="7.5483188778"><ele></ele><time>2014-9-28T12:37:19Z</time></trkpt>
<trkpt lat="46.2374081276" lon="7.5481157843"><ele></ele><time>2014-9-28T12:37:22Z</time></trkpt>
<trkpt lat="46.2372362986" lon="7.5474539492"><ele></ele><time>2014-9-28T12:37:25Z</time></trkpt>
<trkpt lat="46.2371861748" lon="7.5473050028"><ele></ele><time>2014-9-28T12:37:28Z</time></trkpt>
<trkpt lat="46.2371893600" lon="7.5467699859"><ele></ele><time>2014-9-28T12:37:31Z</time></trkpt>
<trkpt lat="46.2371192034" lon="7.5458339788"><ele></ele><time>2014-9-28T12:37:34Z</time></trkpt>
<trkpt lat="46.2369447760" lon="7.5449230336"><ele></ele><time>2014-9-28T12:37:37Z</time></trkpt>
<trkpt lat="46.2368421815" lon="7.5442762859"><ele></ele><time>2014-9-28T12:37:40Z</time></trkpt>
<trkpt lat="46.2366749626" lon="7.5437131897"><ele></ele><time>2014-9-28T12:37:43Z</time></trkpt>
<trkpt lat="46.2365509942" lon="7.5429903343"><ele></ele><time>2014-9-28T12:37:46Z</time></trkpt>
<trkpt lat="46.2364422809" lon="7.5424898509"><ele></ele><time>2014-9-28T12:37:49Z</time></trkpt>
<trkpt lat="46.2366067339" lon="7.5422333647"><ele></ele><time>2014-9-28T12:37:52Z</time></trkpt>
<trkpt lat="46.2366875354" lon="7.5421905331"><ele></ele><time>2014-9-28T12:37:55Z</time></trkpt>
<trkpt lat="46.2368679978" lon="7.5419098232"><ele></ele><time>2014-9-28T12:37:58Z</time></trkpt>
<trkpt lat="46.2368915509" lon="7.5417525787"><ele></ele><time>2014-9-28T12:38:1Z</time></trkpt>
<trkpt lat="46.2370315287" lon="7.5414198171"><ele></ele><time>2014-9-28T12:38:4Z</time></trkpt>
<trkpt lat="46.2371419184" lon="7.5410941802"><ele></ele><time>2014-9-28T12:38:7Z</time></trkpt>
<trkpt lat="46.2371734343" lon="7.5407194253"><ele></ele><time>2014-9-28T12:38:10Z</time></trkpt>
<trkpt lat="46.2372124940" lon="7.5403883401"><ele></ele><time>2014-9-28T12:38:13Z</time></trkpt>
<trkpt lat="46.2372053694" lon="7.5400501303"><ele></ele><time>2014-9-28T12:38:16Z</time></trkpt>
<trkpt lat="46.2371868454" lon="7.5399862602"><ele></ele><time>2014-9-28T12:38:19Z</time></trkpt>
<trkpt lat="46.2371803913" lon="7.5398734398"><ele></ele><time>2014-9-28T12:38:22Z</time></trkpt>
<trkpt lat="46.2372067943" lon="7.5397434365"><ele></ele><time>2014-9-28T12:38:25Z</time></trkpt>
<trkpt lat="46.2373299245" lon="7.5393943302"><ele></ele><time>2014-9-28T12:38:28Z</time></trkpt>
<trkpt lat="46.2373621110" lon="7.5392415281"><ele></ele><time>2014-9-28T12:38:31Z</time></trkpt>
<trkpt lat="46.2375171762" lon="7.5389643386"><ele></ele><time>2014-9-28T12:38:34Z</time></trkpt>
<trkpt lat="46.2376148254" lon="7.5387236103"><ele></ele><time>2014-9-28T12:38:37Z</time></trkpt>
<trkpt lat="46.2376963813" lon="7.5384993944"><ele></ele><time>2014-9-28T12:38:40Z</time></trkpt>
<trkpt lat="46.2377628498" lon="7.5383359473"><ele></ele><time>2014-9-28T12:38:43Z</time></trkpt>
<trkpt lat="46.2378599122" lon="7.5380095560"><ele></ele><time>2014-9-28T12:38:46Z</time></trkpt>
<trkpt lat="46.2381224334" lon="7.5375866890"><ele></ele><time>2014-9-28T12:38:49Z</time></trkpt>
<trkpt lat="46.2382634170" lon="7.5374170393"><ele></ele><time>2014-9-28T12:38:52Z</time></trkpt>
<trkpt lat="46.2384603918" lon="7.5372953340"><ele></ele><time>2014-9-28T12:38:55Z</time></trkpt>
<trkpt lat="46.2386166304" lon="7.5370509177"><ele></ele><time>2014-9-28T12:38:58Z</time></trkpt>
<trkpt lat="46.2388096657" lon="7.5368873868"><ele></ele><time>2014-9-28T12:39:1Z</time></trkpt>
<trkpt lat="46.2390509807" lon="7.5368686114"><ele></ele><time>2014-9-28T12:39:4Z</time></trkpt>
<trkpt lat="46.2391153537" lon="7.5369147118"><ele></ele><time>2014-9-28T12:39:7Z</time></trkpt>
<trkpt lat="46.2391579337" lon="7.5369401928"><ele></ele><time>2014-9-28T12:39:10Z</time></trkpt>
<trkpt lat="46.2392809801" lon="7.5369186513"><ele></ele><time>2014-9-28T12:39:13Z</time></trkpt>
<trkpt lat="46.2394778710" lon="7.5369690266"><ele></ele><time>2014-9-28T12:39:16Z</time></trkpt>
<trkpt lat="46.2396039348" lon="7.5370546058"><ele></ele><time>2014-9-28T12:39:19Z</time></trkpt>
<trkpt lat="46.2398407236" lon="7.5370745547"><ele></ele><time>2014-9-28T12:39:22Z</time></trkpt>
<trkpt lat="46.2402091920" lon="7.5369921606"><ele></ele><time>2014-9-28T12:39:25Z</time></trkpt>
<trkpt lat="46.2403666880" lon="7.5367292203"><ele></ele><time>2014-9-28T12:39:28Z</time></trkpt>
<trkpt lat="46.2406147923" lon="7.5365159009"><ele></ele><time>2014-9-28T12:39:31Z</time></trkpt>
<trkpt lat="46.2406338193" lon="7.5363006536"><ele></ele><time>2014-9-28T12:39:34Z</time></trkpt>
<trkpt lat="46.2406045664" lon="7.5361253880"><ele></ele><time>2014-9-28T12:39:37Z</time></trkpt>
<trkpt lat="46.2407418620" lon="7.5358757749"><ele></ele><time>2014-9-28T12:39:40Z</time></trkpt>
<trkpt lat="46.2408020440" lon="7.5358849112"><ele></ele><time>2014-9-28T12:39:43Z</time></trkpt>
<trkpt lat="46.2411218137" lon="7.5359220430"><ele></ele><time>2014-9-28T12:39:46Z</time></trkpt>
<trkpt lat="46.2413256615" lon="7.5360471848"><ele></ele><time>2014-9-28T12:39:49Z</time></trkpt>
<trkpt lat="46.2415578403" lon="7.5361996517"><ele></ele><time>2014-9-28T12:39:52Z</time></trkpt>
<trkpt lat="46.2418323476" lon="7.5363937765"><ele></ele><time>2014-9-28T12:39:55Z</time></trkpt>
<trkpt lat="46.2424177397" lon="7.5370740518"><ele></ele><time>2014-9-28T12:39:58Z</time></trkpt>
<trkpt lat="46.2428290397" lon="7.5375596154"><ele></ele><time>2014-9-28T12:40:1Z</time></trkpt>
<trkpt lat="46.2431737874" lon="7.5377938896"><ele></ele><time>2014-9-28T12:40:4Z</time></trkpt>
<trkpt lat="46.2434715964" lon="7.5381776970"><ele></ele><time>2014-9-28T12:40:7Z</time></trkpt>
<trkpt lat="46.2436140887" lon="7.5383168366"><ele></ele><time>2014-9-28T12:40:10Z</time></trkpt>
<trkpt lat="46.2439038511" lon="7.5385698024"><ele></ele><time>2014-9-28T12:40:13Z</time></trkpt>
<trkpt lat="46.2440786976" lon="7.5387253705"><ele></ele><time>2014-9-28T12:40:16Z</time></trkpt>
<trkpt lat="46.2443629280" lon="7.5389691163"><ele></ele><time>2014-9-28T12:40:19Z</time></trkpt>
<trkpt lat="46.2443879899" lon="7.5389976986"><ele></ele><time>2014-9-28T12:40:22Z</time></trkpt>
<trkpt lat="46.2446159776" lon="7.5390539411"><ele></ele><time>2014-9-28T12:40:25Z</time></trkpt>
<trkpt lat="46.2447719648" lon="7.5389878917"><ele></ele><time>2014-9-28T12:40:28Z</time></trkpt>
<trkpt lat="46.2448802590" lon="7.5388877280"><ele></ele><time>2014-9-28T12:40:31Z</time></trkpt>
<trkpt lat="46.2450955063" lon="7.5387535337"><ele></ele><time>2014-9-28T12:40:34Z</time></trkpt>
<trkpt lat="46.2453026231" lon="7.5384796970"><ele></ele><time>2014-9-28T12:40:37Z</time></trkpt>
<trkpt lat="46.2458787952" lon="7.5378468633"><ele></ele><time>2014-9-28T12:40:40Z</time></trkpt>
<trkpt lat="46.2462824676" lon="7.5375649799"><ele></ele><time>2014-9-28T12:40:43Z</time></trkpt>
<trkpt lat="46.2467127107" lon="7.5375640579"><ele></ele><time>2014-9-28T12:40:46Z</time></trkpt>
<trkpt lat="46.2469681911" lon="7.5374232419"><ele></ele><time>2014-9-28T12:40:49Z</time></trkpt>
<trkpt lat="46.2474496476" lon="7.5368795078"><ele></ele><time>2014-9-28T12:40:52Z</time></trkpt>
<trkpt lat="46.2477548327" lon="7.5366968662"><ele></ele><time>2014-9-28T12:40:55Z</time></trkpt>
<trkpt lat="46.2478953972" lon="7.5366620813"><ele></ele><time>2014-9-28T12:40:58Z</time></trkpt>
<trkpt lat="46.2480784580" lon="7.5362763461"><ele></ele><time>2014-9-28T12:41:1Z</time></trkpt>
<trkpt lat="46.2480523903" lon="7.5357183628"><ele></ele><time>2014-9-28T12:41:4Z</time></trkpt>
<trkpt lat="46.2480917014" lon="7.5356349628"><ele></ele><time>2014-9-28T12:41:7Z</time></trkpt>
<trkpt lat="46.2483621854" lon="7.5347049069"><ele></ele><time>2014-9-28T12:41:10Z</time></trkpt>
<trkpt lat="46.2483902648" lon="7.5339704007"><ele></ele><time>2014-9-28T12:41:13Z</time></trkpt>
<trkpt lat="46.2485579029" lon="7.5328950025"><ele></ele><time>2014-9-28T12:41:16Z</time></trkpt>
<trkpt lat="46.2487497646" lon="7.5318352785"><ele></ele><time>2014-9-28T12:41:19Z</time></trkpt>
<trkpt lat="46.2488117069" lon="7.5314697437"><ele></ele><time>2014-9-28T12:41:22Z</time></trkpt>
<trkpt lat="46.2489750702" lon="7.5309132691"><ele></ele><time>2014-9-28T12:41:25Z</time></trkpt>
<trkpt lat="46.2490304746" lon="7.5303643383"><ele></ele><time>2014-9-28T12:41:28Z</time></trkpt>
<trkpt lat="46.2490013894" lon="7.5301294774"><ele></ele><time>2014-9-28T12:41:31Z</time></trkpt>
<trkpt lat="46.2490617391" lon="7.5292440131"><ele></ele><time>2014-9-28T12:41:34Z</time></trkpt>
<trkpt lat="46.2490628287" lon="7.5287030451"><ele></ele><time>2014-9-28T12:41:37Z</time></trkpt>
<trkpt lat="46.2491604779" lon="7.5281028170"><ele></ele><time>2014-9-28T12:41:40Z</time></trkpt>
<trkpt lat="46.2492470630" lon="7.5275252201"><ele></ele><time>2014-9-28T12:41:43Z</time></trkpt>
<trkpt lat="46.2492267787" lon="7.5272738468"><ele></ele><time>2014-9-28T12:41:46Z</time></trkpt>
<trkpt lat="46.2491937540" lon="7.5270202942"><ele></ele><time>2014-9-28T12:41:49Z</time></trkpt>
<trkpt lat="46.2491826061" lon="7.5266284402"><ele></ele><time>2014-9-28T12:41:52Z</time></trkpt>
<trkpt lat="46.2492000405" lon="7.5253952108"><ele></ele><time>2014-9-28T12:41:55Z</time></trkpt>
<trkpt lat="46.2492284551" lon="7.5251173507"><ele></ele><time>2014-9-28T12:41:58Z</time></trkpt>
<trkpt lat="46.2493046466" lon="7.5247174501"><ele></ele><time>2014-9-28T12:42:1Z</time></trkpt>
<trkpt lat="46.2492763158" lon="7.5239396095"><ele></ele><time>2014-9-28T12:42:4Z</time></trkpt>
<trkpt lat="46.2489982881" lon="7.5234739110"><ele></ele><time>2014-9-28T12:42:7Z</time></trkpt>
<trkpt lat="46.2485932745" lon="7.5233876612"><ele></ele><time>2014-9-28T12:42:10Z</time></trkpt>
<trkpt lat="46.2484648637" lon="7.5232767686"><ele></ele><time>2014-9-28T12:42:13Z</time></trkpt>
<trkpt lat="46.2482508738" lon="7.5229273271"><ele></ele><time>2014-9-28T12:42:16Z</time></trkpt>
<trkpt lat="46.2481476925" lon="7.5226457790"><ele></ele><time>2014-9-28T12:42:19Z</time></trkpt>
<trkpt lat="46.2479104009" lon="7.5222924817"><ele></ele><time>2014-9-28T12:42:22Z</time></trkpt>
<trkpt lat="46.2477726862" lon="7.5221988559"><ele></ele><time>2014-9-28T12:42:25Z</time></trkpt>
<trkpt lat="46.2476181239" lon="7.5220765639"><ele></ele><time>2014-9-28T12:42:28Z</time></trkpt>
<trkpt lat="46.2477717642" lon="7.5220881309"><ele></ele><time>2014-9-28T12:42:31Z</time></trkpt>
<trkpt lat="46.2479435094" lon="7.5221752189"><ele></ele><time>2014-9-28T12:42:34Z</time></trkpt>
<trkpt lat="46.2482550647" lon="7.5221928209"><ele></ele><time>2014-9-28T12:42:37Z</time></trkpt>
<trkpt lat="46.2486586533" lon="7.5223558489"><ele></ele><time>2014-9-28T12:42:40Z</time></trkpt>
<trkpt lat="46.2488618307" lon="7.5225268397"><ele></ele><time>2014-9-28T12:42:43Z</time></trkpt>
<trkpt lat="46.2491375115" lon="7.5225669052"><ele></ele><time>2014-9-28T12:42:46Z</time></trkpt>
<trkpt lat="46.2493993621" lon="7.5224963296"><ele></ele><time>2014-9-28T12:42:49Z</time></trkpt>
<trkpt lat="46.2500854209" lon="7.5225413404"><ele></ele><time>2014-9-28T12:42:52Z</time></trkpt>
<trkpt lat="46.2504873332" lon="7.5226470362"><ele></ele><time>2014-9-28T12:42:55Z</time></trkpt>
<trkpt lat="46.2510532793" lon="7.5229685660"><ele></ele><time>2014-9-28T12:42:58Z</time></trkpt>
<trkpt lat="46.2511175685" lon="7.5230085477"><ele></ele><time>2014-9-28T12:43:1Z</time></trkpt>
<trkpt lat="46.2512539420" lon="7.5232568197"><ele></ele><time>2014-9-28T12:43:4Z</time></trkpt>
<trkpt lat="46.2513717078" lon="7.5235593226"><ele></ele><time>2014-9-28T12:43:7Z</time></trkpt>
<trkpt lat="46.2516319659" lon="7.5241194014"><ele></ele><time>2014-9-28T12:43:10Z</time></trkpt>
<trkpt lat="46.2518493086" lon="7.5245768018"><ele></ele><time>2014-9-28T12:43:13Z</time></trkpt>
<trkpt lat="46.2519303616" lon="7.5253248867"><ele></ele><time>2014-9-28T12:43:16Z</time></trkpt>
<trkpt lat="46.2520827446" lon="7.5261444692"><ele></ele><time>2014-9-28T12:43:19Z</time></trkpt>
<trkpt lat="46.2521543261" lon="7.5265988521"><ele></ele><time>2014-9-28T12:43:22Z</time></trkpt>
<trkpt lat="46.2521707546" lon="7.5267141871"><ele></ele><time>2014-9-28T12:43:25Z</time></trkpt>
<trkpt lat="46.2522611115" lon="7.5271893572"><ele></ele><time>2014-9-28T12:43:28Z</time></trkpt>
<trkpt lat="46.2524538953" lon="7.5275770202"><ele></ele><time>2014-9-28T12:43:31Z</time></trkpt>
<trkpt lat="46.2528634351" lon="7.5276680477"><ele></ele><time>2014-9-28T12:43:34Z</time></trkpt>
<trkpt lat="46.2530449871" lon="7.5279917568"><ele></ele><time>2014-9-28T12:43:37Z</time></trkpt>
<trkpt lat="46.2531449832" lon="7.5284917373"><ele></ele><time>2014-9-28T12:43:40Z</time></trkpt>
<trkpt lat="46.2533500046" lon="7.5285770651"><ele></ele><time>2014-9-28T12:43:43Z</time></trkpt>
<trkpt lat="46.2536878791" lon="7.5286245905"><ele></ele><time>2014-9-28T12:43:46Z</time></trkpt>
<trkpt lat="46.2539343070" lon="7.5289933942"><ele></ele><time>2014-9-28T12:43:49Z</time></trkpt>
<trkpt lat="46.2539570220" lon="7.5291886088"><ele></ele><time>2014-9-28T12:43:52Z</time></trkpt>
<trkpt lat="46.2541419268" lon="7.5296114758"><ele></ele><time>2014-9-28T12:43:55Z</time></trkpt>
<trkpt lat="46.2547372095" lon="7.5302191637"><ele></ele><time>2014-9-28T12:43:58Z</time></trkpt>
<trkpt lat="46.2547927815" lon="7.5302699581"><ele></ele><time>2014-9-28T12:44:1Z</time></trkpt>
<trkpt lat="46.2551262975" lon="7.5302307308"><ele></ele><time>2014-9-28T12:44:4Z</time></trkpt>
<trkpt lat="46.2551667821" lon="7.5301438943"><ele></ele><time>2014-9-28T12:44:7Z</time></trkpt>
<trkpt lat="46.2554427981" lon="7.5295357872"><ele></ele><time>2014-9-28T12:44:10Z</time></trkpt>
<trkpt lat="46.2557204068" lon="7.5293795485"><ele></ele><time>2014-9-28T12:44:13Z</time></trkpt>
<trkpt lat="46.2558219954" lon="7.5294043589"><ele></ele><time>2014-9-28T12:44:16Z</time></trkpt>
<trkpt lat="46.2559672538" lon="7.5296923611"><ele></ele><time>2014-9-28T12:44:19Z</time></trkpt>
<trkpt lat="46.2561814114" lon="7.5305508357"><ele></ele><time>2014-9-28T12:44:22Z</time></trkpt>
<trkpt lat="46.2562302779" lon="7.5309594534"><ele></ele><time>2014-9-28T12:44:25Z</time></trkpt>
<trkpt lat="46.2562373187" lon="7.5311456993"><ele></ele><time>2014-9-28T12:44:28Z</time></trkpt>
<trkpt lat="46.2562812399" lon="7.5313891098"><ele></ele><time>2014-9-28T12:44:31Z</time></trkpt>
<trkpt lat="46.2561354786" lon="7.5318141561"><ele></ele><time>2014-9-28T12:44:34Z</time></trkpt>
<trkpt lat="46.2559964228" lon="7.5320394617"><ele></ele><time>2014-9-28T12:44:37Z</time></trkpt>
<trkpt lat="46.2558193970" lon="7.5328404363"><ele></ele><time>2014-9-28T12:44:40Z</time></trkpt>
<trkpt lat="46.2557956763" lon="7.5329661649"><ele></ele><time>2014-9-28T12:44:43Z</time></trkpt>
<trkpt lat="46.2556224223" lon="7.5333760399"><ele></ele><time>2014-9-28T12:44:46Z</time></trkpt>
<trkpt lat="46.2556299660" lon="7.5335544068"><ele></ele><time>2014-9-28T12:44:49Z</time></trkpt>
<trkpt lat="46.2556843646" lon="7.5334764551"><ele></ele><time>2014-9-28T12:44:52Z</time></trkpt>
<trkpt lat="46.2556840293" lon="7.5334912911"><ele></ele><time>2014-9-28T12:44:55Z</time></trkpt>
<trkpt lat="46.2556942552" lon="7.5335067976"><ele></ele><time>2014-9-28T12:44:58Z</time></trkpt>
<trkpt lat="46.2556886394" lon="7.5334912911"><ele></ele><time>2014-9-28T12:45:1Z</time></trkpt>
</trkseg></trk></gpx>